Darstellungsparameter: Aktuell verwendete Einstellungen:
Skalierung der Graphiken ... ?
xyx+y,   Skalierungsfaktor:      Skalierung: Modus: x, Faktor: 1
Darstellungszeitraum ... ?
Vom - - bis: - -   Zeitraum: 19.08.2010 - 18.09.2010
Min/Max/Avg-Anzeige ... ?
Zeige MMA aktuell
Zeige MMA Monat
Zeige MMA alles
Zeige --A aktuell
Zeige --A Monat
Zeige --A alles
Keine MMA-Anzeige
MMA:
Average (ber die Originaldaten)
MMA-Basis: 23.02.2003 - 30.09.2020
Quicknavigation für Darstellung... ?
Tage:      1T, 2T, 3T, 5T -1T -2T -3T -5T +1T +2T +3T +5T
Wochen: 1W, 2W, 3W -1W -2W -3W +1W +2W +3W
Monate: 1M, 3M, 6M -1M -3M -6M +1M +3M +6M
Jahre:    1J, 3J, 5J, 10J -1J -3J -5J -10J +1J +3J +5J +10J
Nutze für die Darstellung ... ?
Originaldaten oder Mittelwerte auf ...
Stundenbasis Tagesbasis Wochenbasis
Monatsbasis Jahresbasis      Datenbasis: Original-Daten
Darstellen als:
Statistik (Auto) Statistik J:M      Darstellung:
Zur Graphik,    zurück zur Übersicht aller Sensoren.
 
Tabellarische Datenbersicht: ?
 
Sensor: Nr:Datum:Temp:Abs-Feuchte:Windchill:Wind:
Aussen-T/F 1 19-08-2010 00:10:04 17.4 C 9.19 g/m*3 17.4 C 0 km/h
2 19-08-2010 00:22:04 17.4 C 9.34 g/m*3 17.4 C 0 km/h
3 19-08-2010 00:34:04 17.4 C 9.04 g/m*3 17.4 C 0 km/h
4 19-08-2010 00:46:04 17.3 C 9.13 g/m*3 17.3 C 0 km/h
5 19-08-2010 00:58:04 17.3 C 8.99 g/m*3 17.3 C 0 km/h
6 19-08-2010 01:10:04 17.1 C 9.03 g/m*3 17.1 C 0 km/h
7 19-08-2010 01:22:05 17.1 C 9.17 g/m*3 17.1 C 0 km/h
8 19-08-2010 01:34:05 16.8 C 9.29 g/m*3 16.8 C 0 km/h
9 19-08-2010 01:46:05 16.7 C 9.24 g/m*3 16.7 C 0 km/h
10 19-08-2010 01:58:05 16.6 C 9.18 g/m*3 16.6 C 0 km/h
11 19-08-2010 02:10:05 16.5 C 8.85 g/m*3 16.5 C 0 km/h
12 19-08-2010 02:22:05 16.4 C 8.93 g/m*3 16.4 C 0 km/h
13 19-08-2010 02:34:05 16.3 C 8.6 g/m*3 16.3 C 0 km/h
14 19-08-2010 02:46:05 16.2 C 8.69 g/m*3 16.2 C 0 km/h
15 19-08-2010 02:58:05 16.2 C 8.96 g/m*3 16.2 C 0 km/h
16 19-08-2010 03:10:05 16.1 C 9.18 g/m*3 16.1 C 0 km/h
17 19-08-2010 03:22:05 16 C 9.26 g/m*3 16 C 0 km/h
18 19-08-2010 03:34:05 15.9 C 9.34 g/m*3 15.9 C 0 km/h
19 19-08-2010 03:46:05 15.8 C 9.15 g/m*3 15.8 C 0 km/h
20 19-08-2010 03:58:05 15.7 C 9.1 g/m*3 15.7 C 0 km/h
21 19-08-2010 04:10:05 15.7 C 9.23 g/m*3 15.7 C 0 km/h
22 19-08-2010 04:22:05 15.6 C 9.18 g/m*3 15.6 C 0 km/h
23 19-08-2010 04:34:05 15.5 C 9.39 g/m*3 15.5 C 0 km/h
24 19-08-2010 04:46:05 15.4 C 9.46 g/m*3 15.4 C 0 km/h
25 19-08-2010 04:58:05 15.5 C 9.65 g/m*3 15.5 C 0 km/h
Sensor: Nr:Datum:Temp:Abs-Feuchte:Windchill:Wind:
Aussen-T/F 26 19-08-2010 05:10:05 15.3 C 9.53 g/m*3 15.3 C 0 km/h
27 19-08-2010 05:22:05 15.2 C 9.48 g/m*3 15.2 C 0 km/h
28 19-08-2010 05:34:05 15 C 9.23 g/m*3 15 C 0 km/h
29 19-08-2010 05:46:05 15 C 9.36 g/m*3 15 C 0 km/h
30 19-08-2010 05:58:06 15 C 8.98 g/m*3 15 C 0 km/h
31 19-08-2010 06:10:06 14.8 C 8.99 g/m*3 14.8 C 0 km/h
32 19-08-2010 06:22:06 14.4 C 8.9 g/m*3 14.4 C 0 km/h
33 19-08-2010 06:34:06 14.2 C 8.91 g/m*3 14.2 C 0 km/h
34 19-08-2010 06:46:06 13.7 C 8.76 g/m*3 13.7 C 0 km/h
35 19-08-2010 06:58:06 13.8 C 8.94 g/m*3 13.8 C 0 km/h
36 19-08-2010 07:10:06 13.7 C 8.76 g/m*3 13.7 C 0 km/h
37 19-08-2010 07:22:06 13.9 C 8.15 g/m*3 13.9 C 0 km/h
38 19-08-2010 07:34:06 13.9 C 8.15 g/m*3 13.9 C 0 km/h
39 19-08-2010 07:46:01 14 C 8.08 g/m*3 14 C 0 km/h
40 19-08-2010 07:58:01 14.1 C 7.89 g/m*3 14.1 C 0 km/h
41 19-08-2010 08:10:02 14.4 C 7.91 g/m*3 14.4 C 0 km/h
42 19-08-2010 08:22:01 14.6 C 8.01 g/m*3 14.6 C 0 km/h
43 19-08-2010 08:34:01 14.8 C 8.11 g/m*3 14.8 C 0 km/h
44 19-08-2010 08:46:01 14.9 C 8.16 g/m*3 14.9 C 0 km/h
45 19-08-2010 08:58:01 15.2 C 8.05 g/m*3 15.2 C 0 km/h
46 19-08-2010 09:10:02 15.3 C 8.23 g/m*3 15.3 C 0 km/h
47 19-08-2010 09:22:01 15.4 C 8.15 g/m*3 15.4 C 0 km/h
48 19-08-2010 09:34:01 15.7 C 8.03 g/m*3 15.7 C 0 km/h
49 19-08-2010 09:46:01 16 C 8.04 g/m*3 16 C 0 km/h
50 19-08-2010 09:58:01 16.2 C 7.86 g/m*3 16.2 C 0 km/h
Sensor: Nr:Datum:Temp:Abs-Feuchte:Windchill:Wind:
Aussen-T/F 51 19-08-2010 10:10:02 16.6 C 7.91 g/m*3 16.6 C 0 km/h
52 19-08-2010 10:22:02 17.1 C 7.71 g/m*3 17.1 C 0 km/h
53 19-08-2010 10:34:02 17.7 C 7.69 g/m*3 17.7 C 0 km/h
54 19-08-2010 10:46:02 18.8 C 7.73 g/m*3 18.8 C 0 km/h
55 19-08-2010 10:58:02 19.3 C 7.3 g/m*3 19.3 C 0 km/h
56 19-08-2010 11:10:02 19.2 C 7.26 g/m*3 19.2 C 0 km/h
57 19-08-2010 11:22:02 19.5 C 7.38 g/m*3 19.5 C 0 km/h
58 19-08-2010 11:34:03 20.2 C 6.99 g/m*3 20.2 C 0 km/h
59 19-08-2010 11:46:02 20.4 C 7.43 g/m*3 20.4 C 0 km/h
60 19-08-2010 11:58:02 20.7 C 7.2 g/m*3 20.7 C 0 km/h
61 19-08-2010 12:10:01 20.3 C 7.03 g/m*3 20.3 C 0 km/h
62 19-08-2010 12:22:02 20.8 C 6.88 g/m*3 20.8 C 0 km/h
63 19-08-2010 12:34:02 22.1 C 6.64 g/m*3 22.1 C 0 km/h
64 19-08-2010 12:46:02 22 C 6.4 g/m*3 22 C 0 km/h
65 19-08-2010 12:58:02 22 C 6.21 g/m*3 22 C 0 km/h
66 19-08-2010 13:10:03 22.1 C 6.25 g/m*3 22.1 C 0 km/h
67 19-08-2010 13:22:02 22.1 C 6.05 g/m*3 22.1 C 0 km/h
68 19-08-2010 13:34:02 22.6 C 6.23 g/m*3 22.6 C 0 km/h
69 19-08-2010 13:46:01 22.7 C 6.06 g/m*3 22.7 C 0 km/h
70 19-08-2010 13:58:01 23.7 C 6.2 g/m*3 23.7 C 0 km/h
71 19-08-2010 14:10:02 23.3 C 6.27 g/m*3 23.3 C 0 km/h
72 19-08-2010 14:22:01 22.8 C 6.1 g/m*3 22.8 C 0 km/h
73 19-08-2010 14:34:01 23.7 C 5.78 g/m*3 23.7 C 0 km/h
74 19-08-2010 14:46:01 23 C 5.55 g/m*3 23 C 0 km/h
75 19-08-2010 14:58:01 22.4 C 6.36 g/m*3 22.4 C 0 km/h
Sensor: Nr:Datum:Temp:Abs-Feuchte:Windchill:Wind:
Aussen-T/F 76 19-08-2010 15:10:02 22.4 C 6.95 g/m*3 22.4 C 0 km/h
77 19-08-2010 15:22:01 23.2 C 6.44 g/m*3 23.2 C 0 km/h
78 19-08-2010 15:34:01 24.3 C 5.97 g/m*3 24.3 C 0 km/h
79 19-08-2010 15:46:01 24.6 C 5.63 g/m*3 24.6 C 0 km/h
80 19-08-2010 15:58:01 24.2 C 5.94 g/m*3 24.2 C 0 km/h
81 19-08-2010 16:10:01 23.4 C 7.36 g/m*3 23.4 C 0 km/h
82 19-08-2010 16:22:02 23.5 C 7.4 g/m*3 23.5 C 0 km/h
83 19-08-2010 16:34:01 23.5 C 7.82 g/m*3 23.5 C 0 km/h
84 19-08-2010 16:46:03 23.1 C 7.65 g/m*3 23.1 C 0 km/h
85 19-08-2010 16:58:03 22.9 C 7.97 g/m*3 22.9 C 0 km/h
86 19-08-2010 17:10:02 22.4 C 8.14 g/m*3 22.4 C 0 km/h
87 19-08-2010 17:22:02 22.9 C 8.17 g/m*3 22.9 C 0 km/h
88 19-08-2010 17:34:02 24.1 C 8.1 g/m*3 24.1 C 0 km/h
89 19-08-2010 17:46:02 24.5 C 7.39 g/m*3 24.5 C 0 km/h
90 19-08-2010 17:58:02 25.6 C 5.48 g/m*3 25.6 C 0 km/h
91 19-08-2010 18:10:01 25.1 C 5.32 g/m*3 25.1 C 0 km/h
92 19-08-2010 18:22:02 25 C 5.75 g/m*3 25 C 0 km/h
93 19-08-2010 18:34:02 25.3 C 5.85 g/m*3 25.3 C 0 km/h
94 19-08-2010 18:46:02 25.7 C 5.99 g/m*3 25.7 C 0 km/h
95 19-08-2010 18:58:02 26 C 5.84 g/m*3 26 C 0 km/h
96 19-08-2010 19:10:03 25.8 C 6.98 g/m*3 25.8 C 0 km/h
97 19-08-2010 19:22:02 25.8 C 6.26 g/m*3 25.8 C 0 km/h
98 19-08-2010 19:34:02 25.6 C 6.67 g/m*3 25.6 C 0 km/h
99 19-08-2010 19:46:01 24.9 C 6.87 g/m*3 24.9 C 0 km/h
100 19-08-2010 19:58:01 24.1 C 6.35 g/m*3 24.1 C 0 km/h
Sensor: Nr:Datum:Temp:Abs-Feuchte:Windchill:Wind:
Aussen-T/F 101 19-08-2010 20:10:02 22.8 C 6.71 g/m*3 22.8 C 0 km/h
102 19-08-2010 20:22:01 21.3 C 7.08 g/m*3 21.3 C 0 km/h
103 19-08-2010 20:34:02 20.1 C 7.13 g/m*3 20.1 C 0 km/h
104 19-08-2010 20:46:01 19.4 C 7.17 g/m*3 19.4 C 0 km/h
105 19-08-2010 20:58:01 18.9 C 7.45 g/m*3 18.9 C 0 km/h
106 19-08-2010 21:10:02 18.5 C 7.44 g/m*3 18.5 C 0 km/h
107 19-08-2010 21:22:01 18.3 C 7.82 g/m*3 18.3 C 0 km/h
108 19-08-2010 21:34:02 18.2 C 7.77 g/m*3 18.2 C 0 km/h
109 19-08-2010 21:46:01 17.9 C 8.09 g/m*3 17.9 C 0 km/h
110 19-08-2010 21:58:01 17.5 C 7.75 g/m*3 17.5 C 0 km/h
111 19-08-2010 22:10:02 17.3 C 7.96 g/m*3 17.3 C 0 km/h
112 19-08-2010 22:22:02 17.1 C 8.01 g/m*3 17.1 C 0 km/h
113 19-08-2010 22:34:02 17 C 7.96 g/m*3 17 C 0 km/h
114 19-08-2010 22:47:36 16.6 C 8.05 g/m*3 16.6 C 0 km/h
115 19-08-2010 22:59:36 16.3 C 8.05 g/m*3 16.3 C 0 km/h
116 19-08-2010 23:11:36 16 C 8.17 g/m*3 16 C 0 km/h
117 19-08-2010 23:23:36 15.8 C 8.48 g/m*3 15.8 C 0 km/h
118 19-08-2010 23:35:36 15.6 C 8.38 g/m*3 15.6 C 0 km/h
119 19-08-2010 23:47:36 15.5 C 8.46 g/m*3 15.5 C 0 km/h
120 19-08-2010 23:59:36 15.2 C 8.31 g/m*3 15.2 C 0 km/h
121 20-08-2010 00:11:36 15.1 C 8.51 g/m*3 15.1 C 0 km/h
122 20-08-2010 00:23:36 14.9 C 8.54 g/m*3 14.9 C 0 km/h
123 20-08-2010 00:35:36 14.7 C 8.56 g/m*3 14.7 C 0 km/h
124 20-08-2010 00:47:36 14.5 C 8.58 g/m*3 14.5 C 0 km/h
125 20-08-2010 00:59:36 14.4 C 8.53 g/m*3 14.4 C 0 km/h
Sensor: Nr:Datum:Temp:Abs-Feuchte:Windchill:Wind:
Aussen-T/F 126 20-08-2010 01:11:36 14.3 C 8.6 g/m*3 14.3 C 0 km/h
127 20-08-2010 01:23:36 14.2 C 8.67 g/m*3 14.2 C 0 km/h
128 20-08-2010 01:35:36 13.9 C 8.63 g/m*3 13.9 C 0 km/h
129 20-08-2010 01:47:37 14 C 8.56 g/m*3 14 C 0 km/h
130 20-08-2010 01:59:37 13.8 C 8.58 g/m*3 13.8 C 0 km/h
131 20-08-2010 02:11:37 13.6 C 8.59 g/m*3 13.6 C 0 km/h
132 20-08-2010 02:23:37 13.5 C 8.54 g/m*3 13.5 C 0 km/h
133 20-08-2010 02:35:37 13.3 C 8.66 g/m*3 13.3 C 0 km/h
134 20-08-2010 02:47:37 13.2 C 8.61 g/m*3 13.2 C 0 km/h
135 20-08-2010 02:59:37 13.1 C 8.56 g/m*3 13.1 C 0 km/h
136 20-08-2010 03:11:37 13 C 8.62 g/m*3 13 C 0 km/h
137 20-08-2010 03:23:03 12.9 C 8.68 g/m*3 12.9 C 0 km/h
138 20-08-2010 03:35:03 12.8 C 8.62 g/m*3 12.8 C 0 km/h
139 20-08-2010 03:47:03 12.7 C 8.57 g/m*3 12.7 C 0 km/h
140 20-08-2010 03:59:03 12.6 C 8.63 g/m*3 12.6 C 0 km/h
141 20-08-2010 04:11:03 12.4 C 8.63 g/m*3 12.4 C 0 km/h
142 20-08-2010 04:23:03 12.4 C 8.63 g/m*3 12.4 C 0 km/h
143 20-08-2010 04:35:03 12.3 C 8.58 g/m*3 12.3 C 0 km/h
144 20-08-2010 04:47:03 12.1 C 8.47 g/m*3 12.1 C 0 km/h
145 20-08-2010 04:59:03 12.1 C 8.58 g/m*3 12.1 C 0 km/h
146 20-08-2010 05:11:03 12 C 8.53 g/m*3 12 C 0 km/h
147 20-08-2010 05:23:03 12 C 8.63 g/m*3 12 C 0 km/h
148 20-08-2010 05:35:03 12 C 8.53 g/m*3 12 C 0 km/h
149 20-08-2010 05:47:03 11.8 C 8.53 g/m*3 11.8 C 0 km/h
150 20-08-2010 05:59:03 11.7 C 8.58 g/m*3 11.7 C 0 km/h
Sensor: Nr:Datum:Temp:Abs-Feuchte:Windchill:Wind:
Aussen-T/F 151 20-08-2010 06:11:03 11.6 C 8.52 g/m*3 11.6 C 0 km/h
152 20-08-2010 06:23:04 11.5 C 8.57 g/m*3 11.5 C 0 km/h
153 20-08-2010 06:35:04 11.4 C 8.52 g/m*3 11.4 C 0 km/h
154 20-08-2010 06:47:04 11.4 C 8.52 g/m*3 11.4 C 0 km/h
155 20-08-2010 06:59:04 11.5 C 8.57 g/m*3 11.5 C 0 km/h
156 20-08-2010 07:11:04 11.6 C 8.63 g/m*3 11.6 C 0 km/h
157 20-08-2010 07:23:04 11.6 C 8.73 g/m*3 11.6 C 0 km/h
158 20-08-2010 07:35:03 11.7 C 8.79 g/m*3 11.7 C 0 km/h
159 20-08-2010 07:47:03 11.8 C 8.84 g/m*3 11.8 C 0 km/h
160 20-08-2010 07:59:03 12.1 C 8.9 g/m*3 12.1 C 0 km/h
161 20-08-2010 08:11:02 12.1 C 9.01 g/m*3 12.1 C 0 km/h
162 20-08-2010 08:23:02 12.3 C 9.12 g/m*3 12.3 C 0 km/h
163 20-08-2010 08:35:02 12.5 C 9.24 g/m*3 12.5 C 0 km/h
164 20-08-2010 08:47:02 12.8 C 9.3 g/m*3 12.8 C 0 km/h
165 20-08-2010 08:59:02 13 C 9.3 g/m*3 13 C 0 km/h
166 20-08-2010 09:11:02 13.3 C 9.47 g/m*3 13.3 C 0 km/h
167 20-08-2010 09:23:02 13.8 C 9.77 g/m*3 13.8 C 0 km/h
168 20-08-2010 09:35:02 14.4 C 9.89 g/m*3 14.4 C 0 km/h
169 20-08-2010 09:47:02 15 C 10 g/m*3 15 C 0 km/h
170 20-08-2010 09:59:02 16 C 10.08 g/m*3 16 C 0 km/h
171 20-08-2010 10:11:01 16.8 C 10.29 g/m*3 16.8 C 0 km/h
172 20-08-2010 10:23:01 17.4 C 10.23 g/m*3 17.4 C 0 km/h
173 20-08-2010 10:35:02 18.1 C 10.2 g/m*3 18.1 C 0 km/h
174 20-08-2010 10:47:02 18.6 C 10.35 g/m*3 18.6 C 0 km/h
175 20-08-2010 10:59:02 19.2 C 10.39 g/m*3 19.2 C 0 km/h
Sensor: Nr:Datum:Temp:Abs-Feuchte:Windchill:Wind:
Aussen-T/F 176 20-08-2010 11:11:02 19.8 C 10.76 g/m*3 19.8 C 0 km/h
177 20-08-2010 11:23:02 20.5 C 10.68 g/m*3 20.5 C 0 km/h
178 20-08-2010 11:35:02 20.9 C 10.75 g/m*3 20.9 C 0 km/h
179 20-08-2010 11:47:02 21.7 C 11.06 g/m*3 21.7 C 0 km/h
180 20-08-2010 11:59:02 22 C 11.06 g/m*3 22 C 0 km/h
181 20-08-2010 12:11:02 22.8 C 10.97 g/m*3 22.8 C 0 km/h
182 20-08-2010 12:23:02 23.2 C 10.6 g/m*3 23.2 C 0 km/h
183 20-08-2010 12:35:02 23.7 C 11.12 g/m*3 23.7 C 0 km/h
184 20-08-2010 12:47:01 24.1 C 10.72 g/m*3 24.1 C 0 km/h
185 20-08-2010 12:59:01 25 C 10.82 g/m*3 25 C 0 km/h
186 20-08-2010 13:11:01 25.6 C 9.52 g/m*3 25.6 C 0 km/h
187 20-08-2010 13:23:01 26.4 C 9.71 g/m*3 26.4 C 0 km/h
188 20-08-2010 13:35:01 27 C 9.01 g/m*3 27 C 0 km/h
189 20-08-2010 13:47:02 27.5 C 9 g/m*3 27.5 C 0 km/h
190 20-08-2010 13:59:02 27.3 C 7.85 g/m*3 27.3 C 0 km/h
191 20-08-2010 14:11:02 27.8 C 8.07 g/m*3 27.8 C 0 km/h
192 20-08-2010 14:23:03 28.4 C 8.06 g/m*3 28.4 C 0 km/h
193 20-08-2010 14:35:02 28.1 C 7.11 g/m*3 28.1 C 0 km/h
194 20-08-2010 14:47:02 28.6 C 8.43 g/m*3 28.6 C 0 km/h
195 20-08-2010 14:59:02 28.9 C 7.43 g/m*3 28.9 C 0 km/h
196 20-08-2010 15:11:02 28.9 C 7.43 g/m*3 28.9 C 0 km/h
197 20-08-2010 15:23:02 29 C 7.18 g/m*3 29 C 0 km/h
198 20-08-2010 15:35:01 29.5 C 7.67 g/m*3 29.5 C 0 km/h
199 20-08-2010 15:47:02 30.1 C 7.32 g/m*3 30.1 C 0 km/h
200 20-08-2010 15:59:02 30.2 C 7.66 g/m*3 30.2 C 0 km/h
Sensor: Nr:Datum:Temp:Abs-Feuchte:Windchill:Wind:
Aussen-T/F 201 20-08-2010 16:11:01 30.4 C 7.75 g/m*3 30.4 C 0 km/h
202 20-08-2010 16:23:02 30.5 C 7.48 g/m*3 30.5 C 0 km/h
203 20-08-2010 16:35:02 30.9 C 7.96 g/m*3 30.9 C 0 km/h
204 20-08-2010 16:47:02 31 C 7.36 g/m*3 31 C 0 km/h
205 20-08-2010 16:59:02 30.8 C 7.28 g/m*3 30.8 C 0 km/h
206 20-08-2010 17:11:02 30.9 C 7.64 g/m*3 30.9 C 0 km/h
207 20-08-2010 17:23:02 31.2 C 7.12 g/m*3 31.2 C 0 km/h
208 20-08-2010 17:35:02 31.3 C 7.48 g/m*3 31.3 C 0 km/h
209 20-08-2010 17:47:02 31.4 C 7.19 g/m*3 31.4 C 0 km/h
210 20-08-2010 17:59:02 31 C 7.04 g/m*3 31 C 0 km/h
211 20-08-2010 18:11:02 31.3 C 7.48 g/m*3 31.3 C 0 km/h
212 20-08-2010 18:23:02 31.4 C 7.52 g/m*3 31.4 C 0 km/h
213 20-08-2010 18:35:02 31.5 C 7.56 g/m*3 31.5 C 0 km/h
214 20-08-2010 18:47:02 31 C 7.36 g/m*3 31 C 0 km/h
215 20-08-2010 18:59:02 30.9 C 8.28 g/m*3 30.9 C 0 km/h
216 20-08-2010 19:11:02 30.6 C 8.46 g/m*3 30.6 C 0 km/h
217 20-08-2010 19:23:03 30.3 C 8.63 g/m*3 30.3 C 0 km/h
218 20-08-2010 19:35:01 30 C 8.49 g/m*3 30 C 0 km/h
219 20-08-2010 19:47:02 29 C 8.04 g/m*3 29 C 0 km/h
220 20-08-2010 19:59:02 28 C 8.43 g/m*3 28 C 0 km/h
221 20-08-2010 20:11:02 26.6 C 8.81 g/m*3 26.6 C 0 km/h
222 20-08-2010 20:23:02 25.6 C 9.05 g/m*3 25.6 C 0 km/h
223 20-08-2010 20:35:01 25 C 9.21 g/m*3 25 C 0 km/h
224 20-08-2010 20:47:02 24.5 C 8.95 g/m*3 24.5 C 0 km/h
225 20-08-2010 20:59:03 23.8 C 9.25 g/m*3 23.8 C 0 km/h
Sensor: Nr:Datum:Temp:Abs-Feuchte:Windchill:Wind:
Aussen-T/F 226 20-08-2010 21:11:01 23.4 C 9.25 g/m*3 23.4 C 0 km/h
227 20-08-2010 21:23:01 23.3 C 9.41 g/m*3 23.3 C 0 km/h
228 20-08-2010 21:35:01 23.2 C 9.56 g/m*3 23.2 C 0 km/h
229 20-08-2010 21:47:02 22.9 C 9.81 g/m*3 22.9 C 0 km/h
230 20-08-2010 21:59:02 22.6 C 9.84 g/m*3 22.6 C 0 km/h
231 20-08-2010 22:11:02 22.5 C 9.99 g/m*3 22.5 C 0 km/h
232 20-08-2010 22:23:03 22.1 C 9.96 g/m*3 22.1 C 0 km/h
233 20-08-2010 22:35:02 21.9 C 10.42 g/m*3 21.9 C 0 km/h
234 20-08-2010 22:48:02 21.6 C 10.43 g/m*3 21.6 C 0 km/h
235 20-08-2010 23:00:02 21.4 C 10.5 g/m*3 21.4 C 0 km/h
236 20-08-2010 23:12:02 21.1 C 10.69 g/m*3 21.1 C 0 km/h
237 20-08-2010 23:24:02 20.9 C 10.75 g/m*3 20.9 C 0 km/h
238 20-08-2010 23:36:02 20.7 C 10.62 g/m*3 20.7 C 0 km/h
239 20-08-2010 23:48:02 20.4 C 10.61 g/m*3 20.4 C 0 km/h
240 21-08-2010 00:00:02 20.2 C 10.67 g/m*3 20.2 C 0 km/h
241 21-08-2010 00:12:02 20 C 10.71 g/m*3 20 C 0 km/h
242 21-08-2010 00:24:02 19.7 C 10.7 g/m*3 19.7 C 0 km/h
243 21-08-2010 00:36:02 19.6 C 10.8 g/m*3 19.6 C 0 km/h
244 21-08-2010 00:48:02 19.3 C 10.95 g/m*3 19.3 C 0 km/h
245 21-08-2010 01:00:02 19.1 C 10.98 g/m*3 19.1 C 0 km/h
246 21-08-2010 01:12:02 19 C 10.92 g/m*3 19 C 0 km/h
247 21-08-2010 01:24:02 18.8 C 11.11 g/m*3 18.8 C 0 km/h
248 21-08-2010 01:36:02 18.7 C 11.05 g/m*3 18.7 C 0 km/h
249 21-08-2010 01:48:02 18.6 C 10.98 g/m*3 18.6 C 0 km/h
250 21-08-2010 02:00:02 18.4 C 11.01 g/m*3 18.4 C 0 km/h
Sensor: Nr:Datum:Temp:Abs-Feuchte:Windchill:Wind:
Aussen-T/F 251 21-08-2010 02:12:02 18.2 C 11.04 g/m*3 18.2 C 0 km/h
252 21-08-2010 02:24:03 18.1 C 10.97 g/m*3 18.1 C 0 km/h
253 21-08-2010 02:36:03 18.1 C 11.12 g/m*3 18.1 C 0 km/h
254 21-08-2010 02:48:03 18 C 11.06 g/m*3 18 C 0 km/h
255 21-08-2010 03:00:03 17.9 C 11.15 g/m*3 17.9 C 0 km/h
256 21-08-2010 03:12:03 17.8 C 11.08 g/m*3 17.8 C 0 km/h
257 21-08-2010 03:24:03 17.7 C 11.16 g/m*3 17.7 C 0 km/h
258 21-08-2010 03:36:03 17.5 C 11.03 g/m*3 17.5 C 0 km/h
259 21-08-2010 03:48:03 17.4 C 11.12 g/m*3 17.4 C 0 km/h
260 21-08-2010 04:00:03 17.3 C 11.2 g/m*3 17.3 C 0 km/h
261 21-08-2010 04:12:03 17.2 C 11.13 g/m*3 17.2 C 0 km/h
262 21-08-2010 04:24:03 17.1 C 11.06 g/m*3 17.1 C 0 km/h
263 21-08-2010 04:36:03 16.9 C 11.08 g/m*3 16.9 C 0 km/h
264 21-08-2010 04:48:03 16.8 C 11.15 g/m*3 16.8 C 0 km/h
265 21-08-2010 05:00:03 16.7 C 11.08 g/m*3 16.7 C 0 km/h
266 21-08-2010 05:12:03 16.5 C 10.95 g/m*3 16.5 C 0 km/h
267 21-08-2010 05:24:03 16.5 C 10.95 g/m*3 16.5 C 0 km/h
268 21-08-2010 05:36:03 16.3 C 10.82 g/m*3 16.3 C 0 km/h
269 21-08-2010 05:48:03 16.3 C 10.96 g/m*3 16.3 C 0 km/h
270 21-08-2010 06:00:03 16.2 C 10.89 g/m*3 16.2 C 0 km/h
271 21-08-2010 06:12:03 16.1 C 10.83 g/m*3 16.1 C 0 km/h
272 21-08-2010 06:24:04 16 C 10.9 g/m*3 16 C 0 km/h
273 21-08-2010 06:36:04 16 C 10.9 g/m*3 16 C 0 km/h
274 21-08-2010 06:48:04 15.9 C 10.97 g/m*3 15.9 C 0 km/h
275 21-08-2010 07:00:04 15.8 C 10.9 g/m*3 15.8 C 0 km/h
Sensor: Nr:Datum:Temp:Abs-Feuchte:Windchill:Wind:
Aussen-T/F 276 21-08-2010 07:12:04 15.9 C 11.1 g/m*3 15.9 C 0 km/h
277 21-08-2010 07:24:04 16 C 11.04 g/m*3 16 C 0 km/h
278 21-08-2010 07:36:04 16.1 C 11.1 g/m*3 16.1 C 0 km/h
279 21-08-2010 07:48:04 16.2 C 11.17 g/m*3 16.2 C 0 km/h
280 21-08-2010 08:00:04 16.4 C 11.31 g/m*3 16.4 C 0 km/h
281 21-08-2010 08:12:02 16.6 C 11.58 g/m*3 16.6 C 0 km/h
282 21-08-2010 08:24:02 16.7 C 11.51 g/m*3 16.7 C 0 km/h
283 21-08-2010 08:36:02 17 C 11.58 g/m*3 17 C 0 km/h
284 21-08-2010 08:48:01 17.2 C 11.72 g/m*3 17.2 C 0 km/h
285 21-08-2010 09:00:01 17.5 C 11.78 g/m*3 17.5 C 0 km/h
286 21-08-2010 09:12:02 17.9 C 12.06 g/m*3 17.9 C 0 km/h
287 21-08-2010 09:24:02 18.4 C 12.27 g/m*3 18.4 C 0 km/h
288 21-08-2010 09:36:01 18.9 C 12.47 g/m*3 18.9 C 0 km/h
289 21-08-2010 09:48:02 19.4 C 12.51 g/m*3 19.4 C 0 km/h
290 21-08-2010 10:00:02 20.2 C 12.76 g/m*3 20.2 C 0 km/h
291 21-08-2010 10:12:02 20.8 C 12.86 g/m*3 20.8 C 0 km/h
292 21-08-2010 10:24:02 21.3 C 12.86 g/m*3 21.3 C 0 km/h
293 21-08-2010 10:36:01 22 C 12.81 g/m*3 22 C 0 km/h
294 21-08-2010 10:48:02 22.7 C 12.93 g/m*3 22.7 C 0 km/h
295 21-08-2010 11:00:02 23.3 C 12.96 g/m*3 23.3 C 0 km/h
296 21-08-2010 11:12:01 24 C 12.84 g/m*3 24 C 0 km/h
297 21-08-2010 11:24:02 24.7 C 12.68 g/m*3 24.7 C 0 km/h
298 21-08-2010 11:36:02 25.5 C 11.6 g/m*3 25.5 C 0 km/h
299 21-08-2010 11:48:01 26.3 C 10.4 g/m*3 26.3 C 0 km/h
300 21-08-2010 12:00:01 26.8 C 9.93 g/m*3 26.8 C 0 km/h
Sensor: Nr:Datum:Temp:Abs-Feuchte:Windchill:Wind:
Aussen-T/F 301 21-08-2010 12:12:01 27.2 C 9.89 g/m*3 27.2 C 0 km/h
302 21-08-2010 12:24:01 27.7 C 9.9 g/m*3 27.7 C 0 km/h
303 21-08-2010 12:36:01 27.9 C 10.01 g/m*3 27.9 C 0 km/h
304 21-08-2010 12:48:02 28.1 C 9.3 g/m*3 28.1 C 0 km/h
305 21-08-2010 13:00:02 28.4 C 9.73 g/m*3 28.4 C 0 km/h
306 21-08-2010 13:12:02 28.8 C 9.38 g/m*3 28.8 C 0 km/h
307 21-08-2010 13:24:01 29.2 C 9 g/m*3 29.2 C 0 km/h
308 21-08-2010 13:36:02 29.5 C 8.85 g/m*3 29.5 C 0 km/h
309 21-08-2010 13:48:01 29.7 C 8.95 g/m*3 29.7 C 0 km/h
310 21-08-2010 14:00:01 29.9 C 9.05 g/m*3 29.9 C 0 km/h
311 21-08-2010 14:12:02 30.3 C 8.94 g/m*3 30.3 C 0 km/h
312 21-08-2010 14:24:01 30.3 C 8.63 g/m*3 30.3 C 0 km/h
313 21-08-2010 14:36:02 30.6 C 8.46 g/m*3 30.6 C 0 km/h
314 21-08-2010 14:48:01 31 C 8.32 g/m*3 31 C 0 km/h
315 21-08-2010 15:00:01 30.8 C 8.55 g/m*3 30.8 C 0 km/h
316 21-08-2010 15:12:02 31.4 C 8.83 g/m*3 31.4 C 0 km/h
317 21-08-2010 15:24:02 31.4 C 8.17 g/m*3 31.4 C 0 km/h
318 21-08-2010 15:36:02 31.2 C 9.06 g/m*3 31.2 C 0 km/h
319 21-08-2010 15:48:02 31.6 C 7.93 g/m*3 31.6 C 0 km/h
320 21-08-2010 16:00:02 32.1 C 7.81 g/m*3 32.1 C 0 km/h
321 21-08-2010 16:12:02 32.2 C 7.51 g/m*3 32.2 C 0 km/h
322 21-08-2010 16:24:02 32.5 C 7.28 g/m*3 32.5 C 0 km/h
323 21-08-2010 16:36:01 32.1 C 7.81 g/m*3 32.1 C 0 km/h
324 21-08-2010 16:48:02 31.8 C 9.02 g/m*3 31.8 C 0 km/h
325 21-08-2010 17:00:02 32.1 C 8.15 g/m*3 32.1 C 0 km/h
Sensor: Nr:Datum:Temp:Abs-Feuchte:Windchill:Wind:
Aussen-T/F 326 21-08-2010 17:12:01 32.4 C 7.59 g/m*3 32.4 C 0 km/h
327 21-08-2010 17:24:02 32.3 C 7.55 g/m*3 32.3 C 0 km/h
328 21-08-2010 17:36:02 32.8 C 7.4 g/m*3 32.8 C 0 km/h
329 21-08-2010 17:48:02 32.3 C 7.2 g/m*3 32.3 C 0 km/h
330 21-08-2010 18:00:02 32.6 C 7.32 g/m*3 32.6 C 0 km/h
331 21-08-2010 18:12:02 32.5 C 7.63 g/m*3 32.5 C 0 km/h
332 21-08-2010 18:24:02 32.7 C 7.36 g/m*3 32.7 C 0 km/h
333 21-08-2010 18:36:02 32.3 C 7.55 g/m*3 32.3 C 0 km/h
334 21-08-2010 18:48:02 32 C 7.09 g/m*3 32 C 0 km/h
335 21-08-2010 19:00:02 31.9 C 7.05 g/m*3 31.9 C 0 km/h
336 21-08-2010 19:12:02 32 C 7.76 g/m*3 32 C 0 km/h
337 21-08-2010 19:24:01 31.7 C 7.64 g/m*3 31.7 C 0 km/h
338 21-08-2010 19:36:02 31.5 C 8.22 g/m*3 31.5 C 0 km/h
339 21-08-2010 19:48:02 31.2 C 9.06 g/m*3 31.2 C 0 km/h
340 21-08-2010 20:00:02 30.6 C 8.46 g/m*3 30.6 C 0 km/h
341 21-08-2010 20:12:02 30 C 9.4 g/m*3 30 C 0 km/h
342 21-08-2010 20:24:01 28.5 C 9.22 g/m*3 28.5 C 0 km/h
343 21-08-2010 20:36:02 28.1 C 9.57 g/m*3 28.1 C 0 km/h
344 21-08-2010 20:48:02 26.9 C 9.73 g/m*3 26.9 C 0 km/h
345 21-08-2010 21:00:02 26.5 C 10.01 g/m*3 26.5 C 0 km/h
346 21-08-2010 21:12:02 26.2 C 10.09 g/m*3 26.2 C 0 km/h
347 21-08-2010 21:24:02 25.8 C 10.35 g/m*3 25.8 C 0 km/h
348 21-08-2010 21:36:02 25.3 C 10.3 g/m*3 25.3 C 0 km/h
349 21-08-2010 21:48:02 24.8 C 10.47 g/m*3 24.8 C 0 km/h
350 21-08-2010 22:00:02 24.8 C 10.7 g/m*3 24.8 C 0 km/h
Sensor: Nr:Datum:Temp:Abs-Feuchte:Windchill:Wind:
Aussen-T/F 351 21-08-2010 22:12:02 24.5 C 10.74 g/m*3 24.5 C 0 km/h
352 21-08-2010 22:24:02 24.4 C 10.9 g/m*3 24.4 C 0 km/h
353 21-08-2010 22:36:02 24.1 C 10.94 g/m*3 24.1 C 0 km/h
354 21-08-2010 22:48:01 23.9 C 11.03 g/m*3 23.9 C 0 km/h
355 21-08-2010 23:00:01 23.6 C 10.85 g/m*3 23.6 C 0 km/h
356 21-08-2010 23:12:02 23.4 C 11.35 g/m*3 23.4 C 0 km/h
357 21-08-2010 23:24:01 23.3 C 11.08 g/m*3 23.3 C 0 km/h
358 21-08-2010 23:36:02 22.9 C 11.44 g/m*3 22.9 C 0 km/h
359 21-08-2010 23:48:01 22.6 C 11.45 g/m*3 22.6 C 0 km/h
360 22-08-2010 00:00:01 22.3 C 11.26 g/m*3 22.3 C 0 km/h
361 22-08-2010 00:13:04 22.3 C 11.45 g/m*3 22.3 C 0 km/h
362 22-08-2010 00:25:04 22 C 11.45 g/m*3 22 C 0 km/h
363 22-08-2010 00:37:04 21.8 C 11.51 g/m*3 21.8 C 0 km/h
364 22-08-2010 00:49:04 21.6 C 11.57 g/m*3 21.6 C 0 km/h
365 22-08-2010 01:01:04 21.5 C 11.69 g/m*3 21.5 C 0 km/h
366 22-08-2010 01:13:04 21.2 C 11.49 g/m*3 21.2 C 0 km/h
367 22-08-2010 01:25:04 21 C 11.54 g/m*3 21 C 0 km/h
368 22-08-2010 01:37:04 20.9 C 11.84 g/m*3 20.9 C 0 km/h
369 22-08-2010 01:49:04 20.6 C 11.81 g/m*3 20.6 C 0 km/h
370 22-08-2010 02:01:05 20.5 C 11.74 g/m*3 20.5 C 0 km/h
371 22-08-2010 02:13:05 20.4 C 11.85 g/m*3 20.4 C 0 km/h
372 22-08-2010 02:25:05 20.1 C 11.82 g/m*3 20.1 C 0 km/h
373 22-08-2010 02:37:05 19.9 C 12.03 g/m*3 19.9 C 0 km/h
374 22-08-2010 02:49:05 19.8 C 11.96 g/m*3 19.8 C 0 km/h
375 22-08-2010 03:01:05 19.7 C 12.06 g/m*3 19.7 C 0 km/h
Sensor: Nr:Datum:Temp:Abs-Feuchte:Windchill:Wind:
Aussen-T/F 376 22-08-2010 03:13:05 19.7 C 12.23 g/m*3 19.7 C 0 km/h
377 22-08-2010 03:25:05 19.5 C 12.08 g/m*3 19.5 C 0 km/h
378 22-08-2010 03:37:05 19.3 C 11.94 g/m*3 19.3 C 0 km/h
379 22-08-2010 03:49:05 19.4 C 12.18 g/m*3 19.4 C 0 km/h
380 22-08-2010 04:01:05 19.3 C 12.11 g/m*3 19.3 C 0 km/h
381 22-08-2010 04:13:05 19.3 C 12.27 g/m*3 19.3 C 0 km/h
382 22-08-2010 04:25:05 19.2 C 12.04 g/m*3 19.2 C 0 km/h
383 22-08-2010 04:37:05 19.1 C 11.97 g/m*3 19.1 C 0 km/h
384 22-08-2010 04:49:05 18.9 C 12.15 g/m*3 18.9 C 0 km/h
385 22-08-2010 05:01:05 18.8 C 12.08 g/m*3 18.8 C 0 km/h
386 22-08-2010 05:13:05 18.6 C 11.94 g/m*3 18.6 C 0 km/h
387 22-08-2010 05:25:05 18.5 C 12.18 g/m*3 18.5 C 0 km/h
388 22-08-2010 05:37:05 18.5 C 12.18 g/m*3 18.5 C 0 km/h
389 22-08-2010 05:49:05 18.3 C 12.04 g/m*3 18.3 C 0 km/h
390 22-08-2010 06:01:06 18.1 C 12.05 g/m*3 18.1 C 0 km/h
391 22-08-2010 06:13:06 18 C 11.98 g/m*3 18 C 0 km/h
392 22-08-2010 06:25:06 18 C 11.98 g/m*3 18 C 0 km/h
393 22-08-2010 06:37:06 17.9 C 12.06 g/m*3 17.9 C 0 km/h
394 22-08-2010 06:49:06 18 C 11.98 g/m*3 18 C 0 km/h
395 22-08-2010 07:01:06 18 C 11.98 g/m*3 18 C 0 km/h
396 22-08-2010 07:13:06 18.1 C 12.05 g/m*3 18.1 C 0 km/h
397 22-08-2010 07:25:06 18.1 C 12.05 g/m*3 18.1 C 0 km/h
398 22-08-2010 07:37:06 18.5 C 12.34 g/m*3 18.5 C 0 km/h
399 22-08-2010 07:49:06 18.8 C 12.56 g/m*3 18.8 C 0 km/h
400 22-08-2010 08:01:06 18.9 C 12.47 g/m*3 18.9 C 0 km/h
Sensor: Nr:Datum:Temp:Abs-Feuchte:Windchill:Wind:
Aussen-T/F 401 22-08-2010 08:13:06 18.7 C 12.49 g/m*3 18.7 C 0 km/h
402 22-08-2010 08:25:06 18.8 C 12.72 g/m*3 18.8 C 0 km/h
403 22-08-2010 08:37:06 19.1 C 12.79 g/m*3 19.1 C 0 km/h
404 22-08-2010 08:49:01 19.3 C 12.61 g/m*3 19.3 C 0 km/h
405 22-08-2010 09:01:01 19.4 C 12.51 g/m*3 19.4 C 0 km/h
406 22-08-2010 09:13:01 20 C 12.62 g/m*3 20 C 0 km/h
407 22-08-2010 09:25:02 20.3 C 12.66 g/m*3 20.3 C 0 km/h
408 22-08-2010 09:37:01 20.6 C 12.71 g/m*3 20.6 C 0 km/h
409 22-08-2010 09:49:01 21.3 C 12.68 g/m*3 21.3 C 0 km/h
410 22-08-2010 10:01:01 21.6 C 12.71 g/m*3 21.6 C 0 km/h
411 22-08-2010 10:13:01 22.2 C 12.37 g/m*3 22.2 C 0 km/h
412 22-08-2010 10:25:02 23.7 C 13.05 g/m*3 23.7 C 0 km/h
413 22-08-2010 10:37:01 24.2 C 12.32 g/m*3 24.2 C 0 km/h
414 22-08-2010 10:49:03 23.8 C 12.91 g/m*3 23.8 C 0 km/h
415 22-08-2010 11:01:02 23.8 C 12.91 g/m*3 23.8 C 0 km/h
416 22-08-2010 11:13:02 24.1 C 12.91 g/m*3 24.1 C 0 km/h
417 22-08-2010 11:25:02 25 C 12.2 g/m*3 25 C 0 km/h
418 22-08-2010 11:37:02 25.5 C 13.26 g/m*3 25.5 C 0 km/h
419 22-08-2010 11:49:02 26 C 12.17 g/m*3 26 C 0 km/h
420 22-08-2010 12:01:01 26.7 C 12.15 g/m*3 26.7 C 0 km/h
421 22-08-2010 12:13:01 27.3 C 12.04 g/m*3 27.3 C 0 km/h
422 22-08-2010 12:25:02 27.9 C 11.63 g/m*3 27.9 C 0 km/h
423 22-08-2010 12:37:02 27.6 C 11.17 g/m*3 27.6 C 0 km/h
424 22-08-2010 12:49:02 27.8 C 11.3 g/m*3 27.8 C 0 km/h
425 22-08-2010 13:01:03 27.7 C 11.23 g/m*3 27.7 C 0 km/h
Sensor: Nr:Datum:Temp:Abs-Feuchte:Windchill:Wind:
Aussen-T/F 426 22-08-2010 13:13:03 28 C 11.15 g/m*3 28 C 0 km/h
427 22-08-2010 13:25:02 28.7 C 10.17 g/m*3 28.7 C 0 km/h
428 22-08-2010 13:37:02 28.9 C 10.28 g/m*3 28.9 C 0 km/h
429 22-08-2010 13:49:02 28.9 C 9.71 g/m*3 28.9 C 0 km/h
430 22-08-2010 14:01:02 29.6 C 10.68 g/m*3 29.6 C 0 km/h
431 22-08-2010 14:13:02 29.7 C 10.14 g/m*3 29.7 C 0 km/h
432 22-08-2010 14:25:01 29.6 C 10.39 g/m*3 29.6 C 0 km/h
433 22-08-2010 14:37:02 27.7 C 10.43 g/m*3 27.7 C 0 km/h
434 22-08-2010 14:49:02 27.1 C 10.61 g/m*3 27.1 C 0 km/h
435 22-08-2010 15:01:02 26 C 11.2 g/m*3 26 C 0 km/h
436 22-08-2010 15:13:03 25.9 C 11.62 g/m*3 25.9 C 0 km/h
437 22-08-2010 15:25:01 25.4 C 12.24 g/m*3 25.4 C 0 km/h
438 22-08-2010 15:37:02 25.1 C 13.2 g/m*3 25.1 C 0 km/h
439 22-08-2010 15:49:01 26.4 C 12.7 g/m*3 26.4 C 0 km/h
440 22-08-2010 16:01:02 27.7 C 11.77 g/m*3 27.7 C 0 km/h
441 22-08-2010 16:13:02 27.9 C 11.63 g/m*3 27.9 C 0 km/h
442 22-08-2010 16:25:02 27.9 C 12.17 g/m*3 27.9 C 0 km/h
443 22-08-2010 16:37:02 28 C 11.97 g/m*3 28 C 0 km/h
444 22-08-2010 16:49:01 27.5 C 11.91 g/m*3 27.5 C 0 km/h
445 22-08-2010 17:01:02 27 C 12.1 g/m*3 27 C 0 km/h
446 22-08-2010 17:13:02 26.8 C 12.22 g/m*3 26.8 C 0 km/h
447 22-08-2010 17:25:02 26.7 C 12.66 g/m*3 26.7 C 0 km/h
448 22-08-2010 17:37:02 26.4 C 11.45 g/m*3 26.4 C 0 km/h
449 22-08-2010 17:49:02 26.5 C 11.01 g/m*3 26.5 C 0 km/h
450 22-08-2010 18:01:01 26.4 C 10.7 g/m*3 26.4 C 0 km/h
Sensor: Nr:Datum:Temp:Abs-Feuchte:Windchill:Wind:
Aussen-T/F 451 22-08-2010 18:13:01 26.6 C 11.08 g/m*3 26.6 C 0 km/h
452 22-08-2010 18:25:02 26.5 C 12.02 g/m*3 26.5 C 0 km/h
453 22-08-2010 18:37:01 26 C 12.17 g/m*3 26 C 0 km/h
454 22-08-2010 18:49:02 25.9 C 12.59 g/m*3 25.9 C 0 km/h
455 22-08-2010 19:01:01 25.9 C 12.59 g/m*3 25.9 C 0 km/h
456 22-08-2010 19:13:01 26.2 C 12.31 g/m*3 26.2 C 0 km/h
457 22-08-2010 19:25:01 25.6 C 11.67 g/m*3 25.6 C 0 km/h
458 22-08-2010 19:37:02 25.3 C 10.53 g/m*3 25.3 C 0 km/h
459 22-08-2010 19:49:02 24.6 C 10.8 g/m*3 24.6 C 0 km/h
460 22-08-2010 20:01:02 24.6 C 10.8 g/m*3 24.6 C 0 km/h
461 22-08-2010 20:13:02 24.6 C 10.58 g/m*3 24.6 C 0 km/h
462 22-08-2010 20:25:02 24.5 C 10.52 g/m*3 24.5 C 0 km/h
463 22-08-2010 20:37:02 24.3 C 10.62 g/m*3 24.3 C 0 km/h
464 22-08-2010 20:49:02 24.1 C 10.72 g/m*3 24.1 C 0 km/h
465 22-08-2010 21:01:01 23.8 C 11.19 g/m*3 23.8 C 0 km/h
466 22-08-2010 21:13:01 23.2 C 11.23 g/m*3 23.2 C 0 km/h
467 22-08-2010 21:25:01 22.9 C 11.44 g/m*3 22.9 C 0 km/h
468 22-08-2010 21:37:02 22.9 C 11.85 g/m*3 22.9 C 0 km/h
469 22-08-2010 21:49:02 23 C 11.72 g/m*3 23 C 0 km/h
470 22-08-2010 22:01:02 23.2 C 11.64 g/m*3 23.2 C 0 km/h
471 22-08-2010 22:13:02 22.9 C 11.44 g/m*3 22.9 C 0 km/h
472 22-08-2010 22:25:02 22.6 C 11.65 g/m*3 22.6 C 0 km/h
473 22-08-2010 22:38:03 22.5 C 11.98 g/m*3 22.5 C 0 km/h
474 22-08-2010 22:50:03 22.1 C 11.71 g/m*3 22.1 C 0 km/h
475 22-08-2010 23:02:03 21.8 C 11.9 g/m*3 21.8 C 0 km/h
Sensor: Nr:Datum:Temp:Abs-Feuchte:Windchill:Wind:
Aussen-T/F 476 22-08-2010 23:14:03 21.6 C 11.95 g/m*3 21.6 C 0 km/h
477 22-08-2010 23:26:03 21.6 C 11.95 g/m*3 21.6 C 0 km/h
478 22-08-2010 23:38:03 21.4 C 11.81 g/m*3 21.4 C 0 km/h
479 22-08-2010 23:50:03 21.2 C 11.86 g/m*3 21.2 C 0 km/h
480 23-08-2010 00:02:03 21.1 C 11.98 g/m*3 21.1 C 0 km/h
481 23-08-2010 00:14:03 20.9 C 12.02 g/m*3 20.9 C 0 km/h
482 23-08-2010 00:26:03 20.9 C 12.02 g/m*3 20.9 C 0 km/h
483 23-08-2010 00:38:03 20.8 C 11.95 g/m*3 20.8 C 0 km/h
484 23-08-2010 00:50:03 20.7 C 12.06 g/m*3 20.7 C 0 km/h
485 23-08-2010 01:02:03 20.4 C 12.03 g/m*3 20.4 C 0 km/h
486 23-08-2010 01:14:03 20.3 C 12.31 g/m*3 20.3 C 0 km/h
487 23-08-2010 01:26:03 20.3 C 12.14 g/m*3 20.3 C 0 km/h
488 23-08-2010 01:38:03 20.4 C 12.21 g/m*3 20.4 C 0 km/h
489 23-08-2010 01:50:03 20.5 C 12.1 g/m*3 20.5 C 0 km/h
490 23-08-2010 02:02:03 20.4 C 12.21 g/m*3 20.4 C 0 km/h
491 23-08-2010 02:14:03 20.2 C 12.24 g/m*3 20.2 C 0 km/h
492 23-08-2010 02:26:03 19.8 C 12.3 g/m*3 19.8 C 0 km/h
493 23-08-2010 02:38:03 19.8 C 12.47 g/m*3 19.8 C 0 km/h
494 23-08-2010 02:50:04 19.9 C 12.37 g/m*3 19.9 C 0 km/h
495 23-08-2010 03:02:04 19.9 C 12.2 g/m*3 19.9 C 0 km/h
496 23-08-2010 03:14:04 19.9 C 12.37 g/m*3 19.9 C 0 km/h
497 23-08-2010 03:26:04 19.9 C 12.37 g/m*3 19.9 C 0 km/h
498 23-08-2010 03:38:04 19.7 C 12.23 g/m*3 19.7 C 0 km/h
499 23-08-2010 03:50:04 19.7 C 12.4 g/m*3 19.7 C 0 km/h
500 23-08-2010 04:02:04 19.6 C 12.32 g/m*3 19.6 C 0 km/h
Sensor: Nr:Datum:Temp:Abs-Feuchte:Windchill:Wind:
Aussen-T/F 501 23-08-2010 04:14:04 19.5 C 12.25 g/m*3 19.5 C 0 km/h
502 23-08-2010 04:26:04 19.5 C 12.42 g/m*3 19.5 C 0 km/h
503 23-08-2010 04:38:04 19.5 C 12.42 g/m*3 19.5 C 0 km/h
504 23-08-2010 04:50:04 19.5 C 12.25 g/m*3 19.5 C 0 km/h
505 23-08-2010 05:02:04 19.5 C 12.25 g/m*3 19.5 C 0 km/h
506 23-08-2010 05:14:04 19.4 C 12.18 g/m*3 19.4 C 0 km/h
507 23-08-2010 05:26:04 19.5 C 12.25 g/m*3 19.5 C 0 km/h
508 23-08-2010 05:38:04 19.4 C 12.18 g/m*3 19.4 C 0 km/h
509 23-08-2010 05:50:04 19.4 C 12.18 g/m*3 19.4 C 0 km/h
510 23-08-2010 06:02:04 19.5 C 12.42 g/m*3 19.5 C 0 km/h
511 23-08-2010 06:14:04 19.5 C 12.42 g/m*3 19.5 C 0 km/h
512 23-08-2010 06:26:04 19.4 C 12.35 g/m*3 19.4 C 0 km/h
513 23-08-2010 06:38:03 19.5 C 12.25 g/m*3 19.5 C 0 km/h
514 23-08-2010 06:50:02 19.5 C 12.25 g/m*3 19.5 C 0 km/h
515 23-08-2010 07:02:02 19.3 C 12.27 g/m*3 19.3 C 0 km/h
516 23-08-2010 07:14:03 19.5 C 12.59 g/m*3 19.5 C 0 km/h
517 23-08-2010 07:26:02 19.9 C 12.71 g/m*3 19.9 C 0 km/h
518 23-08-2010 07:38:02 20.4 C 12.38 g/m*3 20.4 C 0 km/h
519 23-08-2010 07:50:02 20.5 C 12.46 g/m*3 20.5 C 0 km/h
520 23-08-2010 08:02:02 20.6 C 12.71 g/m*3 20.6 C 0 km/h
521 23-08-2010 08:14:02 20.4 C 12.74 g/m*3 20.4 C 0 km/h
522 23-08-2010 08:26:01 19.5 C 13.26 g/m*3 19.5 C 0 km/h
523 23-08-2010 08:38:02 19.1 C 13.77 g/m*3 19.1 C 0 km/h
524 23-08-2010 08:50:02 19.1 C 13.93 g/m*3 19.1 C 0 km/h
525 23-08-2010 09:02:01 19.3 C 14.26 g/m*3 19.3 C 0 km/h
Sensor: Nr:Datum:Temp:Abs-Feuchte:Windchill:Wind:
Aussen-T/F 526 23-08-2010 09:14:01 19.4 C 14.52 g/m*3 19.4 C 0 km/h
527 23-08-2010 09:26:02 19.4 C 14.52 g/m*3 19.4 C 0 km/h
528 23-08-2010 09:38:01 19.4 C 14.52 g/m*3 19.4 C 0 km/h
529 23-08-2010 09:50:02 19.7 C 14.77 g/m*3 19.7 C 0 km/h
530 23-08-2010 10:02:01 20 C 14.86 g/m*3 20 C 0 km/h
531 23-08-2010 10:14:01 20.4 C 15.21 g/m*3 20.4 C 0 km/h
532 23-08-2010 10:26:01 20.7 C 15.12 g/m*3 20.7 C 0 km/h
533 23-08-2010 10:38:02 20.9 C 15.12 g/m*3 20.9 C 0 km/h
534 23-08-2010 10:50:02 21.2 C 15.01 g/m*3 21.2 C 0 km/h
535 23-08-2010 11:02:02 21.4 C 15 g/m*3 21.4 C 0 km/h
536 23-08-2010 11:14:02 21.7 C 14.69 g/m*3 21.7 C 0 km/h
537 23-08-2010 11:26:02 22.5 C 14.58 g/m*3 22.5 C 0 km/h
538 23-08-2010 11:38:02 22.8 C 14.63 g/m*3 22.8 C 0 km/h
539 23-08-2010 11:50:02 22.9 C 14.92 g/m*3 22.9 C 0 km/h
540 23-08-2010 12:02:02 22.5 C 14.78 g/m*3 22.5 C 0 km/h
541 23-08-2010 12:14:02 22.7 C 15.36 g/m*3 22.7 C 0 km/h
542 23-08-2010 12:26:02 23.3 C 16.1 g/m*3 23.3 C 0 km/h
543 23-08-2010 12:38:02 23.4 C 15.98 g/m*3 23.4 C 0 km/h
544 23-08-2010 12:50:01 23.5 C 15.86 g/m*3 23.5 C 0 km/h
545 23-08-2010 13:02:02 24.2 C 15.18 g/m*3 24.2 C 0 km/h
546 23-08-2010 13:14:02 24.9 C 14.42 g/m*3 24.9 C 0 km/h
547 23-08-2010 13:26:01 24 C 13.49 g/m*3 24 C 0 km/h
548 23-08-2010 13:38:01 23.1 C 13.85 g/m*3 23.1 C 0 km/h
549 23-08-2010 13:50:01 22.2 C 14.72 g/m*3 22.2 C 0 km/h
550 23-08-2010 14:02:01 21.9 C 14.86 g/m*3 21.9 C 0 km/h
Sensor: Nr:Datum:Temp:Abs-Feuchte:Windchill:Wind:
Aussen-T/F 551 23-08-2010 14:14:01 23.3 C 14.84 g/m*3 23.3 C 0 km/h
552 23-08-2010 14:26:01 24.8 C 14.11 g/m*3 24.8 C 0 km/h
553 23-08-2010 14:38:01 25.8 C 13.72 g/m*3 25.8 C 0 km/h
554 23-08-2010 14:50:01 25.9 C 13.32 g/m*3 25.9 C 0 km/h
555 23-08-2010 15:02:01 25.9 C 13.07 g/m*3 25.9 C 0 km/h
556 23-08-2010 15:14:01 25.9 C 12.59 g/m*3 25.9 C 0 km/h
557 23-08-2010 15:26:02 26.3 C 12.13 g/m*3 26.3 C 0 km/h
558 23-08-2010 15:38:01 25.9 C 11.86 g/m*3 25.9 C 0 km/h
559 23-08-2010 15:50:03 25.3 C 11.94 g/m*3 25.3 C 0 km/h
560 23-08-2010 16:02:02 25.9 C 11.38 g/m*3 25.9 C 0 km/h
561 23-08-2010 16:14:02 26.7 C 11.14 g/m*3 26.7 C 0 km/h
562 23-08-2010 16:26:02 26.6 C 11.33 g/m*3 26.6 C 0 km/h
563 23-08-2010 16:38:02 25.5 C 11.6 g/m*3 25.5 C 0 km/h
564 23-08-2010 16:50:02 25 C 11.51 g/m*3 25 C 0 km/h
565 23-08-2010 17:02:01 25.2 C 10.94 g/m*3 25.2 C 0 km/h
566 23-08-2010 17:14:01 24.6 C 11.25 g/m*3 24.6 C 0 km/h
567 23-08-2010 17:26:02 23.3 C 11.92 g/m*3 23.3 C 0 km/h
568 23-08-2010 17:38:02 22.7 C 12.53 g/m*3 22.7 C 0 km/h
569 23-08-2010 17:50:02 22.1 C 12.88 g/m*3 22.1 C 0 km/h
570 23-08-2010 18:02:01 21.9 C 13.31 g/m*3 21.9 C 0 km/h
571 23-08-2010 18:14:01 21.6 C 13.47 g/m*3 21.6 C 0 km/h
572 23-08-2010 18:26:01 21 C 13.74 g/m*3 21 C 0 km/h
573 23-08-2010 18:38:02 20.7 C 14.22 g/m*3 20.7 C 0 km/h
574 23-08-2010 18:50:02 20.4 C 13.98 g/m*3 20.4 C 0 km/h
575 23-08-2010 19:02:02 20.8 C 14.3 g/m*3 20.8 C 0 km/h
Sensor: Nr:Datum:Temp:Abs-Feuchte:Windchill:Wind:
Aussen-T/F 576 23-08-2010 19:14:02 20.9 C 13.84 g/m*3 20.9 C 0 km/h
577 23-08-2010 19:26:02 20.8 C 13.76 g/m*3 20.8 C 0 km/h
578 23-08-2010 19:38:02 20.7 C 13.5 g/m*3 20.7 C 0 km/h
579 23-08-2010 19:50:02 20.6 C 13.42 g/m*3 20.6 C 0 km/h
580 23-08-2010 20:02:02 20.5 C 13.17 g/m*3 20.5 C 0 km/h
581 23-08-2010 20:14:02 20.4 C 13.09 g/m*3 20.4 C 0 km/h
582 23-08-2010 20:26:02 20.4 C 12.91 g/m*3 20.4 C 0 km/h
583 23-08-2010 20:38:02 20.3 C 12.84 g/m*3 20.3 C 0 km/h
584 23-08-2010 20:50:02 20.1 C 12.69 g/m*3 20.1 C 0 km/h
585 23-08-2010 21:02:02 20 C 12.62 g/m*3 20 C 0 km/h
586 23-08-2010 21:14:02 19.8 C 12.64 g/m*3 19.8 C 0 km/h
587 23-08-2010 21:26:02 19.7 C 12.74 g/m*3 19.7 C 0 km/h
588 23-08-2010 21:38:02 19.7 C 12.57 g/m*3 19.7 C 0 km/h
589 23-08-2010 21:50:02 19.8 C 12.47 g/m*3 19.8 C 0 km/h
590 23-08-2010 22:03:03 19.7 C 12.4 g/m*3 19.7 C 0 km/h
591 23-08-2010 22:15:03 19.6 C 12.32 g/m*3 19.6 C 0 km/h
592 23-08-2010 22:27:03 19.6 C 12.15 g/m*3 19.6 C 0 km/h
593 23-08-2010 22:39:03 19.5 C 12.25 g/m*3 19.5 C 0 km/h
594 23-08-2010 22:51:03 19.5 C 12.08 g/m*3 19.5 C 0 km/h
595 23-08-2010 23:03:03 19.4 C 12.01 g/m*3 19.4 C 0 km/h
596 23-08-2010 23:15:03 19.3 C 11.94 g/m*3 19.3 C 0 km/h
597 23-08-2010 23:27:03 19.3 C 11.94 g/m*3 19.3 C 0 km/h
598 23-08-2010 23:39:03 19.2 C 11.87 g/m*3 19.2 C 0 km/h
599 23-08-2010 23:51:03 19.3 C 11.94 g/m*3 19.3 C 0 km/h
600 24-08-2010 00:03:03 19.2 C 12.04 g/m*3 19.2 C 0 km/h
Sensor: Nr:Datum:Temp:Abs-Feuchte:Windchill:Wind:
Aussen-T/F 601 24-08-2010 00:15:03 19.2 C 12.04 g/m*3 19.2 C 0 km/h
602 24-08-2010 00:27:03 19.1 C 11.97 g/m*3 19.1 C 0 km/h
603 24-08-2010 00:39:04 19.2 C 12.2 g/m*3 19.2 C 0 km/h
604 24-08-2010 00:51:04 19.2 C 12.2 g/m*3 19.2 C 0 km/h
605 24-08-2010 01:03:04 19.3 C 12.27 g/m*3 19.3 C 0 km/h
606 24-08-2010 01:15:04 19.2 C 12.37 g/m*3 19.2 C 0 km/h
607 24-08-2010 01:27:04 19.1 C 12.46 g/m*3 19.1 C 0 km/h
608 24-08-2010 01:39:04 19.2 C 12.53 g/m*3 19.2 C 0 km/h
609 24-08-2010 01:51:04 19.2 C 12.53 g/m*3 19.2 C 0 km/h
610 24-08-2010 02:03:04 19.3 C 12.44 g/m*3 19.3 C 0 km/h
611 24-08-2010 02:15:04 19.6 C 12.32 g/m*3 19.6 C 0 km/h
612 24-08-2010 02:27:04 19.9 C 12.37 g/m*3 19.9 C 0 km/h
613 24-08-2010 02:39:04 20 C 11.92 g/m*3 20 C 0 km/h
614 24-08-2010 02:51:04 19.6 C 12.32 g/m*3 19.6 C 0 km/h
615 24-08-2010 03:03:04 19 C 12.22 g/m*3 19 C 0 km/h
616 24-08-2010 03:15:04 18.7 C 12.33 g/m*3 18.7 C 0 km/h
617 24-08-2010 03:27:04 18.4 C 11.64 g/m*3 18.4 C 0 km/h
618 24-08-2010 03:39:04 17.9 C 11.76 g/m*3 17.9 C 0 km/h
619 24-08-2010 03:51:04 17.7 C 11.32 g/m*3 17.7 C 0 km/h
620 24-08-2010 04:03:04 18.1 C 9.73 g/m*3 18.1 C 0 km/h
621 24-08-2010 04:15:04 18.2 C 9.64 g/m*3 18.2 C 0 km/h
622 24-08-2010 04:27:04 18.1 C 9.43 g/m*3 18.1 C 0 km/h
623 24-08-2010 04:39:04 18 C 9.37 g/m*3 18 C 0 km/h
624 24-08-2010 04:51:05 17.9 C 9.47 g/m*3 17.9 C 0 km/h
625 24-08-2010 05:03:05 17.4 C 9.48 g/m*3 17.4 C 0 km/h
Sensor: Nr:Datum:Temp:Abs-Feuchte:Windchill:Wind:
Aussen-T/F 626 24-08-2010 05:15:05 17.3 C 9.58 g/m*3 17.3 C 0 km/h
627 24-08-2010 05:27:05 17.3 C 9.58 g/m*3 17.3 C 0 km/h
628 24-08-2010 05:39:05 17.2 C 9.37 g/m*3 17.2 C 0 km/h
629 24-08-2010 05:51:05 17 C 9.55 g/m*3 17 C 0 km/h
630 24-08-2010 06:03:05 17.1 C 9.46 g/m*3 17.1 C 0 km/h
631 24-08-2010 06:15:05 17.1 C 9.32 g/m*3 17.1 C 0 km/h
632 24-08-2010 06:27:05 17 C 9.55 g/m*3 17 C 0 km/h
633 24-08-2010 06:39:05 17.4 C 9.63 g/m*3 17.4 C 0 km/h
634 24-08-2010 06:51:05 16.8 C 9.44 g/m*3 16.8 C 0 km/h
635 24-08-2010 07:03:05 16.8 C 9.58 g/m*3 16.8 C 0 km/h
636 24-08-2010 07:15:02 16.7 C 9.38 g/m*3 16.7 C 0 km/h
637 24-08-2010 07:27:02 16.4 C 9.21 g/m*3 16.4 C 0 km/h
638 24-08-2010 07:39:03 16.2 C 8.96 g/m*3 16.2 C 0 km/h
639 24-08-2010 07:51:02 16.1 C 9.05 g/m*3 16.1 C 0 km/h
640 24-08-2010 08:03:02 16 C 8.99 g/m*3 16 C 0 km/h
641 24-08-2010 08:15:02 16.1 C 8.64 g/m*3 16.1 C 0 km/h
642 24-08-2010 08:27:02 16.2 C 8.41 g/m*3 16.2 C 0 km/h
643 24-08-2010 08:39:02 16.2 C 8.27 g/m*3 16.2 C 0 km/h
644 24-08-2010 08:51:02 16.3 C 7.91 g/m*3 16.3 C 0 km/h
645 24-08-2010 09:03:02 16.4 C 7.82 g/m*3 16.4 C 0 km/h
646 24-08-2010 09:15:02 16.5 C 7.44 g/m*3 16.5 C 0 km/h
647 24-08-2010 09:27:02 16.7 C 7.11 g/m*3 16.7 C 0 km/h
648 24-08-2010 09:39:01 17 C 6.95 g/m*3 17 C 0 km/h
649 24-08-2010 09:51:02 17.2 C 7.18 g/m*3 17.2 C 0 km/h
650 24-08-2010 10:03:01 17.4 C 7.11 g/m*3 17.4 C 0 km/h
Sensor: Nr:Datum:Temp:Abs-Feuchte:Windchill:Wind:
Aussen-T/F 651 24-08-2010 10:15:02 17.7 C 7.39 g/m*3 17.7 C 0 km/h
652 24-08-2010 10:27:02 17.8 C 7.29 g/m*3 17.8 C 0 km/h
653 24-08-2010 10:39:02 18 C 7.07 g/m*3 18 C 0 km/h
654 24-08-2010 10:51:02 18.5 C 7.28 g/m*3 18.5 C 0 km/h
655 24-08-2010 11:03:03 18.7 C 7.36 g/m*3 18.7 C 0 km/h
656 24-08-2010 11:15:02 18.9 C 6.97 g/m*3 18.9 C 0 km/h
657 24-08-2010 11:27:02 19.1 C 6.72 g/m*3 19.1 C 0 km/h
658 24-08-2010 11:39:02 19.4 C 6.51 g/m*3 19.4 C 0 km/h
659 24-08-2010 11:51:01 19.3 C 6.8 g/m*3 19.3 C 0 km/h
660 24-08-2010 12:03:02 19.1 C 6.56 g/m*3 19.1 C 0 km/h
661 24-08-2010 12:15:01 19.8 C 6.66 g/m*3 19.8 C 0 km/h
662 24-08-2010 12:27:01 20.1 C 6.26 g/m*3 20.1 C 0 km/h
663 24-08-2010 12:39:02 20 C 6.05 g/m*3 20 C 0 km/h
664 24-08-2010 12:51:01 21.2 C 6.12 g/m*3 21.2 C 0 km/h
665 24-08-2010 13:03:02 20.3 C 6.16 g/m*3 20.3 C 0 km/h
666 24-08-2010 13:15:01 20.5 C 6.23 g/m*3 20.5 C 0 km/h
667 24-08-2010 13:27:01 21.5 C 5.85 g/m*3 21.5 C 0 km/h
668 24-08-2010 13:39:02 21.7 C 5.72 g/m*3 21.7 C 0 km/h
669 24-08-2010 13:51:01 21 C 5.68 g/m*3 21 C 0 km/h
670 24-08-2010 14:03:02 20.8 C 5.79 g/m*3 20.8 C 0 km/h
671 24-08-2010 14:15:02 20.9 C 5.83 g/m*3 20.9 C 0 km/h
672 24-08-2010 14:27:02 21.7 C 5.34 g/m*3 21.7 C 0 km/h
673 24-08-2010 14:39:02 22.2 C 5.3 g/m*3 22.2 C 0 km/h
674 24-08-2010 14:51:02 21.7 C 5.15 g/m*3 21.7 C 0 km/h
675 24-08-2010 15:03:02 21.2 C 5.74 g/m*3 21.2 C 0 km/h
Sensor: Nr:Datum:Temp:Abs-Feuchte:Windchill:Wind:
Aussen-T/F 676 24-08-2010 15:15:02 21.2 C 5.19 g/m*3 21.2 C 0 km/h
677 24-08-2010 15:27:02 21.6 C 4.93 g/m*3 21.6 C 0 km/h
678 24-08-2010 15:39:01 22.1 C 5.08 g/m*3 22.1 C 0 km/h
679 24-08-2010 15:51:02 23 C 4.52 g/m*3 23 C 0 km/h
680 24-08-2010 16:03:01 23.2 C 4.57 g/m*3 23.2 C 0 km/h
681 24-08-2010 16:15:02 23.2 C 4.37 g/m*3 23.2 C 0 km/h
682 24-08-2010 16:27:03 23 C 4.73 g/m*3 23 C 0 km/h
683 24-08-2010 16:39:01 23.8 C 4.73 g/m*3 23.8 C 0 km/h
684 24-08-2010 16:51:02 22 C 4.66 g/m*3 22 C 0 km/h
685 24-08-2010 17:03:02 23 C 4.52 g/m*3 23 C 0 km/h
686 24-08-2010 17:15:02 23.4 C 4.21 g/m*3 23.4 C 0 km/h
687 24-08-2010 17:27:02 23.6 C 4.68 g/m*3 23.6 C 0 km/h
688 24-08-2010 17:39:03 22.9 C 4.9 g/m*3 22.9 C 0 km/h
689 24-08-2010 17:51:02 23.2 C 5.2 g/m*3 23.2 C 0 km/h
690 24-08-2010 18:03:02 23.8 C 4.95 g/m*3 23.8 C 0 km/h
691 24-08-2010 18:15:02 22.8 C 5.08 g/m*3 22.8 C 0 km/h
692 24-08-2010 18:27:02 22.9 C 5.11 g/m*3 22.9 C 0 km/h
693 24-08-2010 18:39:02 22.8 C 5.28 g/m*3 22.8 C 0 km/h
694 24-08-2010 18:51:02 22.3 C 5.13 g/m*3 22.3 C 0 km/h
695 24-08-2010 19:03:03 22.5 C 5.19 g/m*3 22.5 C 0 km/h
696 24-08-2010 19:15:02 21.7 C 5.15 g/m*3 21.7 C 0 km/h
697 24-08-2010 19:27:02 22.1 C 5.08 g/m*3 22.1 C 0 km/h
698 24-08-2010 19:39:02 21.3 C 5.03 g/m*3 21.3 C 0 km/h
699 24-08-2010 19:51:01 20.8 C 5.43 g/m*3 20.8 C 0 km/h
700 24-08-2010 20:03:02 20.4 C 5.48 g/m*3 20.4 C 0 km/h
Sensor: Nr:Datum:Temp:Abs-Feuchte:Windchill:Wind:
Aussen-T/F 701 24-08-2010 20:15:01 20.3 C 5.8 g/m*3 20.3 C 0 km/h
702 24-08-2010 20:27:01 19.7 C 5.94 g/m*3 19.7 C 0 km/h
703 24-08-2010 20:39:02 19.4 C 5.84 g/m*3 19.4 C 0 km/h
704 24-08-2010 20:51:01 19 C 5.87 g/m*3 19 C 0 km/h
705 24-08-2010 21:03:02 18.7 C 5.92 g/m*3 18.7 C 0 km/h
706 24-08-2010 21:15:02 18.4 C 6.13 g/m*3 18.4 C 0 km/h
707 24-08-2010 21:27:02 18.2 C 6.22 g/m*3 18.2 C 0 km/h
708 24-08-2010 21:39:02 18.1 C 6.18 g/m*3 18.1 C 0 km/h
709 24-08-2010 21:51:01 18 C 6.14 g/m*3 18 C 0 km/h
710 24-08-2010 22:04:03 17.7 C 6.19 g/m*3 17.7 C 0 km/h
711 24-08-2010 22:16:03 17.6 C 6.15 g/m*3 17.6 C 0 km/h
712 24-08-2010 22:28:03 17.5 C 6.26 g/m*3 17.5 C 0 km/h
713 24-08-2010 22:40:03 17.1 C 6.4 g/m*3 17.1 C 0 km/h
714 24-08-2010 22:52:03 17.1 C 6.4 g/m*3 17.1 C 0 km/h
715 24-08-2010 23:04:03 17 C 6.22 g/m*3 17 C 0 km/h
716 24-08-2010 23:16:03 16.8 C 6.43 g/m*3 16.8 C 0 km/h
717 24-08-2010 23:28:03 16.8 C 6.43 g/m*3 16.8 C 0 km/h
718 24-08-2010 23:40:03 16.7 C 6.54 g/m*3 16.7 C 0 km/h
719 24-08-2010 23:52:03 16.6 C 6.5 g/m*3 16.6 C 0 km/h
720 25-08-2010 00:04:03 16.4 C 6.42 g/m*3 16.4 C 0 km/h
721 25-08-2010 00:16:03 16.4 C 6.56 g/m*3 16.4 C 0 km/h
722 25-08-2010 00:28:03 16.2 C 6.48 g/m*3 16.2 C 0 km/h
723 25-08-2010 00:40:04 16 C 6.54 g/m*3 16 C 0 km/h
724 25-08-2010 00:52:04 15.8 C 6.73 g/m*3 15.8 C 0 km/h
725 25-08-2010 01:04:04 15.8 C 6.73 g/m*3 15.8 C 0 km/h
Sensor: Nr:Datum:Temp:Abs-Feuchte:Windchill:Wind:
Aussen-T/F 726 25-08-2010 01:16:04 15.6 C 6.78 g/m*3 15.6 C 0 km/h
727 25-08-2010 01:28:04 15.5 C 6.87 g/m*3 15.5 C 0 km/h
728 25-08-2010 01:40:04 15.4 C 6.83 g/m*3 15.4 C 0 km/h
729 25-08-2010 01:52:04 15.3 C 6.79 g/m*3 15.3 C 0 km/h
730 25-08-2010 02:04:04 15.1 C 6.97 g/m*3 15.1 C 0 km/h
731 25-08-2010 02:16:04 14.8 C 7.09 g/m*3 14.8 C 0 km/h
732 25-08-2010 02:28:04 14.6 C 7.13 g/m*3 14.6 C 0 km/h
733 25-08-2010 02:40:04 14.5 C 7.21 g/m*3 14.5 C 0 km/h
734 25-08-2010 02:52:04 14.3 C 7.13 g/m*3 14.3 C 0 km/h
735 25-08-2010 03:04:04 14.2 C 7.2 g/m*3 14.2 C 0 km/h
736 25-08-2010 03:16:04 13.9 C 7.55 g/m*3 13.9 C 0 km/h
737 25-08-2010 03:28:04 13.7 C 7.58 g/m*3 13.7 C 0 km/h
738 25-08-2010 03:40:04 13.6 C 7.77 g/m*3 13.6 C 0 km/h
739 25-08-2010 03:52:04 13.4 C 7.67 g/m*3 13.4 C 0 km/h
740 25-08-2010 04:04:04 13.4 C 7.79 g/m*3 13.4 C 0 km/h
741 25-08-2010 04:16:04 13.4 C 7.79 g/m*3 13.4 C 0 km/h
742 25-08-2010 04:28:04 13.4 C 7.67 g/m*3 13.4 C 0 km/h
743 25-08-2010 04:40:04 13.4 C 7.67 g/m*3 13.4 C 0 km/h
744 25-08-2010 04:52:05 13.4 C 7.56 g/m*3 13.4 C 0 km/h
745 25-08-2010 05:04:05 13.6 C 7.53 g/m*3 13.6 C 0 km/h
746 25-08-2010 05:16:05 13.6 C 7.41 g/m*3 13.6 C 0 km/h
747 25-08-2010 05:28:05 13.4 C 7.44 g/m*3 13.4 C 0 km/h
748 25-08-2010 05:40:05 13.2 C 7.58 g/m*3 13.2 C 0 km/h
749 25-08-2010 05:52:05 13.1 C 7.65 g/m*3 13.1 C 0 km/h
750 25-08-2010 06:04:05 13 C 7.6 g/m*3 13 C 0 km/h
Sensor: Nr:Datum:Temp:Abs-Feuchte:Windchill:Wind:
Aussen-T/F 751 25-08-2010 06:16:05 13.1 C 7.65 g/m*3 13.1 C 0 km/h
752 25-08-2010 06:28:05 12.9 C 7.78 g/m*3 12.9 C 0 km/h
753 25-08-2010 06:40:05 12.9 C 7.78 g/m*3 12.9 C 0 km/h
754 25-08-2010 06:52:05 12.8 C 7.73 g/m*3 12.8 C 0 km/h
755 25-08-2010 07:04:02 12.7 C 7.79 g/m*3 12.7 C 0 km/h
756 25-08-2010 07:16:03 12.8 C 7.84 g/m*3 12.8 C 0 km/h
757 25-08-2010 07:28:03 12.8 C 7.84 g/m*3 12.8 C 0 km/h
758 25-08-2010 07:40:02 12.7 C 7.79 g/m*3 12.7 C 0 km/h
759 25-08-2010 07:52:02 12.8 C 7.95 g/m*3 12.8 C 0 km/h
760 25-08-2010 08:04:01 13.1 C 7.87 g/m*3 13.1 C 0 km/h
761 25-08-2010 08:16:01 13.4 C 7.9 g/m*3 13.4 C 0 km/h
762 25-08-2010 08:28:01 13.5 C 7.84 g/m*3 13.5 C 0 km/h
763 25-08-2010 08:40:01 13.8 C 7.86 g/m*3 13.8 C 0 km/h
764 25-08-2010 08:52:03 13.9 C 7.79 g/m*3 13.9 C 0 km/h
765 25-08-2010 09:04:02 14.2 C 7.82 g/m*3 14.2 C 0 km/h
766 25-08-2010 09:16:02 14.7 C 8.06 g/m*3 14.7 C 0 km/h
767 25-08-2010 09:28:03 14.9 C 7.9 g/m*3 14.9 C 0 km/h
768 25-08-2010 09:40:02 15.2 C 7.79 g/m*3 15.2 C 0 km/h
769 25-08-2010 09:52:02 15.6 C 7.98 g/m*3 15.6 C 0 km/h
770 25-08-2010 10:04:01 16.1 C 7.81 g/m*3 16.1 C 0 km/h
771 25-08-2010 10:16:02 16.3 C 7.77 g/m*3 16.3 C 0 km/h
772 25-08-2010 10:28:02 16.3 C 7.77 g/m*3 16.3 C 0 km/h
773 25-08-2010 10:40:02 16.3 C 7.77 g/m*3 16.3 C 0 km/h
774 25-08-2010 10:52:02 16.5 C 7.86 g/m*3 16.5 C 0 km/h
775 25-08-2010 11:04:02 17.1 C 7.71 g/m*3 17.1 C 0 km/h
Sensor: Nr:Datum:Temp:Abs-Feuchte:Windchill:Wind:
Aussen-T/F 776 25-08-2010 11:16:01 17.4 C 7.85 g/m*3 17.4 C 0 km/h
777 25-08-2010 11:28:01 17.7 C 7.85 g/m*3 17.7 C 0 km/h
778 25-08-2010 11:40:02 18.1 C 7.88 g/m*3 18.1 C 0 km/h
779 25-08-2010 11:52:02 19.2 C 7.75 g/m*3 19.2 C 0 km/h
780 25-08-2010 12:04:02 19.7 C 7.47 g/m*3 19.7 C 0 km/h
781 25-08-2010 12:16:01 19.9 C 7.39 g/m*3 19.9 C 0 km/h
782 25-08-2010 12:28:01 20.4 C 7.43 g/m*3 20.4 C 0 km/h
783 25-08-2010 12:40:02 20 C 6.91 g/m*3 20 C 0 km/h
784 25-08-2010 12:52:02 20 C 6.74 g/m*3 20 C 0 km/h
785 25-08-2010 13:04:02 20.4 C 6.9 g/m*3 20.4 C 0 km/h
786 25-08-2010 13:16:02 20.7 C 6.84 g/m*3 20.7 C 0 km/h
787 25-08-2010 13:28:02 20.9 C 6.56 g/m*3 20.9 C 0 km/h
788 25-08-2010 13:40:02 20.8 C 6.52 g/m*3 20.8 C 0 km/h
789 25-08-2010 13:52:01 21.3 C 6.52 g/m*3 21.3 C 0 km/h
790 25-08-2010 14:04:02 21.2 C 6.49 g/m*3 21.2 C 0 km/h
791 25-08-2010 14:16:01 21.2 C 6.3 g/m*3 21.2 C 0 km/h
792 25-08-2010 14:28:01 21.7 C 6.49 g/m*3 21.7 C 0 km/h
793 25-08-2010 14:40:01 21.3 C 6.52 g/m*3 21.3 C 0 km/h
794 25-08-2010 14:52:01 21.9 C 6.37 g/m*3 21.9 C 0 km/h
795 25-08-2010 15:04:02 22.5 C 6.39 g/m*3 22.5 C 0 km/h
796 25-08-2010 15:16:01 23.1 C 6.2 g/m*3 23.1 C 0 km/h
797 25-08-2010 15:28:01 23.9 C 6.06 g/m*3 23.9 C 0 km/h
798 25-08-2010 15:40:01 24.1 C 5.69 g/m*3 24.1 C 0 km/h
799 25-08-2010 15:52:01 24.1 C 6.13 g/m*3 24.1 C 0 km/h
800 25-08-2010 16:04:01 24.3 C 5.53 g/m*3 24.3 C 0 km/h
Sensor: Nr:Datum:Temp:Abs-Feuchte:Windchill:Wind:
Aussen-T/F 801 25-08-2010 16:16:02 24.3 C 5.53 g/m*3 24.3 C 0 km/h
802 25-08-2010 16:28:02 25.3 C 5.62 g/m*3 25.3 C 0 km/h
803 25-08-2010 16:40:01 24.7 C 5.66 g/m*3 24.7 C 0 km/h
804 25-08-2010 16:52:01 23.7 C 5.99 g/m*3 23.7 C 0 km/h
805 25-08-2010 17:04:02 23.4 C 6.73 g/m*3 23.4 C 0 km/h
806 25-08-2010 17:16:01 23.3 C 6.48 g/m*3 23.3 C 0 km/h
807 25-08-2010 17:28:01 23.1 C 6.41 g/m*3 23.1 C 0 km/h
808 25-08-2010 17:40:01 23.2 C 6.86 g/m*3 23.2 C 0 km/h
809 25-08-2010 17:52:01 23 C 6.78 g/m*3 23 C 0 km/h
810 25-08-2010 18:04:02 22.2 C 6.87 g/m*3 22.2 C 0 km/h
811 25-08-2010 18:16:02 22 C 6.79 g/m*3 22 C 0 km/h
812 25-08-2010 18:28:02 22 C 6.79 g/m*3 22 C 0 km/h
813 25-08-2010 18:40:01 21.8 C 7.48 g/m*3 21.8 C 0 km/h
814 25-08-2010 18:52:01 21.5 C 7.54 g/m*3 21.5 C 0 km/h
815 25-08-2010 19:04:01 20.8 C 7.97 g/m*3 20.8 C 0 km/h
816 25-08-2010 19:16:02 20.1 C 8 g/m*3 20.1 C 0 km/h
817 25-08-2010 19:28:02 20.2 C 7.87 g/m*3 20.2 C 0 km/h
818 25-08-2010 19:40:01 20 C 7.95 g/m*3 20 C 0 km/h
819 25-08-2010 19:52:02 20 C 7.78 g/m*3 20 C 0 km/h
820 25-08-2010 20:04:01 19.7 C 8.15 g/m*3 19.7 C 0 km/h
821 25-08-2010 20:16:02 19.4 C 8.18 g/m*3 19.4 C 0 km/h
822 25-08-2010 20:28:02 19 C 8.15 g/m*3 19 C 0 km/h
823 25-08-2010 20:40:01 18.8 C 8.21 g/m*3 18.8 C 0 km/h
824 25-08-2010 20:52:02 18.3 C 8.44 g/m*3 18.3 C 0 km/h
825 25-08-2010 21:04:02 18.1 C 8.19 g/m*3 18.1 C 0 km/h
Sensor: Nr:Datum:Temp:Abs-Feuchte:Windchill:Wind:
Aussen-T/F 826 25-08-2010 21:16:02 18.1 C 8.34 g/m*3 18.1 C 0 km/h
827 25-08-2010 21:28:02 18.1 C 8.34 g/m*3 18.1 C 0 km/h
828 25-08-2010 21:40:02 18.2 C 8.39 g/m*3 18.2 C 0 km/h
829 25-08-2010 21:52:02 18.1 C 8.5 g/m*3 18.1 C 0 km/h
830 25-08-2010 22:04:01 17.9 C 8.55 g/m*3 17.9 C 0 km/h
831 25-08-2010 22:17:04 17.7 C 8.45 g/m*3 17.7 C 0 km/h
832 25-08-2010 22:29:04 17.5 C 8.35 g/m*3 17.5 C 0 km/h
833 25-08-2010 22:41:04 17.4 C 8.6 g/m*3 17.4 C 0 km/h
834 25-08-2010 22:53:04 17.3 C 8.54 g/m*3 17.3 C 0 km/h
835 25-08-2010 23:05:04 17.2 C 8.64 g/m*3 17.2 C 0 km/h
836 25-08-2010 23:17:04 17.4 C 8.74 g/m*3 17.4 C 0 km/h
837 25-08-2010 23:29:04 17.4 C 8.74 g/m*3 17.4 C 0 km/h
838 25-08-2010 23:41:04 17.3 C 8.99 g/m*3 17.3 C 0 km/h
839 25-08-2010 23:53:04 17.2 C 8.93 g/m*3 17.2 C 0 km/h
840 26-08-2010 00:05:04 17.1 C 9.03 g/m*3 17.1 C 0 km/h
841 26-08-2010 00:17:04 17.2 C 9.08 g/m*3 17.2 C 0 km/h
842 26-08-2010 00:29:04 17.3 C 9.13 g/m*3 17.3 C 0 km/h
843 26-08-2010 00:41:04 17.4 C 9.04 g/m*3 17.4 C 0 km/h
844 26-08-2010 00:53:04 17.4 C 9.04 g/m*3 17.4 C 0 km/h
845 26-08-2010 01:05:05 17.5 C 9.24 g/m*3 17.5 C 0 km/h
846 26-08-2010 01:17:05 17.5 C 9.09 g/m*3 17.5 C 0 km/h
847 26-08-2010 01:29:05 17.5 C 9.09 g/m*3 17.5 C 0 km/h
848 26-08-2010 01:41:05 17.5 C 9.09 g/m*3 17.5 C 0 km/h
849 26-08-2010 01:53:05 17.4 C 9.04 g/m*3 17.4 C 0 km/h
850 26-08-2010 02:05:05 16.9 C 9.78 g/m*3 16.9 C 0 km/h
Sensor: Nr:Datum:Temp:Abs-Feuchte:Windchill:Wind:
Aussen-T/F 851 26-08-2010 02:17:05 17.1 C 10.19 g/m*3 17.1 C 0 km/h
852 26-08-2010 02:29:05 16.7 C 10.09 g/m*3 16.7 C 0 km/h
853 26-08-2010 02:41:05 17 C 9.84 g/m*3 17 C 0 km/h
854 26-08-2010 02:53:05 16.7 C 9.95 g/m*3 16.7 C 0 km/h
855 26-08-2010 03:05:05 16.8 C 10.29 g/m*3 16.8 C 0 km/h
856 26-08-2010 03:17:05 16.8 C 10.29 g/m*3 16.8 C 0 km/h
857 26-08-2010 03:29:05 16.9 C 9.92 g/m*3 16.9 C 0 km/h
858 26-08-2010 03:41:05 16.9 C 9.92 g/m*3 16.9 C 0 km/h
859 26-08-2010 03:53:05 16.9 C 9.78 g/m*3 16.9 C 0 km/h
860 26-08-2010 04:05:06 16.9 C 9.78 g/m*3 16.9 C 0 km/h
861 26-08-2010 04:17:06 17 C 9.69 g/m*3 17 C 0 km/h
862 26-08-2010 04:29:06 17 C 9.84 g/m*3 17 C 0 km/h
863 26-08-2010 04:41:06 16.9 C 9.92 g/m*3 16.9 C 0 km/h
864 26-08-2010 04:53:06 16.9 C 10.07 g/m*3 16.9 C 0 km/h
865 26-08-2010 05:05:06 17.3 C 10.31 g/m*3 17.3 C 0 km/h
866 26-08-2010 05:17:06 18.1 C 10.35 g/m*3 18.1 C 0 km/h
867 26-08-2010 05:29:06 18.5 C 10.28 g/m*3 18.5 C 0 km/h
868 26-08-2010 05:41:06 18.8 C 10.31 g/m*3 18.8 C 0 km/h
869 26-08-2010 05:53:06 18.7 C 10.25 g/m*3 18.7 C 0 km/h
870 26-08-2010 06:05:03 18.2 C 10.1 g/m*3 18.2 C 0 km/h
871 26-08-2010 06:17:03 18.1 C 10.35 g/m*3 18.1 C 0 km/h
872 26-08-2010 06:29:03 17.9 C 10.54 g/m*3 17.9 C 0 km/h
873 26-08-2010 06:41:03 18.1 C 10.82 g/m*3 18.1 C 0 km/h
874 26-08-2010 06:53:02 18.6 C 10.82 g/m*3 18.6 C 0 km/h
875 26-08-2010 07:05:02 18.9 C 10.69 g/m*3 18.9 C 0 km/h
Sensor: Nr:Datum:Temp:Abs-Feuchte:Windchill:Wind:
Aussen-T/F 876 26-08-2010 07:17:02 19 C 10.59 g/m*3 19 C 0 km/h
877 26-08-2010 07:29:02 19.2 C 10.55 g/m*3 19.2 C 0 km/h
878 26-08-2010 07:41:02 19.4 C 10.68 g/m*3 19.4 C 0 km/h
879 26-08-2010 07:53:02 19.8 C 10.93 g/m*3 19.8 C 0 km/h
880 26-08-2010 08:05:01 20 C 10.71 g/m*3 20 C 0 km/h
881 26-08-2010 08:17:02 20.1 C 10.95 g/m*3 20.1 C 0 km/h
882 26-08-2010 08:29:02 20.2 C 11.02 g/m*3 20.2 C 0 km/h
883 26-08-2010 08:41:01 20.1 C 11.3 g/m*3 20.1 C 0 km/h
884 26-08-2010 08:53:01 20.6 C 11.63 g/m*3 20.6 C 0 km/h
885 26-08-2010 09:05:02 20.8 C 11.41 g/m*3 20.8 C 0 km/h
886 26-08-2010 09:17:02 21.1 C 11.42 g/m*3 21.1 C 0 km/h
887 26-08-2010 09:29:02 21.5 C 11.31 g/m*3 21.5 C 0 km/h
888 26-08-2010 09:41:02 22 C 11.26 g/m*3 22 C 0 km/h
889 26-08-2010 09:53:01 22.2 C 11.19 g/m*3 22.2 C 0 km/h
890 26-08-2010 10:05:02 22.6 C 11.25 g/m*3 22.6 C 0 km/h
891 26-08-2010 10:17:02 22.6 C 11.25 g/m*3 22.6 C 0 km/h
892 26-08-2010 10:29:02 22.9 C 11.24 g/m*3 22.9 C 0 km/h
893 26-08-2010 10:41:01 22.7 C 11.11 g/m*3 22.7 C 0 km/h
894 26-08-2010 10:53:02 23 C 11.1 g/m*3 23 C 0 km/h
895 26-08-2010 11:05:01 23.2 C 11.23 g/m*3 23.2 C 0 km/h
896 26-08-2010 11:17:02 23.9 C 11.25 g/m*3 23.9 C 0 km/h
897 26-08-2010 11:29:03 23.5 C 11.21 g/m*3 23.5 C 0 km/h
898 26-08-2010 11:41:01 24.1 C 11.16 g/m*3 24.1 C 0 km/h
899 26-08-2010 11:53:02 24.1 C 10.94 g/m*3 24.1 C 0 km/h
900 26-08-2010 12:05:02 24.4 C 11.13 g/m*3 24.4 C 0 km/h
Sensor: Nr:Datum:Temp:Abs-Feuchte:Windchill:Wind:
Aussen-T/F 901 26-08-2010 12:17:02 23.8 C 10.97 g/m*3 23.8 C 0 km/h
902 26-08-2010 12:29:02 23.4 C 11.14 g/m*3 23.4 C 0 km/h
903 26-08-2010 12:41:03 23.2 C 11.23 g/m*3 23.2 C 0 km/h
904 26-08-2010 12:53:02 22.9 C 11.24 g/m*3 22.9 C 0 km/h
905 26-08-2010 13:05:02 22.7 C 11.31 g/m*3 22.7 C 0 km/h
906 26-08-2010 13:17:01 22.7 C 11.31 g/m*3 22.7 C 0 km/h
907 26-08-2010 13:29:01 22.9 C 11.24 g/m*3 22.9 C 0 km/h
908 26-08-2010 13:41:02 23.3 C 11.08 g/m*3 23.3 C 0 km/h
909 26-08-2010 13:53:02 23.2 C 11.02 g/m*3 23.2 C 0 km/h
910 26-08-2010 14:05:02 23.5 C 11.21 g/m*3 23.5 C 0 km/h
911 26-08-2010 14:17:02 23.9 C 11.25 g/m*3 23.9 C 0 km/h
912 26-08-2010 14:29:02 23.9 C 11.03 g/m*3 23.9 C 0 km/h
913 26-08-2010 14:41:02 23.8 C 11.19 g/m*3 23.8 C 0 km/h
914 26-08-2010 14:53:02 23.9 C 11.25 g/m*3 23.9 C 0 km/h
915 26-08-2010 15:05:02 23.9 C 11.47 g/m*3 23.9 C 0 km/h
916 26-08-2010 15:17:02 23.8 C 11.19 g/m*3 23.8 C 0 km/h
917 26-08-2010 15:29:02 23.7 C 11.34 g/m*3 23.7 C 0 km/h
918 26-08-2010 15:41:02 23.5 C 11.42 g/m*3 23.5 C 0 km/h
919 26-08-2010 15:53:02 23.5 C 11.21 g/m*3 23.5 C 0 km/h
920 26-08-2010 16:05:02 23.9 C 11.47 g/m*3 23.9 C 0 km/h
921 26-08-2010 16:17:02 23.8 C 11.4 g/m*3 23.8 C 0 km/h
922 26-08-2010 16:29:02 23.7 C 11.34 g/m*3 23.7 C 0 km/h
923 26-08-2010 16:41:02 24.2 C 11.22 g/m*3 24.2 C 0 km/h
924 26-08-2010 16:53:02 24.1 C 10.94 g/m*3 24.1 C 0 km/h
925 26-08-2010 17:05:02 23.9 C 11.25 g/m*3 23.9 C 0 km/h
Sensor: Nr:Datum:Temp:Abs-Feuchte:Windchill:Wind:
Aussen-T/F 926 26-08-2010 17:17:02 23.7 C 11.34 g/m*3 23.7 C 0 km/h
927 26-08-2010 17:29:02 23.6 C 11.27 g/m*3 23.6 C 0 km/h
928 26-08-2010 17:41:02 23.5 C 11.21 g/m*3 23.5 C 0 km/h
929 26-08-2010 17:53:02 23.4 C 11.35 g/m*3 23.4 C 0 km/h
930 26-08-2010 18:05:02 23.4 C 11.35 g/m*3 23.4 C 0 km/h
931 26-08-2010 18:17:02 23.3 C 11.5 g/m*3 23.3 C 0 km/h
932 26-08-2010 18:29:03 23.2 C 11.85 g/m*3 23.2 C 0 km/h
933 26-08-2010 18:41:01 23 C 11.72 g/m*3 23 C 0 km/h
934 26-08-2010 18:53:02 23 C 11.92 g/m*3 23 C 0 km/h
935 26-08-2010 19:05:01 22.6 C 12.25 g/m*3 22.6 C 0 km/h
936 26-08-2010 19:17:02 22.6 C 12.25 g/m*3 22.6 C 0 km/h
937 26-08-2010 19:29:02 21.6 C 13.28 g/m*3 21.6 C 0 km/h
938 26-08-2010 19:41:02 20.7 C 14.04 g/m*3 20.7 C 0 km/h
939 26-08-2010 19:53:02 20.8 C 14.67 g/m*3 20.8 C 0 km/h
940 26-08-2010 20:05:02 21 C 14.65 g/m*3 21 C 0 km/h
941 26-08-2010 20:17:02 20.9 C 14.57 g/m*3 20.9 C 0 km/h
942 26-08-2010 20:29:02 21 C 14.47 g/m*3 21 C 0 km/h
943 26-08-2010 20:41:02 20.9 C 14.39 g/m*3 20.9 C 0 km/h
944 26-08-2010 20:53:01 20.9 C 14.39 g/m*3 20.9 C 0 km/h
945 26-08-2010 21:05:02 20.7 C 14.04 g/m*3 20.7 C 0 km/h
946 26-08-2010 21:17:01 20.7 C 14.04 g/m*3 20.7 C 0 km/h
947 26-08-2010 21:29:01 20.4 C 13.98 g/m*3 20.4 C 0 km/h
948 26-08-2010 21:41:02 20.2 C 13.99 g/m*3 20.2 C 0 km/h
949 26-08-2010 21:53:02 20.1 C 14.08 g/m*3 20.1 C 0 km/h
950 26-08-2010 22:06:04 20 C 14.34 g/m*3 20 C 0 km/h
Sensor: Nr:Datum:Temp:Abs-Feuchte:Windchill:Wind:
Aussen-T/F 951 26-08-2010 22:18:04 19.8 C 14.52 g/m*3 19.8 C 0 km/h
952 26-08-2010 22:30:04 19.7 C 14.6 g/m*3 19.7 C 0 km/h
953 26-08-2010 22:42:04 19.7 C 14.77 g/m*3 19.7 C 0 km/h
954 26-08-2010 22:54:04 19.6 C 14.86 g/m*3 19.6 C 0 km/h
955 26-08-2010 23:06:04 19.5 C 14.77 g/m*3 19.5 C 0 km/h
956 26-08-2010 23:18:04 19.5 C 14.94 g/m*3 19.5 C 0 km/h
957 26-08-2010 23:30:04 19.5 C 14.94 g/m*3 19.5 C 0 km/h
958 26-08-2010 23:42:05 19.4 C 15.02 g/m*3 19.4 C 0 km/h
959 26-08-2010 23:54:05 19.3 C 15.09 g/m*3 19.3 C 0 km/h
960 27-08-2010 00:06:05 19.2 C 15.01 g/m*3 19.2 C 0 km/h
961 27-08-2010 00:18:05 19 C 14.83 g/m*3 19 C 0 km/h
962 27-08-2010 00:30:05 19 C 14.83 g/m*3 19 C 0 km/h
963 27-08-2010 00:42:05 18.9 C 14.9 g/m*3 18.9 C 0 km/h
964 27-08-2010 00:54:05 18.8 C 14.98 g/m*3 18.8 C 0 km/h
965 27-08-2010 01:06:05 18.7 C 14.89 g/m*3 18.7 C 0 km/h
966 27-08-2010 01:18:05 18.7 C 14.89 g/m*3 18.7 C 0 km/h
967 27-08-2010 01:30:05 18.8 C 14.98 g/m*3 18.8 C 0 km/h
968 27-08-2010 01:42:05 18.8 C 14.98 g/m*3 18.8 C 0 km/h
969 27-08-2010 01:54:05 18.8 C 15.14 g/m*3 18.8 C 0 km/h
970 27-08-2010 02:06:05 18.8 C 15.14 g/m*3 18.8 C 0 km/h
971 27-08-2010 02:18:05 18.7 C 15.05 g/m*3 18.7 C 0 km/h
972 27-08-2010 02:30:05 18.5 C 14.87 g/m*3 18.5 C 0 km/h
973 27-08-2010 02:42:05 18.6 C 14.96 g/m*3 18.6 C 0 km/h
974 27-08-2010 02:54:05 18.5 C 14.87 g/m*3 18.5 C 0 km/h
975 27-08-2010 03:06:05 18.4 C 14.78 g/m*3 18.4 C 0 km/h
Sensor: Nr:Datum:Temp:Abs-Feuchte:Windchill:Wind:
Aussen-T/F 976 27-08-2010 03:18:05 18.4 C 14.78 g/m*3 18.4 C 0 km/h
977 27-08-2010 03:30:05 18.4 C 14.78 g/m*3 18.4 C 0 km/h
978 27-08-2010 03:42:05 18.4 C 14.78 g/m*3 18.4 C 0 km/h
979 27-08-2010 03:54:05 18.3 C 14.7 g/m*3 18.3 C 0 km/h
980 27-08-2010 04:06:05 18.3 C 14.7 g/m*3 18.3 C 0 km/h
981 27-08-2010 04:18:06 18.3 C 14.7 g/m*3 18.3 C 0 km/h
982 27-08-2010 04:30:06 18.4 C 14.78 g/m*3 18.4 C 0 km/h
983 27-08-2010 04:42:06 18.4 C 14.78 g/m*3 18.4 C 0 km/h
984 27-08-2010 04:54:06 18.3 C 14.7 g/m*3 18.3 C 0 km/h
985 27-08-2010 05:06:06 18.3 C 14.85 g/m*3 18.3 C 0 km/h
986 27-08-2010 05:18:06 18.3 C 14.7 g/m*3 18.3 C 0 km/h
987 27-08-2010 05:30:06 18.4 C 14.78 g/m*3 18.4 C 0 km/h
988 27-08-2010 05:42:06 18.4 C 14.94 g/m*3 18.4 C 0 km/h
989 27-08-2010 05:54:06 18.6 C 15.12 g/m*3 18.6 C 0 km/h
990 27-08-2010 06:06:06 18.7 C 15.21 g/m*3 18.7 C 0 km/h
991 27-08-2010 06:18:06 18.8 C 15.3 g/m*3 18.8 C 0 km/h
992 27-08-2010 06:30:06 18.9 C 15.39 g/m*3 18.9 C 0 km/h
993 27-08-2010 06:42:06 18.9 C 15.39 g/m*3 18.9 C 0 km/h
994 27-08-2010 06:54:06 18.8 C 15.3 g/m*3 18.8 C 0 km/h
995 27-08-2010 07:06:06 18.8 C 15.14 g/m*3 18.8 C 0 km/h
996 27-08-2010 07:18:07 18.7 C 15.05 g/m*3 18.7 C 0 km/h
997 27-08-2010 07:30:07 18.7 C 15.05 g/m*3 18.7 C 0 km/h
998 27-08-2010 07:42:07 18.6 C 14.96 g/m*3 18.6 C 0 km/h
999 27-08-2010 07:54:01 18.6 C 14.96 g/m*3 18.6 C 0 km/h
1000 27-08-2010 08:06:02 18.6 C 14.96 g/m*3 18.6 C 0 km/h
Sensor: Nr:Datum:Temp:Abs-Feuchte:Windchill:Wind:
Aussen-T/F 1001 27-08-2010 08:18:01 18.6 C 14.96 g/m*3 18.6 C 0 km/h
1002 27-08-2010 08:30:01 18.6 C 14.96 g/m*3 18.6 C 0 km/h
1003 27-08-2010 08:42:01 18.5 C 14.87 g/m*3 18.5 C 0 km/h
1004 27-08-2010 08:54:02 18.6 C 14.96 g/m*3 18.6 C 0 km/h
1005 27-08-2010 09:06:01 18.6 C 14.96 g/m*3 18.6 C 0 km/h
1006 27-08-2010 09:18:02 18.8 C 15.14 g/m*3 18.8 C 0 km/h
1007 27-08-2010 09:30:02 19.5 C 15.27 g/m*3 19.5 C 0 km/h
1008 27-08-2010 09:42:01 19.7 C 15.11 g/m*3 19.7 C 0 km/h
1009 27-08-2010 09:54:02 19.7 C 14.77 g/m*3 19.7 C 0 km/h
1010 27-08-2010 10:06:02 19.7 C 14.6 g/m*3 19.7 C 0 km/h
1011 27-08-2010 10:18:02 19.8 C 14.52 g/m*3 19.8 C 0 km/h
1012 27-08-2010 10:30:02 19.4 C 14.18 g/m*3 19.4 C 0 km/h
1013 27-08-2010 10:42:03 19 C 14.18 g/m*3 19 C 0 km/h
1014 27-08-2010 10:54:02 18.7 C 14.25 g/m*3 18.7 C 0 km/h
1015 27-08-2010 11:06:02 18.5 C 14.4 g/m*3 18.5 C 0 km/h
1016 27-08-2010 11:18:01 18.3 C 13.92 g/m*3 18.3 C 0 km/h
1017 27-08-2010 11:30:01 18.1 C 13.44 g/m*3 18.1 C 0 km/h
1018 27-08-2010 11:42:02 17.9 C 13.13 g/m*3 17.9 C 0 km/h
1019 27-08-2010 11:54:02 18 C 13.06 g/m*3 18 C 0 km/h
1020 27-08-2010 12:06:02 18.7 C 13.77 g/m*3 18.7 C 0 km/h
1021 27-08-2010 12:18:02 19.5 C 13.93 g/m*3 19.5 C 0 km/h
1022 27-08-2010 12:30:02 20.4 C 13.62 g/m*3 20.4 C 0 km/h
1023 27-08-2010 12:42:02 20.5 C 12.99 g/m*3 20.5 C 0 km/h
1024 27-08-2010 12:54:02 21.4 C 13.12 g/m*3 21.4 C 0 km/h
1025 27-08-2010 13:06:02 21.9 C 12.93 g/m*3 21.9 C 0 km/h
Sensor: Nr:Datum:Temp:Abs-Feuchte:Windchill:Wind:
Aussen-T/F 1026 27-08-2010 13:18:02 22.4 C 13.11 g/m*3 22.4 C 0 km/h
1027 27-08-2010 13:30:02 22.8 C 12.6 g/m*3 22.8 C 0 km/h
1028 27-08-2010 13:42:02 23.4 C 12.41 g/m*3 23.4 C 0 km/h
1029 27-08-2010 13:54:02 24.1 C 11.82 g/m*3 24.1 C 0 km/h
1030 27-08-2010 14:06:02 24.2 C 11.88 g/m*3 24.2 C 0 km/h
1031 27-08-2010 14:18:03 23.6 C 11.7 g/m*3 23.6 C 0 km/h
1032 27-08-2010 14:30:03 22.5 C 12.78 g/m*3 22.5 C 0 km/h
1033 27-08-2010 14:42:02 17 C 11 g/m*3 17 C 0 km/h
1034 27-08-2010 14:54:03 16.5 C 11.94 g/m*3 16.5 C 0 km/h
1035 27-08-2010 15:06:02 16.7 C 12.65 g/m*3 16.7 C 0 km/h
1036 27-08-2010 15:18:02 18.3 C 13.76 g/m*3 18.3 C 0 km/h
1037 27-08-2010 15:30:02 19 C 13.85 g/m*3 19 C 0 km/h
1038 27-08-2010 15:42:02 19.8 C 13.66 g/m*3 19.8 C 0 km/h
1039 27-08-2010 15:54:02 20.8 C 13.4 g/m*3 20.8 C 0 km/h
1040 27-08-2010 16:06:01 21.8 C 12.47 g/m*3 21.8 C 0 km/h
1041 27-08-2010 16:18:02 21.7 C 12.59 g/m*3 21.7 C 0 km/h
1042 27-08-2010 16:30:02 21.3 C 12.68 g/m*3 21.3 C 0 km/h
1043 27-08-2010 16:42:02 21.7 C 13.35 g/m*3 21.7 C 0 km/h
1044 27-08-2010 16:54:02 23 C 13.36 g/m*3 23 C 0 km/h
1045 27-08-2010 17:06:01 22.8 C 11.99 g/m*3 22.8 C 0 km/h
1046 27-08-2010 17:18:01 22.9 C 12.47 g/m*3 22.9 C 0 km/h
1047 27-08-2010 17:30:01 21.5 C 11.5 g/m*3 21.5 C 0 km/h
1048 27-08-2010 17:42:02 20.2 C 11.37 g/m*3 20.2 C 0 km/h
1049 27-08-2010 17:54:02 19.1 C 11.15 g/m*3 19.1 C 0 km/h
1050 27-08-2010 18:06:02 17.3 C 12.08 g/m*3 17.3 C 0 km/h
Sensor: Nr:Datum:Temp:Abs-Feuchte:Windchill:Wind:
Aussen-T/F 1051 27-08-2010 18:18:02 16.6 C 12.15 g/m*3 16.6 C 0 km/h
1052 27-08-2010 18:30:02 16.4 C 12.14 g/m*3 16.4 C 0 km/h
1053 27-08-2010 18:42:02 17 C 12.3 g/m*3 17 C 0 km/h
1054 27-08-2010 18:54:02 16.7 C 11.37 g/m*3 16.7 C 0 km/h
1055 27-08-2010 19:06:02 16.3 C 11.38 g/m*3 16.3 C 0 km/h
1056 27-08-2010 19:18:02 16 C 11.31 g/m*3 16 C 0 km/h
1057 27-08-2010 19:30:02 15.5 C 10.84 g/m*3 15.5 C 0 km/h
1058 27-08-2010 19:42:02 15.3 C 10.71 g/m*3 15.3 C 0 km/h
1059 27-08-2010 19:54:02 15.1 C 10.45 g/m*3 15.1 C 0 km/h
1060 27-08-2010 20:06:02 15.1 C 10.58 g/m*3 15.1 C 0 km/h
1061 27-08-2010 20:18:02 15.3 C 10.71 g/m*3 15.3 C 0 km/h
1062 27-08-2010 20:30:02 15.3 C 10.45 g/m*3 15.3 C 0 km/h
1063 27-08-2010 20:42:02 15.2 C 10.25 g/m*3 15.2 C 0 km/h
1064 27-08-2010 20:54:02 14.7 C 10.2 g/m*3 14.7 C 0 km/h
1065 27-08-2010 21:06:02 14.5 C 10.32 g/m*3 14.5 C 0 km/h
1066 27-08-2010 21:18:03 14.5 C 10.2 g/m*3 14.5 C 0 km/h
1067 27-08-2010 21:30:03 14.6 C 10.14 g/m*3 14.6 C 0 km/h
1068 27-08-2010 21:42:02 14.6 C 10.14 g/m*3 14.6 C 0 km/h
1069 27-08-2010 21:54:03 14.7 C 10.07 g/m*3 14.7 C 0 km/h
1070 27-08-2010 22:06:02 14.8 C 10.01 g/m*3 14.8 C 0 km/h
1071 27-08-2010 22:18:02 14.8 C 10.01 g/m*3 14.8 C 0 km/h
1072 27-08-2010 22:30:02 14.8 C 10.01 g/m*3 14.8 C 0 km/h
1073 27-08-2010 22:43:28 14.8 C 10.01 g/m*3 14.8 C 0 km/h
1074 27-08-2010 22:55:28 14.5 C 10.07 g/m*3 14.5 C 0 km/h
1075 27-08-2010 23:07:28 13.8 C 9.65 g/m*3 13.8 C 0 km/h
Sensor: Nr:Datum:Temp:Abs-Feuchte:Windchill:Wind:
Aussen-T/F 1076 27-08-2010 23:19:28 13.9 C 9.59 g/m*3 13.9 C 0 km/h
1077 27-08-2010 23:31:28 13.8 C 9.29 g/m*3 13.8 C 0 km/h
1078 27-08-2010 23:43:28 14.1 C 9.1 g/m*3 14.1 C 0 km/h
1079 27-08-2010 23:55:28 14.2 C 9.04 g/m*3 14.2 C 0 km/h
1080 28-08-2010 00:07:28 14.1 C 9.1 g/m*3 14.1 C 0 km/h
1081 28-08-2010 00:19:28 13.9 C 9.11 g/m*3 13.9 C 0 km/h
1082 28-08-2010 00:31:28 14 C 9.05 g/m*3 14 C 0 km/h
1083 28-08-2010 00:43:28 13.7 C 9.35 g/m*3 13.7 C 0 km/h
1084 28-08-2010 00:55:29 13.2 C 9.42 g/m*3 13.2 C 0 km/h
1085 28-08-2010 01:07:29 13.2 C 9.64 g/m*3 13.2 C 0 km/h
1086 28-08-2010 01:19:29 13.1 C 9.81 g/m*3 13.1 C 0 km/h
1087 28-08-2010 01:31:29 13 C 9.87 g/m*3 13 C 0 km/h
1088 28-08-2010 01:43:29 13.1 C 10.04 g/m*3 13.1 C 0 km/h
1089 28-08-2010 01:55:29 13.1 C 10.04 g/m*3 13.1 C 0 km/h
1090 28-08-2010 02:07:29 13.2 C 9.99 g/m*3 13.2 C 0 km/h
1091 28-08-2010 02:19:29 13.2 C 9.99 g/m*3 13.2 C 0 km/h
1092 28-08-2010 02:31:29 13.1 C 9.81 g/m*3 13.1 C 0 km/h
1093 28-08-2010 02:43:29 13.1 C 9.7 g/m*3 13.1 C 0 km/h
1094 28-08-2010 02:55:29 13.1 C 9.59 g/m*3 13.1 C 0 km/h
1095 28-08-2010 03:07:29 13.1 C 9.59 g/m*3 13.1 C 0 km/h
1096 28-08-2010 03:19:29 13.1 C 9.59 g/m*3 13.1 C 0 km/h
1097 28-08-2010 03:31:29 13.1 C 9.47 g/m*3 13.1 C 0 km/h
1098 28-08-2010 03:43:29 13.1 C 9.59 g/m*3 13.1 C 0 km/h
1099 28-08-2010 03:55:29 13.1 C 9.59 g/m*3 13.1 C 0 km/h
1100 28-08-2010 04:07:29 12.9 C 9.47 g/m*3 12.9 C 0 km/h
Sensor: Nr:Datum:Temp:Abs-Feuchte:Windchill:Wind:
Aussen-T/F 1101 28-08-2010 04:19:30 12.9 C 9.47 g/m*3 12.9 C 0 km/h
1102 28-08-2010 04:31:30 12.5 C 9.24 g/m*3 12.5 C 0 km/h
1103 28-08-2010 04:43:30 12.3 C 9.23 g/m*3 12.3 C 0 km/h
1104 28-08-2010 04:55:30 12.1 C 9.12 g/m*3 12.1 C 0 km/h
1105 28-08-2010 05:07:30 12.2 C 9.28 g/m*3 12.2 C 0 km/h
1106 28-08-2010 05:19:30 12.3 C 9.34 g/m*3 12.3 C 0 km/h
1107 28-08-2010 05:31:30 12.1 C 9.01 g/m*3 12.1 C 0 km/h
1108 28-08-2010 05:43:30 11.9 C 9 g/m*3 11.9 C 0 km/h
1109 28-08-2010 05:55:30 12.1 C 9.12 g/m*3 12.1 C 0 km/h
1110 28-08-2010 06:07:30 11.7 C 8.89 g/m*3 11.7 C 0 km/h
1111 28-08-2010 06:19:30 11.6 C 8.83 g/m*3 11.6 C 0 km/h
1112 28-08-2010 06:31:30 11.7 C 8.79 g/m*3 11.7 C 0 km/h
1113 28-08-2010 06:43:30 11.5 C 8.68 g/m*3 11.5 C 0 km/h
1114 28-08-2010 06:55:02 11.4 C 8.62 g/m*3 11.4 C 0 km/h
1115 28-08-2010 07:07:02 11.3 C 8.67 g/m*3 11.3 C 0 km/h
1116 28-08-2010 07:19:02 11.3 C 8.77 g/m*3 11.3 C 0 km/h
1117 28-08-2010 07:31:01 11.6 C 8.94 g/m*3 11.6 C 0 km/h
1118 28-08-2010 07:43:01 12 C 8.95 g/m*3 12 C 0 km/h
1119 28-08-2010 07:55:02 12.4 C 9.07 g/m*3 12.4 C 0 km/h
1120 28-08-2010 08:07:01 12.6 C 9.07 g/m*3 12.6 C 0 km/h
1121 28-08-2010 08:19:02 12.8 C 8.96 g/m*3 12.8 C 0 km/h
1122 28-08-2010 08:31:01 13 C 8.85 g/m*3 13 C 0 km/h
1123 28-08-2010 08:43:01 13.4 C 8.95 g/m*3 13.4 C 0 km/h
1124 28-08-2010 08:55:02 13.6 C 8.83 g/m*3 13.6 C 0 km/h
1125 28-08-2010 09:07:02 14.3 C 8.97 g/m*3 14.3 C 0 km/h
Sensor: Nr:Datum:Temp:Abs-Feuchte:Windchill:Wind:
Aussen-T/F 1126 28-08-2010 09:19:01 14.2 C 8.55 g/m*3 14.2 C 0 km/h
1127 28-08-2010 09:31:02 14.1 C 8.62 g/m*3 14.1 C 0 km/h
1128 28-08-2010 09:43:02 14.1 C 8.37 g/m*3 14.1 C 0 km/h
1129 28-08-2010 09:55:02 14.4 C 8.41 g/m*3 14.4 C 0 km/h
1130 28-08-2010 10:07:02 14.6 C 8.38 g/m*3 14.6 C 0 km/h
1131 28-08-2010 10:19:02 14.6 C 8.38 g/m*3 14.6 C 0 km/h
1132 28-08-2010 10:31:02 15.1 C 8.39 g/m*3 15.1 C 0 km/h
1133 28-08-2010 10:43:02 15.6 C 8.51 g/m*3 15.6 C 0 km/h
1134 28-08-2010 10:55:02 15.8 C 8.08 g/m*3 15.8 C 0 km/h
1135 28-08-2010 11:07:03 15.8 C 8.21 g/m*3 15.8 C 0 km/h
1136 28-08-2010 11:19:02 16.4 C 7.96 g/m*3 16.4 C 0 km/h
1137 28-08-2010 11:31:03 16.9 C 7.77 g/m*3 16.9 C 0 km/h
1138 28-08-2010 11:43:03 16.7 C 7.25 g/m*3 16.7 C 0 km/h
1139 28-08-2010 11:55:02 16.4 C 7.82 g/m*3 16.4 C 0 km/h
1140 28-08-2010 12:07:02 17 C 7.67 g/m*3 17 C 0 km/h
1141 28-08-2010 12:19:02 18 C 7.22 g/m*3 18 C 0 km/h
1142 28-08-2010 12:31:02 13.7 C 8.05 g/m*3 13.7 C 0 km/h
1143 28-08-2010 12:43:02 13.7 C 9.35 g/m*3 13.7 C 0 km/h
1144 28-08-2010 12:55:02 14.7 C 10.58 g/m*3 14.7 C 0 km/h
1145 28-08-2010 13:07:02 15.7 C 10.84 g/m*3 15.7 C 0 km/h
1146 28-08-2010 13:19:03 15.8 C 10.23 g/m*3 15.8 C 0 km/h
1147 28-08-2010 13:31:02 15.5 C 10.31 g/m*3 15.5 C 0 km/h
1148 28-08-2010 13:43:02 17.2 C 11.57 g/m*3 17.2 C 0 km/h
1149 28-08-2010 13:55:03 17 C 10.13 g/m*3 17 C 0 km/h
1150 28-08-2010 14:07:02 15.8 C 8.88 g/m*3 15.8 C 0 km/h
Sensor: Nr:Datum:Temp:Abs-Feuchte:Windchill:Wind:
Aussen-T/F 1151 28-08-2010 14:19:03 16.8 C 8.01 g/m*3 16.8 C 0 km/h
1152 28-08-2010 14:31:02 15.9 C 6.91 g/m*3 15.9 C 0 km/h
1153 28-08-2010 14:43:02 14.9 C 7.01 g/m*3 14.9 C 0 km/h
1154 28-08-2010 14:55:02 14.6 C 7.63 g/m*3 14.6 C 0 km/h
1155 28-08-2010 15:07:02 14.7 C 7.68 g/m*3 14.7 C 0 km/h
1156 28-08-2010 15:19:02 15.8 C 7.94 g/m*3 15.8 C 0 km/h
1157 28-08-2010 15:31:03 17.6 C 7.65 g/m*3 17.6 C 0 km/h
1158 28-08-2010 15:43:03 17.9 C 6.72 g/m*3 17.9 C 0 km/h
1159 28-08-2010 15:55:02 17.6 C 7.05 g/m*3 17.6 C 0 km/h
1160 28-08-2010 16:07:01 17 C 6.8 g/m*3 17 C 0 km/h
1161 28-08-2010 16:19:02 14.9 C 7.65 g/m*3 14.9 C 0 km/h
1162 28-08-2010 16:31:02 13.9 C 8.27 g/m*3 13.9 C 0 km/h
1163 28-08-2010 16:43:02 14.5 C 8.95 g/m*3 14.5 C 0 km/h
1164 28-08-2010 16:55:01 15.2 C 8.44 g/m*3 15.2 C 0 km/h
1165 28-08-2010 17:07:02 15.9 C 9.21 g/m*3 15.9 C 0 km/h
1166 28-08-2010 17:19:01 16 C 8.72 g/m*3 16 C 0 km/h
1167 28-08-2010 17:31:02 15.7 C 8.3 g/m*3 15.7 C 0 km/h
1168 28-08-2010 17:43:02 15.2 C 8.05 g/m*3 15.2 C 0 km/h
1169 28-08-2010 17:55:01 15.2 C 9.09 g/m*3 15.2 C 0 km/h
1170 28-08-2010 18:07:02 16.2 C 8.27 g/m*3 16.2 C 0 km/h
1171 28-08-2010 18:19:01 17 C 6.95 g/m*3 17 C 0 km/h
1172 28-08-2010 18:31:02 18.1 C 7.26 g/m*3 18.1 C 0 km/h
1173 28-08-2010 18:43:02 18.3 C 7.04 g/m*3 18.3 C 0 km/h
1174 28-08-2010 18:55:01 18.2 C 7.46 g/m*3 18.2 C 0 km/h
1175 28-08-2010 19:07:02 16.8 C 7.86 g/m*3 16.8 C 0 km/h
Sensor: Nr:Datum:Temp:Abs-Feuchte:Windchill:Wind:
Aussen-T/F 1176 28-08-2010 19:19:02 16.1 C 7.95 g/m*3 16.1 C 0 km/h
1177 28-08-2010 19:31:02 15 C 8.59 g/m*3 15 C 0 km/h
1178 28-08-2010 19:43:02 14.2 C 8.79 g/m*3 14.2 C 0 km/h
1179 28-08-2010 19:55:01 14.2 C 8.3 g/m*3 14.2 C 0 km/h
1180 28-08-2010 20:07:02 13.4 C 8.6 g/m*3 13.4 C 0 km/h
1181 28-08-2010 20:19:02 13 C 8.85 g/m*3 13 C 0 km/h
1182 28-08-2010 20:31:01 13.1 C 9.13 g/m*3 13.1 C 0 km/h
1183 28-08-2010 20:43:01 13.1 C 9.24 g/m*3 13.1 C 0 km/h
1184 28-08-2010 20:55:02 12.9 C 9.35 g/m*3 12.9 C 0 km/h
1185 28-08-2010 21:07:01 12.8 C 9.3 g/m*3 12.8 C 0 km/h
1186 28-08-2010 21:19:02 12.7 C 9.24 g/m*3 12.7 C 0 km/h
1187 28-08-2010 21:31:01 12.4 C 9.07 g/m*3 12.4 C 0 km/h
1188 28-08-2010 21:43:01 12.2 C 8.96 g/m*3 12.2 C 0 km/h
1189 28-08-2010 21:55:02 12.2 C 9.06 g/m*3 12.2 C 0 km/h
1190 28-08-2010 22:08:02 12.3 C 9.12 g/m*3 12.3 C 0 km/h
1191 28-08-2010 22:20:02 12.3 C 9.01 g/m*3 12.3 C 0 km/h
1192 28-08-2010 22:32:03 12.2 C 8.85 g/m*3 12.2 C 0 km/h
1193 28-08-2010 22:44:03 12.1 C 8.79 g/m*3 12.1 C 0 km/h
1194 28-08-2010 22:56:03 12.3 C 9.01 g/m*3 12.3 C 0 km/h
1195 28-08-2010 23:08:03 12.6 C 8.96 g/m*3 12.6 C 0 km/h
1196 28-08-2010 23:20:03 12.7 C 8.79 g/m*3 12.7 C 0 km/h
1197 28-08-2010 23:32:03 12.4 C 8.74 g/m*3 12.4 C 0 km/h
1198 28-08-2010 23:44:03 12.1 C 8.58 g/m*3 12.1 C 0 km/h
1199 28-08-2010 23:56:03 12 C 8.53 g/m*3 12 C 0 km/h
1200 29-08-2010 00:08:03 11.8 C 8.42 g/m*3 11.8 C 0 km/h
Sensor: Nr:Datum:Temp:Abs-Feuchte:Windchill:Wind:
Aussen-T/F 1201 29-08-2010 00:20:03 11.8 C 8.42 g/m*3 11.8 C 0 km/h
1202 29-08-2010 00:32:03 11.9 C 8.58 g/m*3 11.9 C 0 km/h
1203 29-08-2010 00:44:03 12 C 8.53 g/m*3 12 C 0 km/h
1204 29-08-2010 00:56:03 12 C 8.42 g/m*3 12 C 0 km/h
1205 29-08-2010 01:08:03 11.7 C 8.47 g/m*3 11.7 C 0 km/h
1206 29-08-2010 01:20:03 11.5 C 8.37 g/m*3 11.5 C 0 km/h
1207 29-08-2010 01:32:03 11.5 C 8.47 g/m*3 11.5 C 0 km/h
1208 29-08-2010 01:44:03 11.4 C 8.42 g/m*3 11.4 C 0 km/h
1209 29-08-2010 01:56:03 11.4 C 8.52 g/m*3 11.4 C 0 km/h
1210 29-08-2010 02:08:03 11.7 C 8.58 g/m*3 11.7 C 0 km/h
1211 29-08-2010 02:20:03 11.7 C 8.47 g/m*3 11.7 C 0 km/h
1212 29-08-2010 02:32:03 11.7 C 8.58 g/m*3 11.7 C 0 km/h
1213 29-08-2010 02:44:04 11.8 C 8.53 g/m*3 11.8 C 0 km/h
1214 29-08-2010 02:56:04 11.8 C 8.53 g/m*3 11.8 C 0 km/h
1215 29-08-2010 03:08:04 11.8 C 8.42 g/m*3 11.8 C 0 km/h
1216 29-08-2010 03:20:04 11.8 C 8.53 g/m*3 11.8 C 0 km/h
1217 29-08-2010 03:32:04 11.8 C 8.53 g/m*3 11.8 C 0 km/h
1218 29-08-2010 03:44:04 11.7 C 8.47 g/m*3 11.7 C 0 km/h
1219 29-08-2010 03:56:04 11.7 C 8.47 g/m*3 11.7 C 0 km/h
1220 29-08-2010 04:08:04 11.6 C 8.42 g/m*3 11.6 C 0 km/h
1221 29-08-2010 04:20:04 11.4 C 8.31 g/m*3 11.4 C 0 km/h
1222 29-08-2010 04:32:04 11.4 C 8.42 g/m*3 11.4 C 0 km/h
1223 29-08-2010 04:44:04 11.4 C 8.42 g/m*3 11.4 C 0 km/h
1224 29-08-2010 04:56:04 11.7 C 8.37 g/m*3 11.7 C 0 km/h
1225 29-08-2010 05:08:04 11.8 C 8.31 g/m*3 11.8 C 0 km/h
Sensor: Nr:Datum:Temp:Abs-Feuchte:Windchill:Wind:
Aussen-T/F 1226 29-08-2010 05:20:04 11.7 C 8.26 g/m*3 11.7 C 0 km/h
1227 29-08-2010 05:32:04 11.7 C 8.26 g/m*3 11.7 C 0 km/h
1228 29-08-2010 05:44:04 11.7 C 8.37 g/m*3 11.7 C 0 km/h
1229 29-08-2010 05:56:04 11.8 C 8.42 g/m*3 11.8 C 0 km/h
1230 29-08-2010 06:08:04 12.2 C 8.31 g/m*3 12.2 C 0 km/h
1231 29-08-2010 06:20:04 12.1 C 8.26 g/m*3 12.1 C 0 km/h
1232 29-08-2010 06:32:04 12.2 C 8.2 g/m*3 12.2 C 0 km/h
1233 29-08-2010 06:44:04 12 C 8.31 g/m*3 12 C 0 km/h
1234 29-08-2010 06:56:04 12 C 8.42 g/m*3 12 C 0 km/h
1235 29-08-2010 07:08:02 12.1 C 8.36 g/m*3 12.1 C 0 km/h
1236 29-08-2010 07:20:02 12.2 C 8.31 g/m*3 12.2 C 0 km/h
1237 29-08-2010 07:32:02 12.2 C 8.31 g/m*3 12.2 C 0 km/h
1238 29-08-2010 07:44:02 12.2 C 8.31 g/m*3 12.2 C 0 km/h
1239 29-08-2010 07:56:02 12.3 C 8.36 g/m*3 12.3 C 0 km/h
1240 29-08-2010 08:08:02 12.1 C 8.36 g/m*3 12.1 C 0 km/h
1241 29-08-2010 08:20:01 12.2 C 8.42 g/m*3 12.2 C 0 km/h
1242 29-08-2010 08:32:02 12.5 C 8.36 g/m*3 12.5 C 0 km/h
1243 29-08-2010 08:44:02 12.6 C 8.3 g/m*3 12.6 C 0 km/h
1244 29-08-2010 08:56:01 12.8 C 8.29 g/m*3 12.8 C 0 km/h
1245 29-08-2010 09:08:02 13.5 C 8.3 g/m*3 13.5 C 0 km/h
1246 29-08-2010 09:20:02 13.8 C 8.1 g/m*3 13.8 C 0 km/h
1247 29-08-2010 09:32:01 14 C 8.08 g/m*3 14 C 0 km/h
1248 29-08-2010 09:44:01 14.3 C 8.23 g/m*3 14.3 C 0 km/h
1249 29-08-2010 09:56:03 14.4 C 8.16 g/m*3 14.4 C 0 km/h
1250 29-08-2010 10:08:03 14.9 C 8.28 g/m*3 14.9 C 0 km/h
Sensor: Nr:Datum:Temp:Abs-Feuchte:Windchill:Wind:
Aussen-T/F 1251 29-08-2010 10:20:03 15.3 C 7.97 g/m*3 15.3 C 0 km/h
1252 29-08-2010 10:32:02 15.3 C 7.97 g/m*3 15.3 C 0 km/h
1253 29-08-2010 10:44:02 15.7 C 8.03 g/m*3 15.7 C 0 km/h
1254 29-08-2010 10:56:01 15.8 C 7.94 g/m*3 15.8 C 0 km/h
1255 29-08-2010 11:08:02 16.3 C 8.05 g/m*3 16.3 C 0 km/h
1256 29-08-2010 11:20:01 16.4 C 7.96 g/m*3 16.4 C 0 km/h
1257 29-08-2010 11:32:01 16.6 C 7.91 g/m*3 16.6 C 0 km/h
1258 29-08-2010 11:44:01 16 C 7.77 g/m*3 16 C 0 km/h
1259 29-08-2010 11:56:01 16 C 7.9 g/m*3 16 C 0 km/h
1260 29-08-2010 12:08:01 15.9 C 7.85 g/m*3 15.9 C 0 km/h
1261 29-08-2010 12:20:02 14 C 9.17 g/m*3 14 C 0 km/h
1262 29-08-2010 12:32:01 14.6 C 9.76 g/m*3 14.6 C 0 km/h
1263 29-08-2010 12:44:01 15.1 C 9.16 g/m*3 15.1 C 0 km/h
1264 29-08-2010 12:56:03 16 C 9.13 g/m*3 16 C 0 km/h
1265 29-08-2010 13:08:02 16.9 C 8.92 g/m*3 16.9 C 0 km/h
1266 29-08-2010 13:20:02 16.9 C 8.63 g/m*3 16.9 C 0 km/h
1267 29-08-2010 13:32:02 16.4 C 8.37 g/m*3 16.4 C 0 km/h
1268 29-08-2010 13:44:02 15.3 C 8.62 g/m*3 15.3 C 0 km/h
1269 29-08-2010 13:56:02 14.7 C 8.94 g/m*3 14.7 C 0 km/h
1270 29-08-2010 14:08:01 15.2 C 8.83 g/m*3 15.2 C 0 km/h
1271 29-08-2010 14:20:02 16.4 C 8.51 g/m*3 16.4 C 0 km/h
1272 29-08-2010 14:32:02 17 C 7.96 g/m*3 17 C 0 km/h
1273 29-08-2010 14:44:02 17.1 C 8.3 g/m*3 17.1 C 0 km/h
1274 29-08-2010 14:56:01 16.6 C 8.33 g/m*3 16.6 C 0 km/h
1275 29-08-2010 15:08:01 15.7 C 8.3 g/m*3 15.7 C 0 km/h
Sensor: Nr:Datum:Temp:Abs-Feuchte:Windchill:Wind:
Aussen-T/F 1276 29-08-2010 15:20:01 15.5 C 8.2 g/m*3 15.5 C 0 km/h
1277 29-08-2010 15:32:02 14.2 C 8.91 g/m*3 14.2 C 0 km/h
1278 29-08-2010 15:44:02 14.7 C 9.69 g/m*3 14.7 C 0 km/h
1279 29-08-2010 15:56:02 15.3 C 9.4 g/m*3 15.3 C 0 km/h
1280 29-08-2010 16:08:02 15.1 C 9.03 g/m*3 15.1 C 0 km/h
1281 29-08-2010 16:20:02 15.5 C 8.99 g/m*3 15.5 C 0 km/h
1282 29-08-2010 16:32:02 15.9 C 8.53 g/m*3 15.9 C 0 km/h
1283 29-08-2010 16:44:03 16.2 C 8.14 g/m*3 16.2 C 0 km/h
1284 29-08-2010 16:56:02 16.1 C 7.81 g/m*3 16.1 C 0 km/h
1285 29-08-2010 17:08:02 15.9 C 7.85 g/m*3 15.9 C 0 km/h
1286 29-08-2010 17:20:02 15.6 C 7.98 g/m*3 15.6 C 0 km/h
1287 29-08-2010 17:32:02 15.2 C 8.18 g/m*3 15.2 C 0 km/h
1288 29-08-2010 17:44:02 14.1 C 8.74 g/m*3 14.1 C 0 km/h
1289 29-08-2010 17:56:02 14 C 8.68 g/m*3 14 C 0 km/h
1290 29-08-2010 18:08:02 13.8 C 8.94 g/m*3 13.8 C 0 km/h
1291 29-08-2010 18:20:01 13.4 C 9.3 g/m*3 13.4 C 0 km/h
1292 29-08-2010 18:32:01 13.1 C 9.59 g/m*3 13.1 C 0 km/h
1293 29-08-2010 18:44:01 12.7 C 9.46 g/m*3 12.7 C 0 km/h
1294 29-08-2010 18:56:02 12.3 C 9.23 g/m*3 12.3 C 0 km/h
1295 29-08-2010 19:08:02 12.2 C 9.28 g/m*3 12.2 C 0 km/h
1296 29-08-2010 19:20:01 12.2 C 9.39 g/m*3 12.2 C 0 km/h
1297 29-08-2010 19:32:02 12 C 9.38 g/m*3 12 C 0 km/h
1298 29-08-2010 19:44:02 11.8 C 9.26 g/m*3 11.8 C 0 km/h
1299 29-08-2010 19:56:02 11.8 C 9.16 g/m*3 11.8 C 0 km/h
1300 29-08-2010 20:08:02 11.8 C 8.95 g/m*3 11.8 C 0 km/h
Sensor: Nr:Datum:Temp:Abs-Feuchte:Windchill:Wind:
Aussen-T/F 1301 29-08-2010 20:20:03 11.8 C 8.95 g/m*3 11.8 C 0 km/h
1302 29-08-2010 20:32:02 11.7 C 8.89 g/m*3 11.7 C 0 km/h
1303 29-08-2010 20:44:02 11.7 C 8.99 g/m*3 11.7 C 0 km/h
1304 29-08-2010 20:56:01 11.9 C 9 g/m*3 11.9 C 0 km/h
1305 29-08-2010 21:08:01 12 C 8.95 g/m*3 12 C 0 km/h
1306 29-08-2010 21:20:02 12.2 C 8.96 g/m*3 12.2 C 0 km/h
1307 29-08-2010 21:32:01 12.3 C 9.01 g/m*3 12.3 C 0 km/h
1308 29-08-2010 21:44:01 12 C 8.95 g/m*3 12 C 0 km/h
1309 29-08-2010 21:56:02 9.7 C 7.74 g/m*3 9.7 C 0 km/h
1310 29-08-2010 22:09:03 9.3 C 7.82 g/m*3 9.3 C 0 km/h
1311 29-08-2010 22:21:03 9.2 C 7.95 g/m*3 9.2 C 0 km/h
1312 29-08-2010 22:33:03 9.2 C 8.04 g/m*3 9.2 C 0 km/h
1313 29-08-2010 22:45:03 9.2 C 8.13 g/m*3 9.2 C 0 km/h
1314 29-08-2010 22:57:03 9.1 C 8.16 g/m*3 9.1 C 0 km/h
1315 29-08-2010 23:09:03 9 C 8.11 g/m*3 9 C 0 km/h
1316 29-08-2010 23:21:03 9 C 8.11 g/m*3 9 C 0 km/h
1317 29-08-2010 23:33:03 9 C 8.11 g/m*3 9 C 0 km/h
1318 29-08-2010 23:45:03 9.3 C 8.27 g/m*3 9.3 C 0 km/h
1319 29-08-2010 23:57:03 9.3 C 8.18 g/m*3 9.3 C 0 km/h
1320 30-08-2010 00:09:03 9.1 C 7.99 g/m*3 9.1 C 0 km/h
1321 30-08-2010 00:21:03 9.1 C 7.99 g/m*3 9.1 C 0 km/h
1322 30-08-2010 00:33:03 9.1 C 7.99 g/m*3 9.1 C 0 km/h
1323 30-08-2010 00:45:03 9.2 C 7.95 g/m*3 9.2 C 0 km/h
1324 30-08-2010 00:57:03 9.5 C 8.01 g/m*3 9.5 C 0 km/h
1325 30-08-2010 01:09:03 9.7 C 7.93 g/m*3 9.7 C 0 km/h
Sensor: Nr:Datum:Temp:Abs-Feuchte:Windchill:Wind:
Aussen-T/F 1326 30-08-2010 01:21:03 9.8 C 7.89 g/m*3 9.8 C 0 km/h
1327 30-08-2010 01:33:03 10 C 7.8 g/m*3 10 C 0 km/h
1328 30-08-2010 01:45:04 10 C 7.8 g/m*3 10 C 0 km/h
1329 30-08-2010 01:57:04 10.2 C 7.8 g/m*3 10.2 C 0 km/h
1330 30-08-2010 02:09:04 10.1 C 7.75 g/m*3 10.1 C 0 km/h
1331 30-08-2010 02:21:04 10.2 C 7.8 g/m*3 10.2 C 0 km/h
1332 30-08-2010 02:33:04 10.5 C 7.86 g/m*3 10.5 C 0 km/h
1333 30-08-2010 02:45:04 10.8 C 7.81 g/m*3 10.8 C 0 km/h
1334 30-08-2010 02:57:04 11 C 7.61 g/m*3 11 C 0 km/h
1335 30-08-2010 03:09:04 11.1 C 7.45 g/m*3 11.1 C 0 km/h
1336 30-08-2010 03:21:04 11.2 C 7.5 g/m*3 11.2 C 0 km/h
1337 30-08-2010 03:33:04 11 C 7.61 g/m*3 11 C 0 km/h
1338 30-08-2010 03:45:04 10.5 C 7.76 g/m*3 10.5 C 0 km/h
1339 30-08-2010 03:57:04 10.3 C 7.95 g/m*3 10.3 C 0 km/h
1340 30-08-2010 04:09:04 10.3 C 8.04 g/m*3 10.3 C 0 km/h
1341 30-08-2010 04:21:04 10.3 C 8.04 g/m*3 10.3 C 0 km/h
1342 30-08-2010 04:33:04 10.3 C 8.04 g/m*3 10.3 C 0 km/h
1343 30-08-2010 04:45:04 10.2 C 7.99 g/m*3 10.2 C 0 km/h
1344 30-08-2010 04:57:04 10.2 C 7.8 g/m*3 10.2 C 0 km/h
1345 30-08-2010 05:09:04 9.8 C 7.7 g/m*3 9.8 C 0 km/h
1346 30-08-2010 05:21:04 9.6 C 7.79 g/m*3 9.6 C 0 km/h
1347 30-08-2010 05:33:04 9.3 C 7.91 g/m*3 9.3 C 0 km/h
1348 30-08-2010 05:45:05 9.6 C 8.24 g/m*3 9.6 C 0 km/h
1349 30-08-2010 05:57:05 9.8 C 8.44 g/m*3 9.8 C 0 km/h
1350 30-08-2010 06:09:05 9.9 C 8.5 g/m*3 9.9 C 0 km/h
Sensor: Nr:Datum:Temp:Abs-Feuchte:Windchill:Wind:
Aussen-T/F 1351 30-08-2010 06:21:05 10 C 8.46 g/m*3 10 C 0 km/h
1352 30-08-2010 06:33:05 10.1 C 8.51 g/m*3 10.1 C 0 km/h
1353 30-08-2010 06:45:05 10.1 C 8.42 g/m*3 10.1 C 0 km/h
1354 30-08-2010 06:57:05 10.2 C 8.47 g/m*3 10.2 C 0 km/h
1355 30-08-2010 07:09:05 10.1 C 8.42 g/m*3 10.1 C 0 km/h
1356 30-08-2010 07:21:05 9.9 C 8.4 g/m*3 9.9 C 0 km/h
1357 30-08-2010 07:33:05 9.8 C 8.35 g/m*3 9.8 C 0 km/h
1358 30-08-2010 07:45:05 9.9 C 8.4 g/m*3 9.9 C 0 km/h
1359 30-08-2010 07:57:05 10.1 C 8.42 g/m*3 10.1 C 0 km/h
1360 30-08-2010 08:09:05 10.1 C 8.42 g/m*3 10.1 C 0 km/h
1361 30-08-2010 08:21:02 10.7 C 8.74 g/m*3 10.7 C 0 km/h
1362 30-08-2010 08:33:02 11 C 8.71 g/m*3 11 C 0 km/h
1363 30-08-2010 08:45:01 11.2 C 8.72 g/m*3 11.2 C 0 km/h
1364 30-08-2010 08:57:01 11.1 C 8.56 g/m*3 11.1 C 0 km/h
1365 30-08-2010 09:09:01 11.2 C 8.62 g/m*3 11.2 C 0 km/h
1366 30-08-2010 09:21:01 10.8 C 8.4 g/m*3 10.8 C 0 km/h
1367 30-08-2010 09:33:01 10.8 C 8.6 g/m*3 10.8 C 0 km/h
1368 30-08-2010 09:45:01 11 C 8.71 g/m*3 11 C 0 km/h
1369 30-08-2010 09:57:01 11.1 C 8.86 g/m*3 11.1 C 0 km/h
1370 30-08-2010 10:09:01 11 C 8.61 g/m*3 11 C 0 km/h
1371 30-08-2010 10:21:02 11.5 C 8.88 g/m*3 11.5 C 0 km/h
1372 30-08-2010 10:33:01 11.9 C 8.9 g/m*3 11.9 C 0 km/h
1373 30-08-2010 10:45:02 12.4 C 8.96 g/m*3 12.4 C 0 km/h
1374 30-08-2010 10:57:02 12.5 C 8.8 g/m*3 12.5 C 0 km/h
1375 30-08-2010 11:09:03 12.6 C 8.96 g/m*3 12.6 C 0 km/h
Sensor: Nr:Datum:Temp:Abs-Feuchte:Windchill:Wind:
Aussen-T/F 1376 30-08-2010 11:21:02 12.7 C 8.13 g/m*3 12.7 C 0 km/h
1377 30-08-2010 11:33:02 13.1 C 8.1 g/m*3 13.1 C 0 km/h
1378 30-08-2010 11:45:02 13.1 C 8.1 g/m*3 13.1 C 0 km/h
1379 30-08-2010 11:57:02 13.5 C 8.3 g/m*3 13.5 C 0 km/h
1380 30-08-2010 12:09:01 13.8 C 8.22 g/m*3 13.8 C 0 km/h
1381 30-08-2010 12:21:02 13.4 C 7.9 g/m*3 13.4 C 0 km/h
1382 30-08-2010 12:33:01 13.8 C 8.22 g/m*3 13.8 C 0 km/h
1383 30-08-2010 12:45:02 14.5 C 6.96 g/m*3 14.5 C 0 km/h
1384 30-08-2010 12:57:02 14.6 C 6.76 g/m*3 14.6 C 0 km/h
1385 30-08-2010 13:09:01 15.5 C 6.74 g/m*3 15.5 C 0 km/h
1386 30-08-2010 13:21:01 16 C 6.81 g/m*3 16 C 0 km/h
1387 30-08-2010 13:33:01 16.3 C 6.52 g/m*3 16.3 C 0 km/h
1388 30-08-2010 13:45:02 16.2 C 6.76 g/m*3 16.2 C 0 km/h
1389 30-08-2010 13:57:02 16.2 C 7.03 g/m*3 16.2 C 0 km/h
1390 30-08-2010 14:09:01 15.7 C 7.36 g/m*3 15.7 C 0 km/h
1391 30-08-2010 14:21:02 15.6 C 7.85 g/m*3 15.6 C 0 km/h
1392 30-08-2010 14:33:02 16.6 C 7.91 g/m*3 16.6 C 0 km/h
1393 30-08-2010 14:45:02 16.7 C 7.67 g/m*3 16.7 C 0 km/h
1394 30-08-2010 14:57:02 16.8 C 7.86 g/m*3 16.8 C 0 km/h
1395 30-08-2010 15:09:03 17.3 C 8.25 g/m*3 17.3 C 0 km/h
1396 30-08-2010 15:21:02 17.7 C 7.85 g/m*3 17.7 C 0 km/h
1397 30-08-2010 15:33:02 17.3 C 7.66 g/m*3 17.3 C 0 km/h
1398 30-08-2010 15:45:01 17.7 C 7.54 g/m*3 17.7 C 0 km/h
1399 30-08-2010 15:57:01 17.4 C 7.71 g/m*3 17.4 C 0 km/h
1400 30-08-2010 16:09:02 16.9 C 7.77 g/m*3 16.9 C 0 km/h
Sensor: Nr:Datum:Temp:Abs-Feuchte:Windchill:Wind:
Aussen-T/F 1401 30-08-2010 16:21:01 15.8 C 8.88 g/m*3 15.8 C 0 km/h
1402 30-08-2010 16:33:02 14.8 C 9.37 g/m*3 14.8 C 0 km/h
1403 30-08-2010 16:45:02 15.5 C 9.78 g/m*3 15.5 C 0 km/h
1404 30-08-2010 16:57:02 16.3 C 9.85 g/m*3 16.3 C 0 km/h
1405 30-08-2010 17:09:02 15.8 C 9.42 g/m*3 15.8 C 0 km/h
1406 30-08-2010 17:21:01 15 C 9.49 g/m*3 15 C 0 km/h
1407 30-08-2010 17:33:02 14.8 C 9.5 g/m*3 14.8 C 0 km/h
1408 30-08-2010 17:45:01 14.7 C 8.81 g/m*3 14.7 C 0 km/h
1409 30-08-2010 17:57:01 14.9 C 8.92 g/m*3 14.9 C 0 km/h
1410 30-08-2010 18:09:02 14.7 C 8.69 g/m*3 14.7 C 0 km/h
1411 30-08-2010 18:21:01 14.6 C 8.76 g/m*3 14.6 C 0 km/h
1412 30-08-2010 18:33:02 14.3 C 8.6 g/m*3 14.3 C 0 km/h
1413 30-08-2010 18:45:01 14.1 C 8.74 g/m*3 14.1 C 0 km/h
1414 30-08-2010 18:57:01 13.9 C 8.99 g/m*3 13.9 C 0 km/h
1415 30-08-2010 19:09:02 13.9 C 8.99 g/m*3 13.9 C 0 km/h
1416 30-08-2010 19:21:02 13.9 C 9.23 g/m*3 13.9 C 0 km/h
1417 30-08-2010 19:33:01 14.1 C 9.22 g/m*3 14.1 C 0 km/h
1418 30-08-2010 19:45:02 14.2 C 8.91 g/m*3 14.2 C 0 km/h
1419 30-08-2010 19:57:02 14.1 C 8.5 g/m*3 14.1 C 0 km/h
1420 30-08-2010 20:09:01 13.9 C 8.51 g/m*3 13.9 C 0 km/h
1421 30-08-2010 20:21:02 13.9 C 8.51 g/m*3 13.9 C 0 km/h
1422 30-08-2010 20:33:01 14 C 8.56 g/m*3 14 C 0 km/h
1423 30-08-2010 20:45:02 13.8 C 8.94 g/m*3 13.8 C 0 km/h
1424 30-08-2010 20:57:02 13.2 C 9.07 g/m*3 13.2 C 0 km/h
1425 30-08-2010 21:09:02 13.1 C 9.36 g/m*3 13.1 C 0 km/h
Sensor: Nr:Datum:Temp:Abs-Feuchte:Windchill:Wind:
Aussen-T/F 1426 30-08-2010 21:21:01 12.9 C 9.58 g/m*3 12.9 C 0 km/h
1427 30-08-2010 21:33:01 12.7 C 9.68 g/m*3 12.7 C 0 km/h
1428 30-08-2010 21:45:02 12.4 C 9.51 g/m*3 12.4 C 0 km/h
1429 30-08-2010 21:57:02 12.5 C 9.68 g/m*3 12.5 C 0 km/h
1430 30-08-2010 22:09:02 12.8 C 9.97 g/m*3 12.8 C 0 km/h
1431 30-08-2010 22:21:02 12.8 C 9.97 g/m*3 12.8 C 0 km/h
1432 30-08-2010 22:33:02 12.7 C 9.91 g/m*3 12.7 C 0 km/h
1433 30-08-2010 22:45:02 12.7 C 9.91 g/m*3 12.7 C 0 km/h
1434 30-08-2010 22:57:02 12.6 C 9.85 g/m*3 12.6 C 0 km/h
1435 30-08-2010 23:10:03 12.4 C 9.72 g/m*3 12.4 C 0 km/h
1436 30-08-2010 23:22:03 12.4 C 9.72 g/m*3 12.4 C 0 km/h
1437 30-08-2010 23:34:03 12.4 C 9.83 g/m*3 12.4 C 0 km/h
1438 30-08-2010 23:46:03 12.2 C 9.6 g/m*3 12.2 C 0 km/h
1439 30-08-2010 23:58:03 12.1 C 9.54 g/m*3 12.1 C 0 km/h
1440 31-08-2010 00:10:03 12 C 9.48 g/m*3 12 C 0 km/h
1441 31-08-2010 00:22:03 12.1 C 9.54 g/m*3 12.1 C 0 km/h
1442 31-08-2010 00:34:03 12.2 C 9.6 g/m*3 12.2 C 0 km/h
1443 31-08-2010 00:46:03 12.4 C 9.72 g/m*3 12.4 C 0 km/h
1444 31-08-2010 00:58:03 12.4 C 9.72 g/m*3 12.4 C 0 km/h
1445 31-08-2010 01:10:03 12.5 C 9.68 g/m*3 12.5 C 0 km/h
1446 31-08-2010 01:22:03 12.6 C 9.62 g/m*3 12.6 C 0 km/h
1447 31-08-2010 01:34:03 12.5 C 9.46 g/m*3 12.5 C 0 km/h
1448 31-08-2010 01:46:03 12.4 C 9.4 g/m*3 12.4 C 0 km/h
1449 31-08-2010 01:58:03 12.1 C 9.12 g/m*3 12.1 C 0 km/h
1450 31-08-2010 02:10:03 12.2 C 9.28 g/m*3 12.2 C 0 km/h
Sensor: Nr:Datum:Temp:Abs-Feuchte:Windchill:Wind:
Aussen-T/F 1451 31-08-2010 02:22:03 12.4 C 9.4 g/m*3 12.4 C 0 km/h
1452 31-08-2010 02:34:03 12.4 C 9.29 g/m*3 12.4 C 0 km/h
1453 31-08-2010 02:46:03 12.4 C 9.29 g/m*3 12.4 C 0 km/h
1454 31-08-2010 02:58:04 12.4 C 9.29 g/m*3 12.4 C 0 km/h
1455 31-08-2010 03:10:04 12.3 C 9.12 g/m*3 12.3 C 0 km/h
1456 31-08-2010 03:22:04 12.3 C 9.12 g/m*3 12.3 C 0 km/h
1457 31-08-2010 03:34:04 12 C 8.95 g/m*3 12 C 0 km/h
1458 31-08-2010 03:46:04 11.9 C 9.11 g/m*3 11.9 C 0 km/h
1459 31-08-2010 03:58:04 12 C 9.06 g/m*3 12 C 0 km/h
1460 31-08-2010 04:10:04 11.5 C 8.88 g/m*3 11.5 C 0 km/h
1461 31-08-2010 04:22:04 11.3 C 8.87 g/m*3 11.3 C 0 km/h
1462 31-08-2010 04:34:04 11.4 C 9.03 g/m*3 11.4 C 0 km/h
1463 31-08-2010 04:46:04 11.6 C 9.15 g/m*3 11.6 C 0 km/h
1464 31-08-2010 04:58:04 11.8 C 9.37 g/m*3 11.8 C 0 km/h
1465 31-08-2010 05:10:04 11.8 C 9.26 g/m*3 11.8 C 0 km/h
1466 31-08-2010 05:22:04 11.5 C 9.09 g/m*3 11.5 C 0 km/h
1467 31-08-2010 05:34:04 11.2 C 8.92 g/m*3 11.2 C 0 km/h
1468 31-08-2010 05:46:04 11.1 C 8.86 g/m*3 11.1 C 0 km/h
1469 31-08-2010 05:58:04 11.3 C 9.08 g/m*3 11.3 C 0 km/h
1470 31-08-2010 06:10:04 11.4 C 9.14 g/m*3 11.4 C 0 km/h
1471 31-08-2010 06:22:04 11.5 C 9.19 g/m*3 11.5 C 0 km/h
1472 31-08-2010 06:34:04 11.7 C 9.31 g/m*3 11.7 C 0 km/h
1473 31-08-2010 06:46:02 11.9 C 9.32 g/m*3 11.9 C 0 km/h
1474 31-08-2010 06:58:02 12 C 9.17 g/m*3 12 C 0 km/h
1475 31-08-2010 07:10:02 12.1 C 9.12 g/m*3 12.1 C 0 km/h
Sensor: Nr:Datum:Temp:Abs-Feuchte:Windchill:Wind:
Aussen-T/F 1476 31-08-2010 07:22:03 12.1 C 9.12 g/m*3 12.1 C 0 km/h
1477 31-08-2010 07:34:02 12.2 C 9.06 g/m*3 12.2 C 0 km/h
1478 31-08-2010 07:46:02 12.2 C 9.06 g/m*3 12.2 C 0 km/h
1479 31-08-2010 07:58:02 12.4 C 9.07 g/m*3 12.4 C 0 km/h
1480 31-08-2010 08:10:02 12.5 C 9.02 g/m*3 12.5 C 0 km/h
1481 31-08-2010 08:22:02 12.5 C 9.02 g/m*3 12.5 C 0 km/h
1482 31-08-2010 08:34:02 12.6 C 9.07 g/m*3 12.6 C 0 km/h
1483 31-08-2010 08:46:02 12.7 C 9.13 g/m*3 12.7 C 0 km/h
1484 31-08-2010 08:58:02 12.9 C 9.13 g/m*3 12.9 C 0 km/h
1485 31-08-2010 09:10:02 13.2 C 9.07 g/m*3 13.2 C 0 km/h
1486 31-08-2010 09:22:02 13.4 C 8.95 g/m*3 13.4 C 0 km/h
1487 31-08-2010 09:34:02 13.6 C 8.94 g/m*3 13.6 C 0 km/h
1488 31-08-2010 09:46:02 13.7 C 8.76 g/m*3 13.7 C 0 km/h
1489 31-08-2010 09:58:02 14 C 8.56 g/m*3 14 C 0 km/h
1490 31-08-2010 10:10:02 14.1 C 8.5 g/m*3 14.1 C 0 km/h
1491 31-08-2010 10:22:03 14 C 8.2 g/m*3 14 C 0 km/h
1492 31-08-2010 10:34:02 14 C 8.32 g/m*3 14 C 0 km/h
1493 31-08-2010 10:46:03 14.2 C 8.3 g/m*3 14.2 C 0 km/h
1494 31-08-2010 10:58:03 14.4 C 8.41 g/m*3 14.4 C 0 km/h
1495 31-08-2010 11:10:02 14.8 C 8.23 g/m*3 14.8 C 0 km/h
1496 31-08-2010 11:22:02 15.1 C 8.13 g/m*3 15.1 C 0 km/h
1497 31-08-2010 11:34:02 15.6 C 8.11 g/m*3 15.6 C 0 km/h
1498 31-08-2010 11:46:02 16.1 C 8.09 g/m*3 16.1 C 0 km/h
1499 31-08-2010 11:58:02 16.4 C 7.82 g/m*3 16.4 C 0 km/h
1500 31-08-2010 12:10:02 16.8 C 7.86 g/m*3 16.8 C 0 km/h
Sensor: Nr:Datum:Temp:Abs-Feuchte:Windchill:Wind:
Aussen-T/F 1501 31-08-2010 12:22:02 16.3 C 7.91 g/m*3 16.3 C 0 km/h
1502 31-08-2010 12:34:01 16.9 C 8.2 g/m*3 16.9 C 0 km/h
1503 31-08-2010 12:46:02 16.7 C 7.82 g/m*3 16.7 C 0 km/h
1504 31-08-2010 12:58:03 17.7 C 7.85 g/m*3 17.7 C 0 km/h
1505 31-08-2010 13:10:01 17.3 C 7.37 g/m*3 17.3 C 0 km/h
1506 31-08-2010 13:22:01 17.5 C 6.86 g/m*3 17.5 C 0 km/h
1507 31-08-2010 13:34:02 18.2 C 6.84 g/m*3 18.2 C 0 km/h
1508 31-08-2010 13:46:02 18.3 C 7.04 g/m*3 18.3 C 0 km/h
1509 31-08-2010 13:58:02 18.5 C 6.8 g/m*3 18.5 C 0 km/h
1510 31-08-2010 14:10:02 19.2 C 6.76 g/m*3 19.2 C 0 km/h
1511 31-08-2010 14:22:02 19.9 C 6.7 g/m*3 19.9 C 0 km/h
1512 31-08-2010 14:34:02 20.3 C 6.51 g/m*3 20.3 C 0 km/h
1513 31-08-2010 14:46:02 20.8 C 6.34 g/m*3 20.8 C 0 km/h
1514 31-08-2010 14:58:02 20.6 C 5.91 g/m*3 20.6 C 0 km/h
1515 31-08-2010 15:10:02 20.4 C 6.19 g/m*3 20.4 C 0 km/h
1516 31-08-2010 15:22:02 20.1 C 6.26 g/m*3 20.1 C 0 km/h
1517 31-08-2010 15:34:02 21.4 C 5.62 g/m*3 21.4 C 0 km/h
1518 31-08-2010 15:46:02 22 C 5.43 g/m*3 22 C 0 km/h
1519 31-08-2010 15:58:02 22.1 C 5.66 g/m*3 22.1 C 0 km/h
1520 31-08-2010 16:10:02 21.4 C 5.81 g/m*3 21.4 C 0 km/h
1521 31-08-2010 16:22:02 21.1 C 5.9 g/m*3 21.1 C 0 km/h
1522 31-08-2010 16:34:02 22.6 C 5.42 g/m*3 22.6 C 0 km/h
1523 31-08-2010 16:46:02 21.3 C 5.59 g/m*3 21.3 C 0 km/h
1524 31-08-2010 16:58:02 20.9 C 5.46 g/m*3 20.9 C 0 km/h
1525 31-08-2010 17:10:02 22.8 C 5.08 g/m*3 22.8 C 0 km/h
Sensor: Nr:Datum:Temp:Abs-Feuchte:Windchill:Wind:
Aussen-T/F 1526 31-08-2010 17:22:03 20.9 C 5.83 g/m*3 20.9 C 0 km/h
1527 31-08-2010 17:34:02 21.8 C 5.56 g/m*3 21.8 C 0 km/h
1528 31-08-2010 17:46:02 21.6 C 5.69 g/m*3 21.6 C 0 km/h
1529 31-08-2010 17:58:02 22 C 5.63 g/m*3 22 C 0 km/h
1530 31-08-2010 18:10:02 22.7 C 5.66 g/m*3 22.7 C 0 km/h
1531 31-08-2010 18:22:02 22.3 C 5.33 g/m*3 22.3 C 0 km/h
1532 31-08-2010 18:34:02 22.1 C 5.47 g/m*3 22.1 C 0 km/h
1533 31-08-2010 18:46:02 22.1 C 5.86 g/m*3 22.1 C 0 km/h
1534 31-08-2010 18:58:02 22.1 C 6.05 g/m*3 22.1 C 0 km/h
1535 31-08-2010 19:10:01 21.7 C 6.1 g/m*3 21.7 C 0 km/h
1536 31-08-2010 19:22:02 20.5 C 5.69 g/m*3 20.5 C 0 km/h
1537 31-08-2010 19:34:02 20.4 C 6.55 g/m*3 20.4 C 0 km/h
1538 31-08-2010 19:46:02 20 C 6.91 g/m*3 20 C 0 km/h
1539 31-08-2010 19:58:03 19 C 7.33 g/m*3 19 C 0 km/h
1540 31-08-2010 20:10:01 17.9 C 7.18 g/m*3 17.9 C 0 km/h
1541 31-08-2010 20:22:01 16.9 C 7.19 g/m*3 16.9 C 0 km/h
1542 31-08-2010 20:34:02 16.2 C 7.17 g/m*3 16.2 C 0 km/h
1543 31-08-2010 20:46:02 15.7 C 7.09 g/m*3 15.7 C 0 km/h
1544 31-08-2010 20:58:02 15.2 C 7.14 g/m*3 15.2 C 0 km/h
1545 31-08-2010 21:10:02 14.9 C 7.39 g/m*3 14.9 C 0 km/h
1546 31-08-2010 21:22:02 14.7 C 7.43 g/m*3 14.7 C 0 km/h
1547 31-08-2010 21:34:02 14.5 C 7.59 g/m*3 14.5 C 0 km/h
1548 31-08-2010 21:47:09 14.2 C 7.69 g/m*3 14.2 C 0 km/h
1549 31-08-2010 21:59:09 13.9 C 7.91 g/m*3 13.9 C 0 km/h
1550 31-08-2010 22:11:09 13.8 C 8.22 g/m*3 13.8 C 0 km/h
Sensor: Nr:Datum:Temp:Abs-Feuchte:Windchill:Wind:
Aussen-T/F 1551 31-08-2010 22:23:09 13.5 C 8.07 g/m*3 13.5 C 0 km/h
1552 31-08-2010 22:35:09 13.2 C 8.04 g/m*3 13.2 C 0 km/h
1553 31-08-2010 22:47:09 13 C 8.05 g/m*3 13 C 0 km/h
1554 31-08-2010 22:59:09 12.7 C 8.13 g/m*3 12.7 C 0 km/h
1555 31-08-2010 23:11:09 12.5 C 8.14 g/m*3 12.5 C 0 km/h
1556 31-08-2010 23:23:09 12.4 C 8.19 g/m*3 12.4 C 0 km/h
1557 31-08-2010 23:35:09 12.4 C 8.09 g/m*3 12.4 C 0 km/h
1558 31-08-2010 23:47:09 12.2 C 7.99 g/m*3 12.2 C 0 km/h
1559 31-08-2010 23:59:09 12.1 C 8.04 g/m*3 12.1 C 0 km/h
1560 01-09-2010 00:11:09 12 C 8.1 g/m*3 12 C 0 km/h
1561 01-09-2010 00:23:09 11.8 C 8.1 g/m*3 11.8 C 0 km/h
1562 01-09-2010 00:35:09 11.6 C 8.11 g/m*3 11.6 C 0 km/h
1563 01-09-2010 00:47:10 11.3 C 8.06 g/m*3 11.3 C 0 km/h
1564 01-09-2010 00:59:10 11.2 C 8.01 g/m*3 11.2 C 0 km/h
1565 01-09-2010 01:11:10 11.2 C 8.11 g/m*3 11.2 C 0 km/h
1566 01-09-2010 01:23:10 11.1 C 8.06 g/m*3 11.1 C 0 km/h
1567 01-09-2010 01:35:10 11 C 8.11 g/m*3 11 C 0 km/h
1568 01-09-2010 01:47:10 10.9 C 8.16 g/m*3 10.9 C 0 km/h
1569 01-09-2010 01:59:10 10.7 C 8.05 g/m*3 10.7 C 0 km/h
1570 01-09-2010 02:11:10 10.6 C 8 g/m*3 10.6 C 0 km/h
1571 01-09-2010 02:23:10 10.5 C 7.95 g/m*3 10.5 C 0 km/h
1572 01-09-2010 02:35:10 10.4 C 8 g/m*3 10.4 C 0 km/h
1573 01-09-2010 02:47:10 10.2 C 7.9 g/m*3 10.2 C 0 km/h
1574 01-09-2010 02:59:10 10.1 C 7.94 g/m*3 10.1 C 0 km/h
1575 01-09-2010 03:11:10 10 C 7.89 g/m*3 10 C 0 km/h
Sensor: Nr:Datum:Temp:Abs-Feuchte:Windchill:Wind:
Aussen-T/F 1576 01-09-2010 03:23:10 9.9 C 8.03 g/m*3 9.9 C 0 km/h
1577 01-09-2010 03:35:10 9.8 C 8.07 g/m*3 9.8 C 0 km/h
1578 01-09-2010 03:47:10 9.6 C 7.97 g/m*3 9.6 C 0 km/h
1579 01-09-2010 03:59:10 9.4 C 7.87 g/m*3 9.4 C 0 km/h
1580 01-09-2010 04:11:10 9.3 C 7.91 g/m*3 9.3 C 0 km/h
1581 01-09-2010 04:23:10 9.2 C 7.86 g/m*3 9.2 C 0 km/h
1582 01-09-2010 04:35:10 9.1 C 7.81 g/m*3 9.1 C 0 km/h
1583 01-09-2010 04:47:10 9.1 C 7.9 g/m*3 9.1 C 0 km/h
1584 01-09-2010 04:59:11 9 C 7.85 g/m*3 9 C 0 km/h
1585 01-09-2010 05:11:11 8.9 C 7.88 g/m*3 8.9 C 0 km/h
1586 01-09-2010 05:23:11 8.9 C 7.97 g/m*3 8.9 C 0 km/h
1587 01-09-2010 05:35:11 8.9 C 7.97 g/m*3 8.9 C 0 km/h
1588 01-09-2010 05:47:11 8.9 C 7.97 g/m*3 8.9 C 0 km/h
1589 01-09-2010 05:59:11 9 C 7.93 g/m*3 9 C 0 km/h
1590 01-09-2010 06:11:11 9 C 8.02 g/m*3 9 C 0 km/h
1591 01-09-2010 06:23:11 8.9 C 8.06 g/m*3 8.9 C 0 km/h
1592 01-09-2010 06:35:11 8.9 C 8.06 g/m*3 8.9 C 0 km/h
1593 01-09-2010 06:47:11 9 C 8.02 g/m*3 9 C 0 km/h
1594 01-09-2010 06:59:11 8.9 C 8.06 g/m*3 8.9 C 0 km/h
1595 01-09-2010 07:11:03 9.1 C 8.07 g/m*3 9.1 C 0 km/h
1596 01-09-2010 07:23:03 9.1 C 7.99 g/m*3 9.1 C 0 km/h
1597 01-09-2010 07:35:02 9 C 7.93 g/m*3 9 C 0 km/h
1598 01-09-2010 07:47:01 8.9 C 7.97 g/m*3 8.9 C 0 km/h
1599 01-09-2010 07:59:01 9 C 7.93 g/m*3 9 C 0 km/h
1600 01-09-2010 08:11:02 9 C 7.93 g/m*3 9 C 0 km/h
Sensor: Nr:Datum:Temp:Abs-Feuchte:Windchill:Wind:
Aussen-T/F 1601 01-09-2010 08:23:02 9.1 C 7.99 g/m*3 9.1 C 0 km/h
1602 01-09-2010 08:35:01 9.2 C 8.04 g/m*3 9.2 C 0 km/h
1603 01-09-2010 08:47:02 9.3 C 8.09 g/m*3 9.3 C 0 km/h
1604 01-09-2010 08:59:02 9.7 C 8.2 g/m*3 9.7 C 0 km/h
1605 01-09-2010 09:11:02 9.8 C 8.16 g/m*3 9.8 C 0 km/h
1606 01-09-2010 09:23:02 10 C 8.08 g/m*3 10 C 0 km/h
1607 01-09-2010 09:35:02 10.2 C 8.09 g/m*3 10.2 C 0 km/h
1608 01-09-2010 09:47:02 10.5 C 8.15 g/m*3 10.5 C 0 km/h
1609 01-09-2010 09:59:02 10.6 C 8.2 g/m*3 10.6 C 0 km/h
1610 01-09-2010 10:11:02 11.2 C 8.41 g/m*3 11.2 C 0 km/h
1611 01-09-2010 10:23:01 11.7 C 8.58 g/m*3 11.7 C 0 km/h
1612 01-09-2010 10:35:02 12.2 C 8.52 g/m*3 12.2 C 0 km/h
1613 01-09-2010 10:47:01 12.4 C 8.52 g/m*3 12.4 C 0 km/h
1614 01-09-2010 10:59:01 13 C 8.73 g/m*3 13 C 0 km/h
1615 01-09-2010 11:11:02 13.4 C 8.72 g/m*3 13.4 C 0 km/h
1616 01-09-2010 11:23:02 13.7 C 8.64 g/m*3 13.7 C 0 km/h
1617 01-09-2010 11:35:02 14.1 C 8.74 g/m*3 14.1 C 0 km/h
1618 01-09-2010 11:47:02 14.7 C 8.94 g/m*3 14.7 C 0 km/h
1619 01-09-2010 11:59:02 15.4 C 8.8 g/m*3 15.4 C 0 km/h
1620 01-09-2010 12:11:02 16 C 8.72 g/m*3 16 C 0 km/h
1621 01-09-2010 12:23:02 16.9 C 8.63 g/m*3 16.9 C 0 km/h
1622 01-09-2010 12:35:01 17.2 C 8.2 g/m*3 17.2 C 0 km/h
1623 01-09-2010 12:47:02 17.8 C 8.5 g/m*3 17.8 C 0 km/h
1624 01-09-2010 12:59:02 18.3 C 8.6 g/m*3 18.3 C 0 km/h
1625 01-09-2010 13:11:01 18.7 C 8.33 g/m*3 18.7 C 0 km/h
Sensor: Nr:Datum:Temp:Abs-Feuchte:Windchill:Wind:
Aussen-T/F 1626 01-09-2010 13:23:01 19.2 C 8.08 g/m*3 19.2 C 0 km/h
1627 01-09-2010 13:35:02 19.7 C 7.81 g/m*3 19.7 C 0 km/h
1628 01-09-2010 13:47:02 19.9 C 7.9 g/m*3 19.9 C 0 km/h
1629 01-09-2010 13:59:02 20.1 C 7.65 g/m*3 20.1 C 0 km/h
1630 01-09-2010 14:11:02 20.9 C 7.47 g/m*3 20.9 C 0 km/h
1631 01-09-2010 14:23:02 20.1 C 6.95 g/m*3 20.1 C 0 km/h
1632 01-09-2010 14:35:02 21 C 7.33 g/m*3 21 C 0 km/h
1633 01-09-2010 14:47:02 21.7 C 6.87 g/m*3 21.7 C 0 km/h
1634 01-09-2010 14:59:02 22.2 C 6.48 g/m*3 22.2 C 0 km/h
1635 01-09-2010 15:11:03 22.6 C 6.43 g/m*3 22.6 C 0 km/h
1636 01-09-2010 15:23:02 23.2 C 6.03 g/m*3 23.2 C 0 km/h
1637 01-09-2010 15:35:02 23.5 C 5.71 g/m*3 23.5 C 0 km/h
1638 01-09-2010 15:47:01 24.1 C 5.91 g/m*3 24.1 C 0 km/h
1639 01-09-2010 15:59:01 24.6 C 5.85 g/m*3 24.6 C 0 km/h
1640 01-09-2010 16:11:02 23.5 C 5.5 g/m*3 23.5 C 0 km/h
1641 01-09-2010 16:23:01 24 C 5.87 g/m*3 24 C 0 km/h
1642 01-09-2010 16:35:01 23.8 C 6.02 g/m*3 23.8 C 0 km/h
1643 01-09-2010 16:47:01 23.8 C 6.45 g/m*3 23.8 C 0 km/h
1644 01-09-2010 16:59:01 23.9 C 6.27 g/m*3 23.9 C 0 km/h
1645 01-09-2010 17:11:02 23.1 C 6.2 g/m*3 23.1 C 0 km/h
1646 01-09-2010 17:23:01 22.7 C 6.47 g/m*3 22.7 C 0 km/h
1647 01-09-2010 17:35:01 22.1 C 6.05 g/m*3 22.1 C 0 km/h
1648 01-09-2010 17:47:01 21.3 C 6.52 g/m*3 21.3 C 0 km/h
1649 01-09-2010 17:59:01 21 C 6.59 g/m*3 21 C 0 km/h
1650 01-09-2010 18:11:01 20.7 C 7.02 g/m*3 20.7 C 0 km/h
Sensor: Nr:Datum:Temp:Abs-Feuchte:Windchill:Wind:
Aussen-T/F 1651 01-09-2010 18:23:02 20.3 C 6.86 g/m*3 20.3 C 0 km/h
1652 01-09-2010 18:35:01 21.6 C 7.02 g/m*3 21.6 C 0 km/h
1653 01-09-2010 18:47:02 22.1 C 6.83 g/m*3 22.1 C 0 km/h
1654 01-09-2010 18:59:02 20.8 C 7.06 g/m*3 20.8 C 0 km/h
1655 01-09-2010 19:11:01 20.7 C 7.38 g/m*3 20.7 C 0 km/h
1656 01-09-2010 19:23:02 20.3 C 7.56 g/m*3 20.3 C 0 km/h
1657 01-09-2010 19:35:01 19.6 C 7.77 g/m*3 19.6 C 0 km/h
1658 01-09-2010 19:47:02 19.1 C 8.03 g/m*3 19.1 C 0 km/h
1659 01-09-2010 19:59:02 18.4 C 8.49 g/m*3 18.4 C 0 km/h
1660 01-09-2010 20:11:02 18 C 8.45 g/m*3 18 C 0 km/h
1661 01-09-2010 20:23:02 17.6 C 8.7 g/m*3 17.6 C 0 km/h
1662 01-09-2010 20:35:03 17.3 C 8.84 g/m*3 17.3 C 0 km/h
1663 01-09-2010 20:47:02 17.1 C 8.73 g/m*3 17.1 C 0 km/h
1664 01-09-2010 20:59:02 16.8 C 8.86 g/m*3 16.8 C 0 km/h
1665 01-09-2010 21:11:01 16.6 C 8.9 g/m*3 16.6 C 0 km/h
1666 01-09-2010 21:23:02 16.5 C 8.85 g/m*3 16.5 C 0 km/h
1667 01-09-2010 21:35:02 16.3 C 8.88 g/m*3 16.3 C 0 km/h
1668 01-09-2010 21:47:02 16 C 8.72 g/m*3 16 C 0 km/h
1669 01-09-2010 21:59:02 15.8 C 8.88 g/m*3 15.8 C 0 km/h
1670 01-09-2010 22:12:03 15.8 C 8.88 g/m*3 15.8 C 0 km/h
1671 01-09-2010 22:24:03 15.6 C 8.78 g/m*3 15.6 C 0 km/h
1672 01-09-2010 22:36:03 15.5 C 8.86 g/m*3 15.5 C 0 km/h
1673 01-09-2010 22:48:03 15.3 C 8.75 g/m*3 15.3 C 0 km/h
1674 01-09-2010 23:00:03 15 C 8.59 g/m*3 15 C 0 km/h
1675 01-09-2010 23:12:03 14.6 C 8.38 g/m*3 14.6 C 0 km/h
Sensor: Nr:Datum:Temp:Abs-Feuchte:Windchill:Wind:
Aussen-T/F 1676 01-09-2010 23:24:03 14.1 C 8.13 g/m*3 14.1 C 0 km/h
1677 01-09-2010 23:36:03 13.6 C 8.12 g/m*3 13.6 C 0 km/h
1678 01-09-2010 23:48:03 13.5 C 8.19 g/m*3 13.5 C 0 km/h
1679 02-09-2010 00:00:04 13.3 C 8.2 g/m*3 13.3 C 0 km/h
1680 02-09-2010 00:12:04 13.1 C 8.1 g/m*3 13.1 C 0 km/h
1681 02-09-2010 00:24:04 13 C 8.17 g/m*3 13 C 0 km/h
1682 02-09-2010 00:36:04 12.9 C 8.34 g/m*3 12.9 C 0 km/h
1683 02-09-2010 00:48:04 12.8 C 8.29 g/m*3 12.8 C 0 km/h
1684 02-09-2010 01:00:04 12.6 C 8.3 g/m*3 12.6 C 0 km/h
1685 02-09-2010 01:12:04 12.5 C 8.36 g/m*3 12.5 C 0 km/h
1686 02-09-2010 01:24:04 12.3 C 8.36 g/m*3 12.3 C 0 km/h
1687 02-09-2010 01:36:04 12.1 C 8.26 g/m*3 12.1 C 0 km/h
1688 02-09-2010 01:48:04 12.1 C 8.58 g/m*3 12.1 C 0 km/h
1689 02-09-2010 02:00:04 11.9 C 8.58 g/m*3 11.9 C 0 km/h
1690 02-09-2010 02:12:04 11.7 C 8.58 g/m*3 11.7 C 0 km/h
1691 02-09-2010 02:24:04 11.6 C 8.63 g/m*3 11.6 C 0 km/h
1692 02-09-2010 02:36:04 11.5 C 8.57 g/m*3 11.5 C 0 km/h
1693 02-09-2010 02:48:04 11.3 C 8.47 g/m*3 11.3 C 0 km/h
1694 02-09-2010 03:00:04 11.2 C 8.41 g/m*3 11.2 C 0 km/h
1695 02-09-2010 03:12:04 11.1 C 8.36 g/m*3 11.1 C 0 km/h
1696 02-09-2010 03:24:04 11 C 8.31 g/m*3 11 C 0 km/h
1697 02-09-2010 03:36:04 10.9 C 8.26 g/m*3 10.9 C 0 km/h
1698 02-09-2010 03:48:04 10.8 C 8.2 g/m*3 10.8 C 0 km/h
1699 02-09-2010 04:00:04 10.7 C 8.25 g/m*3 10.7 C 0 km/h
1700 02-09-2010 04:12:05 10.5 C 8.24 g/m*3 10.5 C 0 km/h
Sensor: Nr:Datum:Temp:Abs-Feuchte:Windchill:Wind:
Aussen-T/F 1701 02-09-2010 04:24:05 10.4 C 8.29 g/m*3 10.4 C 0 km/h
1702 02-09-2010 04:36:05 10.3 C 8.33 g/m*3 10.3 C 0 km/h
1703 02-09-2010 04:48:05 10.3 C 8.33 g/m*3 10.3 C 0 km/h
1704 02-09-2010 05:00:05 10.3 C 8.43 g/m*3 10.3 C 0 km/h
1705 02-09-2010 05:12:05 10.3 C 8.43 g/m*3 10.3 C 0 km/h
1706 02-09-2010 05:24:05 10.3 C 8.52 g/m*3 10.3 C 0 km/h
1707 02-09-2010 05:36:05 10.3 C 8.52 g/m*3 10.3 C 0 km/h
1708 02-09-2010 05:48:05 10.4 C 8.58 g/m*3 10.4 C 0 km/h
1709 02-09-2010 06:00:05 10.3 C 8.52 g/m*3 10.3 C 0 km/h
1710 02-09-2010 06:12:05 10.3 C 8.52 g/m*3 10.3 C 0 km/h
1711 02-09-2010 06:24:05 10.3 C 8.62 g/m*3 10.3 C 0 km/h
1712 02-09-2010 06:36:03 10.4 C 8.67 g/m*3 10.4 C 0 km/h
1713 02-09-2010 06:48:01 10.4 C 8.67 g/m*3 10.4 C 0 km/h
1714 02-09-2010 07:00:01 10.4 C 8.67 g/m*3 10.4 C 0 km/h
1715 02-09-2010 07:12:02 10.5 C 8.73 g/m*3 10.5 C 0 km/h
1716 02-09-2010 07:24:01 10.7 C 8.84 g/m*3 10.7 C 0 km/h
1717 02-09-2010 07:36:01 10.9 C 8.95 g/m*3 10.9 C 0 km/h
1718 02-09-2010 07:48:01 10.9 C 8.85 g/m*3 10.9 C 0 km/h
1719 02-09-2010 08:00:01 11 C 8.81 g/m*3 11 C 0 km/h
1720 02-09-2010 08:12:02 11.3 C 8.98 g/m*3 11.3 C 0 km/h
1721 02-09-2010 08:24:02 11.3 C 8.98 g/m*3 11.3 C 0 km/h
1722 02-09-2010 08:36:01 11.4 C 8.93 g/m*3 11.4 C 0 km/h
1723 02-09-2010 08:48:02 11.7 C 9.1 g/m*3 11.7 C 0 km/h
1724 02-09-2010 09:00:03 11.7 C 8.99 g/m*3 11.7 C 0 km/h
1725 02-09-2010 09:12:02 12 C 8.95 g/m*3 12 C 0 km/h
Sensor: Nr:Datum:Temp:Abs-Feuchte:Windchill:Wind:
Aussen-T/F 1726 02-09-2010 09:24:02 12.5 C 9.13 g/m*3 12.5 C 0 km/h
1727 02-09-2010 09:36:02 12.8 C 9.07 g/m*3 12.8 C 0 km/h
1728 02-09-2010 09:48:01 13 C 8.73 g/m*3 13 C 0 km/h
1729 02-09-2010 10:00:01 13.5 C 8.77 g/m*3 13.5 C 0 km/h
1730 02-09-2010 10:12:02 13.9 C 8.75 g/m*3 13.9 C 0 km/h
1731 02-09-2010 10:24:01 14.1 C 8.62 g/m*3 14.1 C 0 km/h
1732 02-09-2010 10:36:01 14.3 C 8.6 g/m*3 14.3 C 0 km/h
1733 02-09-2010 10:48:02 14.3 C 8.48 g/m*3 14.3 C 0 km/h
1734 02-09-2010 11:00:02 14.4 C 8.65 g/m*3 14.4 C 0 km/h
1735 02-09-2010 11:12:02 14.8 C 9.12 g/m*3 14.8 C 0 km/h
1736 02-09-2010 11:24:01 15.3 C 9.14 g/m*3 15.3 C 0 km/h
1737 02-09-2010 11:36:02 16 C 8.99 g/m*3 16 C 0 km/h
1738 02-09-2010 11:48:01 16.8 C 9.15 g/m*3 16.8 C 0 km/h
1739 02-09-2010 12:00:01 17.5 C 9.24 g/m*3 17.5 C 0 km/h
1740 02-09-2010 12:12:02 18.1 C 9.12 g/m*3 18.1 C 0 km/h
1741 02-09-2010 12:24:02 18.5 C 8.86 g/m*3 18.5 C 0 km/h
1742 02-09-2010 12:36:01 19.2 C 8.41 g/m*3 19.2 C 0 km/h
1743 02-09-2010 12:48:02 20 C 7.95 g/m*3 20 C 0 km/h
1744 02-09-2010 13:00:02 20.2 C 7.34 g/m*3 20.2 C 0 km/h
1745 02-09-2010 13:12:01 20.1 C 7.3 g/m*3 20.1 C 0 km/h
1746 02-09-2010 13:24:01 21 C 7.51 g/m*3 21 C 0 km/h
1747 02-09-2010 13:36:02 21.6 C 7.21 g/m*3 21.6 C 0 km/h
1748 02-09-2010 13:48:02 21.3 C 7.46 g/m*3 21.3 C 0 km/h
1749 02-09-2010 14:00:02 21.7 C 7.63 g/m*3 21.7 C 0 km/h
1750 02-09-2010 14:12:01 22 C 7.38 g/m*3 22 C 0 km/h
Sensor: Nr:Datum:Temp:Abs-Feuchte:Windchill:Wind:
Aussen-T/F 1751 02-09-2010 14:24:02 21.7 C 7.06 g/m*3 21.7 C 0 km/h
1752 02-09-2010 14:36:02 22.9 C 6.95 g/m*3 22.9 C 0 km/h
1753 02-09-2010 14:48:02 22.7 C 7.07 g/m*3 22.7 C 0 km/h
1754 02-09-2010 15:00:02 22.6 C 7.03 g/m*3 22.6 C 0 km/h
1755 02-09-2010 15:12:02 21.8 C 6.72 g/m*3 21.8 C 0 km/h
1756 02-09-2010 15:24:02 20.3 C 6.68 g/m*3 20.3 C 0 km/h
1757 02-09-2010 15:36:02 20.9 C 7.1 g/m*3 20.9 C 0 km/h
1758 02-09-2010 15:48:02 21.5 C 6.98 g/m*3 21.5 C 0 km/h
1759 02-09-2010 16:00:02 20.9 C 6.74 g/m*3 20.9 C 0 km/h
1760 02-09-2010 16:12:02 20.2 C 6.82 g/m*3 20.2 C 0 km/h
1761 02-09-2010 16:24:02 20.3 C 7.03 g/m*3 20.3 C 0 km/h
1762 02-09-2010 16:36:02 20.8 C 7.24 g/m*3 20.8 C 0 km/h
1763 02-09-2010 16:48:02 20.8 C 6.7 g/m*3 20.8 C 0 km/h
1764 02-09-2010 17:00:02 20 C 6.91 g/m*3 20 C 0 km/h
1765 02-09-2010 17:12:02 19.3 C 7.13 g/m*3 19.3 C 0 km/h
1766 02-09-2010 17:24:02 19.6 C 7.26 g/m*3 19.6 C 0 km/h
1767 02-09-2010 17:36:02 19.6 C 7.26 g/m*3 19.6 C 0 km/h
1768 02-09-2010 17:48:02 19.2 C 7.09 g/m*3 19.2 C 0 km/h
1769 02-09-2010 18:00:02 18.9 C 7.13 g/m*3 18.9 C 0 km/h
1770 02-09-2010 18:12:01 18.7 C 7.36 g/m*3 18.7 C 0 km/h
1771 02-09-2010 18:24:02 18.7 C 7.52 g/m*3 18.7 C 0 km/h
1772 02-09-2010 18:36:02 18.6 C 7.48 g/m*3 18.6 C 0 km/h
1773 02-09-2010 18:48:01 18.4 C 7.55 g/m*3 18.4 C 0 km/h
1774 02-09-2010 19:00:01 18.5 C 8.07 g/m*3 18.5 C 0 km/h
1775 02-09-2010 19:12:02 18.3 C 8.6 g/m*3 18.3 C 0 km/h
Sensor: Nr:Datum:Temp:Abs-Feuchte:Windchill:Wind:
Aussen-T/F 1776 02-09-2010 19:24:01 17.8 C 8.95 g/m*3 17.8 C 0 km/h
1777 02-09-2010 19:36:02 17.2 C 9.23 g/m*3 17.2 C 0 km/h
1778 02-09-2010 19:48:02 16.4 C 9.63 g/m*3 16.4 C 0 km/h
1779 02-09-2010 20:00:02 15.8 C 9.96 g/m*3 15.8 C 0 km/h
1780 02-09-2010 20:12:02 15.5 C 9.91 g/m*3 15.5 C 0 km/h
1781 02-09-2010 20:24:02 15 C 9.87 g/m*3 15 C 0 km/h
1782 02-09-2010 20:36:02 14.7 C 10.07 g/m*3 14.7 C 0 km/h
1783 02-09-2010 20:48:01 14.7 C 10.2 g/m*3 14.7 C 0 km/h
1784 02-09-2010 21:00:01 14.5 C 10.07 g/m*3 14.5 C 0 km/h
1785 02-09-2010 21:12:02 14.4 C 9.89 g/m*3 14.4 C 0 km/h
1786 02-09-2010 21:24:01 14.5 C 9.95 g/m*3 14.5 C 0 km/h
1787 02-09-2010 21:36:02 14.4 C 9.77 g/m*3 14.4 C 0 km/h
1788 02-09-2010 21:49:02 14.3 C 9.58 g/m*3 14.3 C 0 km/h
1789 02-09-2010 22:01:02 14.4 C 9.52 g/m*3 14.4 C 0 km/h
1790 02-09-2010 22:13:02 14 C 9.29 g/m*3 14 C 0 km/h
1791 02-09-2010 22:25:02 13.7 C 9.24 g/m*3 13.7 C 0 km/h
1792 02-09-2010 22:37:02 13.6 C 9.3 g/m*3 13.6 C 0 km/h
1793 02-09-2010 22:49:03 13.5 C 9.36 g/m*3 13.5 C 0 km/h
1794 02-09-2010 23:01:03 13 C 9.07 g/m*3 13 C 0 km/h
1795 02-09-2010 23:13:03 13.2 C 9.3 g/m*3 13.2 C 0 km/h
1796 02-09-2010 23:25:03 13.1 C 9.24 g/m*3 13.1 C 0 km/h
1797 02-09-2010 23:37:03 12.9 C 9.24 g/m*3 12.9 C 0 km/h
1798 02-09-2010 23:49:03 12.7 C 9.13 g/m*3 12.7 C 0 km/h
1799 03-09-2010 00:01:03 12.7 C 9.13 g/m*3 12.7 C 0 km/h
1800 03-09-2010 00:13:03 12.5 C 9.13 g/m*3 12.5 C 0 km/h
Sensor: Nr:Datum:Temp:Abs-Feuchte:Windchill:Wind:
Aussen-T/F 1801 03-09-2010 00:25:03 12.4 C 9.07 g/m*3 12.4 C 0 km/h
1802 03-09-2010 00:37:03 12.3 C 9.12 g/m*3 12.3 C 0 km/h
1803 03-09-2010 00:49:03 12.2 C 9.06 g/m*3 12.2 C 0 km/h
1804 03-09-2010 01:01:03 12.1 C 9.01 g/m*3 12.1 C 0 km/h
1805 03-09-2010 01:13:03 11.9 C 8.9 g/m*3 11.9 C 0 km/h
1806 03-09-2010 01:25:03 11.9 C 9 g/m*3 11.9 C 0 km/h
1807 03-09-2010 01:37:03 11.7 C 8.89 g/m*3 11.7 C 0 km/h
1808 03-09-2010 01:49:03 11.5 C 8.78 g/m*3 11.5 C 0 km/h
1809 03-09-2010 02:01:03 11.5 C 8.88 g/m*3 11.5 C 0 km/h
1810 03-09-2010 02:13:03 11.4 C 8.83 g/m*3 11.4 C 0 km/h
1811 03-09-2010 02:25:03 11.1 C 8.66 g/m*3 11.1 C 0 km/h
1812 03-09-2010 02:37:03 11.1 C 8.66 g/m*3 11.1 C 0 km/h
1813 03-09-2010 02:49:03 11.1 C 8.76 g/m*3 11.1 C 0 km/h
1814 03-09-2010 03:01:04 11 C 8.71 g/m*3 11 C 0 km/h
1815 03-09-2010 03:13:04 10.8 C 8.7 g/m*3 10.8 C 0 km/h
1816 03-09-2010 03:25:04 10.7 C 8.64 g/m*3 10.7 C 0 km/h
1817 03-09-2010 03:37:04 10.6 C 8.59 g/m*3 10.6 C 0 km/h
1818 03-09-2010 03:49:04 10.5 C 8.53 g/m*3 10.5 C 0 km/h
1819 03-09-2010 04:01:04 10.4 C 8.58 g/m*3 10.4 C 0 km/h
1820 03-09-2010 04:13:04 10.4 C 8.58 g/m*3 10.4 C 0 km/h
1821 03-09-2010 04:25:04 10.4 C 8.67 g/m*3 10.4 C 0 km/h
1822 03-09-2010 04:37:04 10.3 C 8.62 g/m*3 10.3 C 0 km/h
1823 03-09-2010 04:49:04 10.2 C 8.56 g/m*3 10.2 C 0 km/h
1824 03-09-2010 05:01:04 10.2 C 8.56 g/m*3 10.2 C 0 km/h
1825 03-09-2010 05:13:04 10.3 C 8.62 g/m*3 10.3 C 0 km/h
Sensor: Nr:Datum:Temp:Abs-Feuchte:Windchill:Wind:
Aussen-T/F 1826 03-09-2010 05:25:04 10.4 C 8.77 g/m*3 10.4 C 0 km/h
1827 03-09-2010 05:37:04 10.4 C 8.77 g/m*3 10.4 C 0 km/h
1828 03-09-2010 05:49:04 10.7 C 9.04 g/m*3 10.7 C 0 km/h
1829 03-09-2010 06:01:04 10.9 C 9.15 g/m*3 10.9 C 0 km/h
1830 03-09-2010 06:13:04 11 C 9.21 g/m*3 11 C 0 km/h
1831 03-09-2010 06:25:04 11.1 C 9.27 g/m*3 11.1 C 0 km/h
1832 03-09-2010 06:37:04 11.1 C 9.27 g/m*3 11.1 C 0 km/h
1833 03-09-2010 06:49:04 11.3 C 9.28 g/m*3 11.3 C 0 km/h
1834 03-09-2010 07:01:02 11.4 C 9.34 g/m*3 11.4 C 0 km/h
1835 03-09-2010 07:13:02 11.2 C 9.22 g/m*3 11.2 C 0 km/h
1836 03-09-2010 07:25:02 11.2 C 9.22 g/m*3 11.2 C 0 km/h
1837 03-09-2010 07:37:03 11.5 C 9.4 g/m*3 11.5 C 0 km/h
1838 03-09-2010 07:49:02 11.5 C 9.4 g/m*3 11.5 C 0 km/h
1839 03-09-2010 08:01:03 11.6 C 9.46 g/m*3 11.6 C 0 km/h
1840 03-09-2010 08:13:03 11.7 C 9.41 g/m*3 11.7 C 0 km/h
1841 03-09-2010 08:25:02 11.7 C 9.41 g/m*3 11.7 C 0 km/h
1842 03-09-2010 08:37:03 11.6 C 9.25 g/m*3 11.6 C 0 km/h
1843 03-09-2010 08:49:02 11.6 C 9.15 g/m*3 11.6 C 0 km/h
1844 03-09-2010 09:01:02 12 C 9.27 g/m*3 12 C 0 km/h
1845 03-09-2010 09:13:02 12.1 C 9.22 g/m*3 12.1 C 0 km/h
1846 03-09-2010 09:25:02 12.3 C 9.23 g/m*3 12.3 C 0 km/h
1847 03-09-2010 09:37:02 12.7 C 9.35 g/m*3 12.7 C 0 km/h
1848 03-09-2010 09:49:02 13.1 C 9.36 g/m*3 13.1 C 0 km/h
1849 03-09-2010 10:01:02 12.9 C 9.13 g/m*3 12.9 C 0 km/h
1850 03-09-2010 10:13:02 12.8 C 9.18 g/m*3 12.8 C 0 km/h
Sensor: Nr:Datum:Temp:Abs-Feuchte:Windchill:Wind:
Aussen-T/F 1851 03-09-2010 10:25:02 13.5 C 9.36 g/m*3 13.5 C 0 km/h
1852 03-09-2010 10:37:03 14 C 9.05 g/m*3 14 C 0 km/h
1853 03-09-2010 10:49:02 14.7 C 9.32 g/m*3 14.7 C 0 km/h
1854 03-09-2010 11:01:02 15.3 C 9.14 g/m*3 15.3 C 0 km/h
1855 03-09-2010 11:13:02 15.4 C 8.93 g/m*3 15.4 C 0 km/h
1856 03-09-2010 11:25:02 15.8 C 9.02 g/m*3 15.8 C 0 km/h
1857 03-09-2010 11:37:02 16.4 C 8.93 g/m*3 16.4 C 0 km/h
1858 03-09-2010 11:49:02 16.6 C 8.62 g/m*3 16.6 C 0 km/h
1859 03-09-2010 12:01:02 17.4 C 8.45 g/m*3 17.4 C 0 km/h
1860 03-09-2010 12:13:02 17.7 C 8.6 g/m*3 17.7 C 0 km/h
1861 03-09-2010 12:25:02 17.8 C 8.35 g/m*3 17.8 C 0 km/h
1862 03-09-2010 12:37:02 18.1 C 8.34 g/m*3 18.1 C 0 km/h
1863 03-09-2010 12:49:01 18.3 C 8.6 g/m*3 18.3 C 0 km/h
1864 03-09-2010 13:01:01 18.8 C 8.37 g/m*3 18.8 C 0 km/h
1865 03-09-2010 13:13:01 19.4 C 8.18 g/m*3 19.4 C 0 km/h
1866 03-09-2010 13:25:01 20.1 C 8.17 g/m*3 20.1 C 0 km/h
1867 03-09-2010 13:37:01 19.9 C 7.9 g/m*3 19.9 C 0 km/h
1868 03-09-2010 13:49:01 20.2 C 8.22 g/m*3 20.2 C 0 km/h
1869 03-09-2010 14:01:01 20 C 7.6 g/m*3 20 C 0 km/h
1870 03-09-2010 14:13:01 20.5 C 7.65 g/m*3 20.5 C 0 km/h
1871 03-09-2010 14:25:01 19.7 C 7.64 g/m*3 19.7 C 0 km/h
1872 03-09-2010 14:37:01 20.4 C 7.96 g/m*3 20.4 C 0 km/h
1873 03-09-2010 14:49:01 21.4 C 7.31 g/m*3 21.4 C 0 km/h
1874 03-09-2010 15:01:02 21.8 C 7.1 g/m*3 21.8 C 0 km/h
1875 03-09-2010 15:13:02 22.7 C 7.27 g/m*3 22.7 C 0 km/h
Sensor: Nr:Datum:Temp:Abs-Feuchte:Windchill:Wind:
Aussen-T/F 1876 03-09-2010 15:25:01 23.3 C 6.9 g/m*3 23.3 C 0 km/h
1877 03-09-2010 15:37:01 22.7 C 6.87 g/m*3 22.7 C 0 km/h
1878 03-09-2010 15:49:01 23.4 C 6.94 g/m*3 23.4 C 0 km/h
1879 03-09-2010 16:01:01 24.8 C 6.83 g/m*3 24.8 C 0 km/h
1880 03-09-2010 16:13:01 25.5 C 6.63 g/m*3 25.5 C 0 km/h
1881 03-09-2010 16:25:02 25.7 C 6.46 g/m*3 25.7 C 0 km/h
1882 03-09-2010 16:37:01 25.7 C 6.46 g/m*3 25.7 C 0 km/h
1883 03-09-2010 16:49:02 23.9 C 6.49 g/m*3 23.9 C 0 km/h
1884 03-09-2010 17:01:01 25.3 C 6.32 g/m*3 25.3 C 0 km/h
1885 03-09-2010 17:13:01 24.8 C 6.6 g/m*3 24.8 C 0 km/h
1886 03-09-2010 17:25:01 23.9 C 6.49 g/m*3 23.9 C 0 km/h
1887 03-09-2010 17:37:01 23.4 C 6.52 g/m*3 23.4 C 0 km/h
1888 03-09-2010 17:49:02 23.2 C 6.65 g/m*3 23.2 C 0 km/h
1889 03-09-2010 18:01:02 23 C 7.6 g/m*3 23 C 0 km/h
1890 03-09-2010 18:13:02 23.1 C 8.06 g/m*3 23.1 C 0 km/h
1891 03-09-2010 18:25:02 23.2 C 8.11 g/m*3 23.2 C 0 km/h
1892 03-09-2010 18:37:02 22.5 C 7.99 g/m*3 22.5 C 0 km/h
1893 03-09-2010 18:49:01 21.7 C 8.77 g/m*3 21.7 C 0 km/h
1894 03-09-2010 19:01:02 21.2 C 8.9 g/m*3 21.2 C 0 km/h
1895 03-09-2010 19:13:02 20.6 C 8.95 g/m*3 20.6 C 0 km/h
1896 03-09-2010 19:25:01 20.6 C 8.77 g/m*3 20.6 C 0 km/h
1897 03-09-2010 19:37:02 20.7 C 8.82 g/m*3 20.7 C 0 km/h
1898 03-09-2010 19:49:02 20.4 C 8.85 g/m*3 20.4 C 0 km/h
1899 03-09-2010 20:01:02 19.7 C 8.66 g/m*3 19.7 C 0 km/h
1900 03-09-2010 20:13:02 19.2 C 8.08 g/m*3 19.2 C 0 km/h
Sensor: Nr:Datum:Temp:Abs-Feuchte:Windchill:Wind:
Aussen-T/F 1901 03-09-2010 20:25:01 18.3 C 8.6 g/m*3 18.3 C 0 km/h
1902 03-09-2010 20:37:02 18.1 C 7.88 g/m*3 18.1 C 0 km/h
1903 03-09-2010 20:49:02 17.8 C 8.04 g/m*3 17.8 C 0 km/h
1904 03-09-2010 21:01:02 17 C 8.39 g/m*3 17 C 0 km/h
1905 03-09-2010 21:13:02 16.5 C 8.57 g/m*3 16.5 C 0 km/h
1906 03-09-2010 21:25:02 16.2 C 8.55 g/m*3 16.2 C 0 km/h
1907 03-09-2010 21:37:02 16.1 C 8.64 g/m*3 16.1 C 0 km/h
1908 03-09-2010 21:49:01 15.8 C 8.62 g/m*3 15.8 C 0 km/h
1909 03-09-2010 22:01:01 15.6 C 8.78 g/m*3 15.6 C 0 km/h
1910 03-09-2010 22:13:01 15.3 C 8.75 g/m*3 15.3 C 0 km/h
1911 03-09-2010 22:25:02 15.2 C 8.7 g/m*3 15.2 C 0 km/h
1912 03-09-2010 22:37:01 15.2 C 8.96 g/m*3 15.2 C 0 km/h
1913 03-09-2010 22:50:03 15.5 C 9.12 g/m*3 15.5 C 0 km/h
1914 03-09-2010 23:02:03 15.5 C 9.25 g/m*3 15.5 C 0 km/h
1915 03-09-2010 23:14:03 15.4 C 9.2 g/m*3 15.4 C 0 km/h
1916 03-09-2010 23:26:03 15.4 C 9.2 g/m*3 15.4 C 0 km/h
1917 03-09-2010 23:38:03 15.2 C 9.22 g/m*3 15.2 C 0 km/h
1918 03-09-2010 23:50:03 15.2 C 9.22 g/m*3 15.2 C 0 km/h
1919 04-09-2010 00:02:03 15.2 C 9.22 g/m*3 15.2 C 0 km/h
1920 04-09-2010 00:14:03 15.1 C 9.29 g/m*3 15.1 C 0 km/h
1921 04-09-2010 00:26:03 15.1 C 9.29 g/m*3 15.1 C 0 km/h
1922 04-09-2010 00:38:03 15.1 C 9.29 g/m*3 15.1 C 0 km/h
1923 04-09-2010 00:50:03 15 C 9.36 g/m*3 15 C 0 km/h
1924 04-09-2010 01:02:03 15 C 9.36 g/m*3 15 C 0 km/h
1925 04-09-2010 01:14:03 15 C 9.36 g/m*3 15 C 0 km/h
Sensor: Nr:Datum:Temp:Abs-Feuchte:Windchill:Wind:
Aussen-T/F 1926 04-09-2010 01:26:04 14.7 C 9.44 g/m*3 14.7 C 0 km/h
1927 04-09-2010 01:38:04 14.7 C 9.44 g/m*3 14.7 C 0 km/h
1928 04-09-2010 01:50:04 14.7 C 9.44 g/m*3 14.7 C 0 km/h
1929 04-09-2010 02:02:04 14.5 C 9.45 g/m*3 14.5 C 0 km/h
1930 04-09-2010 02:14:04 14.4 C 9.39 g/m*3 14.4 C 0 km/h
1931 04-09-2010 02:26:04 14.2 C 9.4 g/m*3 14.2 C 0 km/h
1932 04-09-2010 02:38:04 14.2 C 9.4 g/m*3 14.2 C 0 km/h
1933 04-09-2010 02:50:04 14.1 C 9.34 g/m*3 14.1 C 0 km/h
1934 04-09-2010 03:02:04 14 C 9.29 g/m*3 14 C 0 km/h
1935 04-09-2010 03:14:04 13.7 C 9.35 g/m*3 13.7 C 0 km/h
1936 04-09-2010 03:26:04 13.7 C 9.35 g/m*3 13.7 C 0 km/h
1937 04-09-2010 03:38:04 13.6 C 9.53 g/m*3 13.6 C 0 km/h
1938 04-09-2010 03:50:04 13.6 C 9.53 g/m*3 13.6 C 0 km/h
1939 04-09-2010 04:02:04 13.4 C 9.42 g/m*3 13.4 C 0 km/h
1940 04-09-2010 04:14:04 13.3 C 9.47 g/m*3 13.3 C 0 km/h
1941 04-09-2010 04:26:04 13.1 C 9.36 g/m*3 13.1 C 0 km/h
1942 04-09-2010 04:38:04 13.2 C 9.64 g/m*3 13.2 C 0 km/h
1943 04-09-2010 04:50:04 13 C 9.53 g/m*3 13 C 0 km/h
1944 04-09-2010 05:02:04 13.1 C 9.59 g/m*3 13.1 C 0 km/h
1945 04-09-2010 05:14:04 13.2 C 9.64 g/m*3 13.2 C 0 km/h
1946 04-09-2010 05:26:04 13.2 C 9.64 g/m*3 13.2 C 0 km/h
1947 04-09-2010 05:38:05 13.1 C 9.59 g/m*3 13.1 C 0 km/h
1948 04-09-2010 05:50:05 12.9 C 9.47 g/m*3 12.9 C 0 km/h
1949 04-09-2010 06:02:05 12.9 C 9.47 g/m*3 12.9 C 0 km/h
1950 04-09-2010 06:14:05 12.7 C 9.35 g/m*3 12.7 C 0 km/h
Sensor: Nr:Datum:Temp:Abs-Feuchte:Windchill:Wind:
Aussen-T/F 1951 04-09-2010 06:26:05 12.5 C 9.24 g/m*3 12.5 C 0 km/h
1952 04-09-2010 06:38:05 12.4 C 9.29 g/m*3 12.4 C 0 km/h
1953 04-09-2010 06:50:05 12.2 C 9.17 g/m*3 12.2 C 0 km/h
1954 04-09-2010 07:02:05 12 C 9.17 g/m*3 12 C 0 km/h
1955 04-09-2010 07:14:05 12 C 9.17 g/m*3 12 C 0 km/h
1956 04-09-2010 07:26:05 12 C 9.17 g/m*3 12 C 0 km/h
1957 04-09-2010 07:38:05 12.2 C 9.39 g/m*3 12.2 C 0 km/h
1958 04-09-2010 07:50:02 12.2 C 9.39 g/m*3 12.2 C 0 km/h
1959 04-09-2010 08:02:02 12.5 C 9.68 g/m*3 12.5 C 0 km/h
1960 04-09-2010 08:14:02 12.7 C 9.8 g/m*3 12.7 C 0 km/h
1961 04-09-2010 08:26:03 12.7 C 9.68 g/m*3 12.7 C 0 km/h
1962 04-09-2010 08:38:02 12.9 C 9.81 g/m*3 12.9 C 0 km/h
1963 04-09-2010 08:50:02 13.2 C 9.87 g/m*3 13.2 C 0 km/h
1964 04-09-2010 09:02:02 13.7 C 10.07 g/m*3 13.7 C 0 km/h
1965 04-09-2010 09:14:02 14.3 C 10.2 g/m*3 14.3 C 0 km/h
1966 04-09-2010 09:26:02 14.6 C 10.01 g/m*3 14.6 C 0 km/h
1967 04-09-2010 09:38:02 14.7 C 9.82 g/m*3 14.7 C 0 km/h
1968 04-09-2010 09:50:02 14.9 C 9.69 g/m*3 14.9 C 0 km/h
1969 04-09-2010 10:02:02 15.2 C 9.61 g/m*3 15.2 C 0 km/h
1970 04-09-2010 10:14:02 15.6 C 9.58 g/m*3 15.6 C 0 km/h
1971 04-09-2010 10:26:02 15.9 C 9.62 g/m*3 15.9 C 0 km/h
1972 04-09-2010 10:38:02 17 C 9.41 g/m*3 17 C 0 km/h
1973 04-09-2010 10:50:02 17.8 C 9.11 g/m*3 17.8 C 0 km/h
1974 04-09-2010 11:02:02 17.8 C 9.11 g/m*3 17.8 C 0 km/h
1975 04-09-2010 11:14:02 18.1 C 8.96 g/m*3 18.1 C 0 km/h
Sensor: Nr:Datum:Temp:Abs-Feuchte:Windchill:Wind:
Aussen-T/F 1976 04-09-2010 11:26:03 18.9 C 8.75 g/m*3 18.9 C 0 km/h
1977 04-09-2010 11:38:02 19.6 C 8.61 g/m*3 19.6 C 0 km/h
1978 04-09-2010 11:50:02 20 C 8.3 g/m*3 20 C 0 km/h
1979 04-09-2010 12:02:02 18.3 C 8.13 g/m*3 18.3 C 0 km/h
1980 04-09-2010 12:14:02 19.7 C 8.49 g/m*3 19.7 C 0 km/h
1981 04-09-2010 12:26:02 19 C 7.33 g/m*3 19 C 0 km/h
1982 04-09-2010 12:38:02 18.5 C 7.59 g/m*3 18.5 C 0 km/h
1983 04-09-2010 12:50:02 18.8 C 7.89 g/m*3 18.8 C 0 km/h
1984 04-09-2010 13:02:02 19.2 C 7.42 g/m*3 19.2 C 0 km/h
1985 04-09-2010 13:14:02 19.9 C 7.9 g/m*3 19.9 C 0 km/h
1986 04-09-2010 13:26:02 19.9 C 7.56 g/m*3 19.9 C 0 km/h
1987 04-09-2010 13:38:01 18.8 C 7.73 g/m*3 18.8 C 0 km/h
1988 04-09-2010 13:50:02 20.1 C 7.47 g/m*3 20.1 C 0 km/h
1989 04-09-2010 14:02:01 21.5 C 6.98 g/m*3 21.5 C 0 km/h
1990 04-09-2010 14:14:01 22 C 6.79 g/m*3 22 C 0 km/h
1991 04-09-2010 14:26:02 22.2 C 6.68 g/m*3 22.2 C 0 km/h
1992 04-09-2010 14:38:02 22.1 C 6.83 g/m*3 22.1 C 0 km/h
1993 04-09-2010 14:50:02 23.2 C 6.24 g/m*3 23.2 C 0 km/h
1994 04-09-2010 15:02:02 23.4 C 6.1 g/m*3 23.4 C 0 km/h
1995 04-09-2010 15:14:02 24.3 C 6.64 g/m*3 24.3 C 0 km/h
1996 04-09-2010 15:26:02 24.1 C 5.91 g/m*3 24.1 C 0 km/h
1997 04-09-2010 15:38:02 21.8 C 6.14 g/m*3 21.8 C 0 km/h
1998 04-09-2010 15:50:01 20.8 C 6.52 g/m*3 20.8 C 0 km/h
1999 04-09-2010 16:02:02 22.8 C 5.69 g/m*3 22.8 C 0 km/h
2000 04-09-2010 16:14:02 24.7 C 5.21 g/m*3 24.7 C 0 km/h
Sensor: Nr:Datum:Temp:Abs-Feuchte:Windchill:Wind:
Aussen-T/F 2001 04-09-2010 16:26:01 22.2 C 5.5 g/m*3 22.2 C 0 km/h
2002 04-09-2010 16:38:01 21.3 C 5.59 g/m*3 21.3 C 0 km/h
2003 04-09-2010 16:50:01 21.1 C 5.53 g/m*3 21.1 C 0 km/h
2004 04-09-2010 17:02:02 22.4 C 5.76 g/m*3 22.4 C 0 km/h
2005 04-09-2010 17:14:02 23.3 C 5.23 g/m*3 23.3 C 0 km/h
2006 04-09-2010 17:26:01 23.5 C 5.08 g/m*3 23.5 C 0 km/h
2007 04-09-2010 17:38:01 22.9 C 4.09 g/m*3 22.9 C 0 km/h
2008 04-09-2010 17:50:01 23.5 C 4.23 g/m*3 23.5 C 0 km/h
2009 04-09-2010 18:02:01 22.9 C 4.29 g/m*3 22.9 C 0 km/h
2010 04-09-2010 18:14:01 23.2 C 4.57 g/m*3 23.2 C 0 km/h
2011 04-09-2010 18:26:02 23.1 C 4.13 g/m*3 23.1 C 0 km/h
2012 04-09-2010 18:38:01 22.9 C 4.29 g/m*3 22.9 C 0 km/h
2013 04-09-2010 18:50:02 21.6 C 4.55 g/m*3 21.6 C 0 km/h
2014 04-09-2010 19:02:01 21.2 C 5.19 g/m*3 21.2 C 0 km/h
2015 04-09-2010 19:14:01 20.7 C 5.04 g/m*3 20.7 C 0 km/h
2016 04-09-2010 19:26:02 19.4 C 5.34 g/m*3 19.4 C 0 km/h
2017 04-09-2010 19:38:01 19 C 5.7 g/m*3 19 C 0 km/h
2018 04-09-2010 19:50:03 18.4 C 6.29 g/m*3 18.4 C 0 km/h
2019 04-09-2010 20:02:02 17.5 C 6.41 g/m*3 17.5 C 0 km/h
2020 04-09-2010 20:14:02 16.6 C 6.36 g/m*3 16.6 C 0 km/h
2021 04-09-2010 20:26:03 15.9 C 6.5 g/m*3 15.9 C 0 km/h
2022 04-09-2010 20:38:02 15.5 C 6.61 g/m*3 15.5 C 0 km/h
2023 04-09-2010 20:50:02 15.2 C 6.75 g/m*3 15.2 C 0 km/h
2024 04-09-2010 21:02:02 15.2 C 6.88 g/m*3 15.2 C 0 km/h
2025 04-09-2010 21:14:02 14.8 C 6.84 g/m*3 14.8 C 0 km/h
Sensor: Nr:Datum:Temp:Abs-Feuchte:Windchill:Wind:
Aussen-T/F 2026 04-09-2010 21:26:02 14.8 C 6.97 g/m*3 14.8 C 0 km/h
2027 04-09-2010 21:38:01 15 C 6.92 g/m*3 15 C 0 km/h
2028 04-09-2010 21:50:02 14.8 C 7.09 g/m*3 14.8 C 0 km/h
2029 04-09-2010 22:02:02 14.8 C 7.22 g/m*3 14.8 C 0 km/h
2030 04-09-2010 22:14:03 14.4 C 7.17 g/m*3 14.4 C 0 km/h
2031 04-09-2010 22:26:01 14.1 C 7.28 g/m*3 14.1 C 0 km/h
2032 04-09-2010 22:38:02 14 C 7.36 g/m*3 14 C 0 km/h
2033 04-09-2010 22:50:02 13.5 C 7.25 g/m*3 13.5 C 0 km/h
2034 04-09-2010 23:03:03 13.5 C 7.49 g/m*3 13.5 C 0 km/h
2035 04-09-2010 23:15:03 13.2 C 7.46 g/m*3 13.2 C 0 km/h
2036 04-09-2010 23:27:03 13.1 C 7.53 g/m*3 13.1 C 0 km/h
2037 04-09-2010 23:39:03 13 C 7.71 g/m*3 13 C 0 km/h
2038 04-09-2010 23:51:03 12.8 C 7.73 g/m*3 12.8 C 0 km/h
2039 05-09-2010 00:03:03 12.7 C 7.68 g/m*3 12.7 C 0 km/h
2040 05-09-2010 00:15:03 12.3 C 7.49 g/m*3 12.3 C 0 km/h
2041 05-09-2010 00:27:03 12.1 C 7.61 g/m*3 12.1 C 0 km/h
2042 05-09-2010 00:39:03 11.9 C 7.63 g/m*3 11.9 C 0 km/h
2043 05-09-2010 00:51:03 11.8 C 7.68 g/m*3 11.8 C 0 km/h
2044 05-09-2010 01:03:03 11.6 C 7.59 g/m*3 11.6 C 0 km/h
2045 05-09-2010 01:15:03 11.4 C 7.49 g/m*3 11.4 C 0 km/h
2046 05-09-2010 01:27:03 11.2 C 7.6 g/m*3 11.2 C 0 km/h
2047 05-09-2010 01:39:03 11 C 7.51 g/m*3 11 C 0 km/h
2048 05-09-2010 01:51:03 10.9 C 7.46 g/m*3 10.9 C 0 km/h
2049 05-09-2010 02:03:03 10.8 C 7.61 g/m*3 10.8 C 0 km/h
2050 05-09-2010 02:15:03 10.6 C 7.52 g/m*3 10.6 C 0 km/h
Sensor: Nr:Datum:Temp:Abs-Feuchte:Windchill:Wind:
Aussen-T/F 2051 05-09-2010 02:27:04 10.4 C 7.52 g/m*3 10.4 C 0 km/h
2052 05-09-2010 02:39:04 10.3 C 7.47 g/m*3 10.3 C 0 km/h
2053 05-09-2010 02:51:04 10.1 C 7.47 g/m*3 10.1 C 0 km/h
2054 05-09-2010 03:03:04 10 C 7.33 g/m*3 10 C 0 km/h
2055 05-09-2010 03:15:04 9.8 C 7.42 g/m*3 9.8 C 0 km/h
2056 05-09-2010 03:27:04 9.7 C 7.47 g/m*3 9.7 C 0 km/h
2057 05-09-2010 03:39:04 9.6 C 7.42 g/m*3 9.6 C 0 km/h
2058 05-09-2010 03:51:04 9.5 C 7.37 g/m*3 9.5 C 0 km/h
2059 05-09-2010 04:03:04 9.2 C 7.23 g/m*3 9.2 C 0 km/h
2060 05-09-2010 04:15:04 9.2 C 7.23 g/m*3 9.2 C 0 km/h
2061 05-09-2010 04:27:04 9.2 C 7.32 g/m*3 9.2 C 0 km/h
2062 05-09-2010 04:39:04 9.1 C 7.28 g/m*3 9.1 C 0 km/h
2063 05-09-2010 04:51:04 8.9 C 7.27 g/m*3 8.9 C 0 km/h
2064 05-09-2010 05:03:04 8.9 C 7.27 g/m*3 8.9 C 0 km/h
2065 05-09-2010 05:15:04 8.8 C 7.31 g/m*3 8.8 C 0 km/h
2066 05-09-2010 05:27:04 8.5 C 7.17 g/m*3 8.5 C 0 km/h
2067 05-09-2010 05:39:04 8.5 C 7.26 g/m*3 8.5 C 0 km/h
2068 05-09-2010 05:51:04 8.5 C 7.34 g/m*3 8.5 C 0 km/h
2069 05-09-2010 06:03:04 8.3 C 7.33 g/m*3 8.3 C 0 km/h
2070 05-09-2010 06:15:04 8.1 C 7.24 g/m*3 8.1 C 0 km/h
2071 05-09-2010 06:27:04 8.1 C 7.24 g/m*3 8.1 C 0 km/h
2072 05-09-2010 06:39:04 8 C 7.19 g/m*3 8 C 0 km/h
2073 05-09-2010 06:51:05 7.9 C 7.23 g/m*3 7.9 C 0 km/h
2074 05-09-2010 07:03:05 7.9 C 7.23 g/m*3 7.9 C 0 km/h
2075 05-09-2010 07:15:05 8.2 C 7.37 g/m*3 8.2 C 0 km/h
Sensor: Nr:Datum:Temp:Abs-Feuchte:Windchill:Wind:
Aussen-T/F 2076 05-09-2010 07:27:05 8.5 C 7.6 g/m*3 8.5 C 0 km/h
2077 05-09-2010 07:39:02 8.6 C 7.65 g/m*3 8.6 C 0 km/h
2078 05-09-2010 07:51:02 8.8 C 7.75 g/m*3 8.8 C 0 km/h
2079 05-09-2010 08:03:02 9.2 C 7.86 g/m*3 9.2 C 0 km/h
2080 05-09-2010 08:15:01 9.5 C 7.92 g/m*3 9.5 C 0 km/h
2081 05-09-2010 08:27:01 9.9 C 8.03 g/m*3 9.9 C 0 km/h
2082 05-09-2010 08:39:02 10 C 7.8 g/m*3 10 C 0 km/h
2083 05-09-2010 08:51:01 10.5 C 7.95 g/m*3 10.5 C 0 km/h
2084 05-09-2010 09:03:01 10.7 C 7.96 g/m*3 10.7 C 0 km/h
2085 05-09-2010 09:15:01 11.1 C 7.86 g/m*3 11.1 C 0 km/h
2086 05-09-2010 09:27:01 11.2 C 7.8 g/m*3 11.2 C 0 km/h
2087 05-09-2010 09:39:01 11.3 C 7.85 g/m*3 11.3 C 0 km/h
2088 05-09-2010 09:51:01 11.2 C 7.91 g/m*3 11.2 C 0 km/h
2089 05-09-2010 10:03:02 11.2 C 8.01 g/m*3 11.2 C 0 km/h
2090 05-09-2010 10:15:01 11.8 C 8.42 g/m*3 11.8 C 0 km/h
2091 05-09-2010 10:27:01 12.3 C 8.47 g/m*3 12.3 C 0 km/h
2092 05-09-2010 10:39:01 12.9 C 8.68 g/m*3 12.9 C 0 km/h
2093 05-09-2010 10:51:02 13.6 C 8.59 g/m*3 13.6 C 0 km/h
2094 05-09-2010 11:03:02 14.3 C 8.48 g/m*3 14.3 C 0 km/h
2095 05-09-2010 11:15:01 15.1 C 8.51 g/m*3 15.1 C 0 km/h
2096 05-09-2010 11:27:01 15.4 C 8.41 g/m*3 15.4 C 0 km/h
2097 05-09-2010 11:39:02 15.9 C 8.13 g/m*3 15.9 C 0 km/h
2098 05-09-2010 11:51:02 16.4 C 7.12 g/m*3 16.4 C 0 km/h
2099 05-09-2010 12:03:02 17.2 C 7.18 g/m*3 17.2 C 0 km/h
2100 05-09-2010 12:15:02 17.6 C 6.6 g/m*3 17.6 C 0 km/h
Sensor: Nr:Datum:Temp:Abs-Feuchte:Windchill:Wind:
Aussen-T/F 2101 05-09-2010 12:27:02 18.2 C 6.53 g/m*3 18.2 C 0 km/h
2102 05-09-2010 12:39:02 18.5 C 6.33 g/m*3 18.5 C 0 km/h
2103 05-09-2010 12:51:01 18.6 C 5.89 g/m*3 18.6 C 0 km/h
2104 05-09-2010 13:03:02 19.3 C 6.47 g/m*3 19.3 C 0 km/h
2105 05-09-2010 13:15:02 19.4 C 6.01 g/m*3 19.4 C 0 km/h
2106 05-09-2010 13:27:02 20 C 5.88 g/m*3 20 C 0 km/h
2107 05-09-2010 13:39:01 20.6 C 5.55 g/m*3 20.6 C 0 km/h
2108 05-09-2010 13:51:01 21.4 C 5.62 g/m*3 21.4 C 0 km/h
2109 05-09-2010 14:03:01 22.3 C 5.53 g/m*3 22.3 C 0 km/h
2110 05-09-2010 14:15:02 22.9 C 5.31 g/m*3 22.9 C 0 km/h
2111 05-09-2010 14:27:02 23.3 C 5.02 g/m*3 23.3 C 0 km/h
2112 05-09-2010 14:39:01 24.2 C 5.06 g/m*3 24.2 C 0 km/h
2113 05-09-2010 14:51:03 24.8 C 5.01 g/m*3 24.8 C 0 km/h
2114 05-09-2010 15:03:02 24.8 C 5.46 g/m*3 24.8 C 0 km/h
2115 05-09-2010 15:15:02 23.7 C 4.92 g/m*3 23.7 C 0 km/h
2116 05-09-2010 15:27:02 24 C 4.79 g/m*3 24 C 0 km/h
2117 05-09-2010 15:39:02 24.4 C 4.45 g/m*3 24.4 C 0 km/h
2118 05-09-2010 15:51:02 23.9 C 4.54 g/m*3 23.9 C 0 km/h
2119 05-09-2010 16:03:01 24.1 C 4.38 g/m*3 24.1 C 0 km/h
2120 05-09-2010 16:15:02 24.4 C 4.67 g/m*3 24.4 C 0 km/h
2121 05-09-2010 16:27:02 25 C 4.83 g/m*3 25 C 0 km/h
2122 05-09-2010 16:39:02 25 C 4.83 g/m*3 25 C 0 km/h
2123 05-09-2010 16:51:01 23.5 C 4.65 g/m*3 23.5 C 0 km/h
2124 05-09-2010 17:03:02 24.7 C 4.75 g/m*3 24.7 C 0 km/h
2125 05-09-2010 17:15:01 24.7 C 5.21 g/m*3 24.7 C 0 km/h
Sensor: Nr:Datum:Temp:Abs-Feuchte:Windchill:Wind:
Aussen-T/F 2126 05-09-2010 17:27:01 24 C 5.44 g/m*3 24 C 0 km/h
2127 05-09-2010 17:39:02 24.6 C 5.18 g/m*3 24.6 C 0 km/h
2128 05-09-2010 17:51:01 25 C 4.6 g/m*3 25 C 0 km/h
2129 05-09-2010 18:03:02 25.7 C 5.51 g/m*3 25.7 C 0 km/h
2130 05-09-2010 18:15:01 26 C 4.87 g/m*3 26 C 0 km/h
2131 05-09-2010 18:27:01 25.4 C 4.71 g/m*3 25.4 C 0 km/h
2132 05-09-2010 18:39:02 24.1 C 5.03 g/m*3 24.1 C 0 km/h
2133 05-09-2010 18:51:01 23 C 6.17 g/m*3 23 C 0 km/h
2134 05-09-2010 19:03:02 21.9 C 6.37 g/m*3 21.9 C 0 km/h
2135 05-09-2010 19:15:02 20.1 C 6.26 g/m*3 20.1 C 0 km/h
2136 05-09-2010 19:27:02 19.2 C 6.43 g/m*3 19.2 C 0 km/h
2137 05-09-2010 19:39:02 18.2 C 6.37 g/m*3 18.2 C 0 km/h
2138 05-09-2010 19:51:02 17.5 C 6.41 g/m*3 17.5 C 0 km/h
2139 05-09-2010 20:03:01 17 C 6.37 g/m*3 17 C 0 km/h
2140 05-09-2010 20:15:02 16.6 C 6.36 g/m*3 16.6 C 0 km/h
2141 05-09-2010 20:27:03 16.6 C 6.36 g/m*3 16.6 C 0 km/h
2142 05-09-2010 20:39:01 16.2 C 6.34 g/m*3 16.2 C 0 km/h
2143 05-09-2010 20:51:02 15.8 C 6.46 g/m*3 15.8 C 0 km/h
2144 05-09-2010 21:03:01 15.3 C 6.66 g/m*3 15.3 C 0 km/h
2145 05-09-2010 21:15:01 15.1 C 6.71 g/m*3 15.1 C 0 km/h
2146 05-09-2010 21:27:01 14.9 C 6.75 g/m*3 14.9 C 0 km/h
2147 05-09-2010 21:39:02 14.7 C 6.92 g/m*3 14.7 C 0 km/h
2148 05-09-2010 21:51:02 14.5 C 6.96 g/m*3 14.5 C 0 km/h
2149 05-09-2010 22:03:02 14.4 C 7.05 g/m*3 14.4 C 0 km/h
2150 05-09-2010 22:15:02 14.2 C 7.08 g/m*3 14.2 C 0 km/h
Sensor: Nr:Datum:Temp:Abs-Feuchte:Windchill:Wind:
Aussen-T/F 2151 05-09-2010 22:27:02 14 C 7.12 g/m*3 14 C 0 km/h
2152 05-09-2010 22:40:03 14 C 7.12 g/m*3 14 C 0 km/h
2153 05-09-2010 22:52:03 14 C 7.12 g/m*3 14 C 0 km/h
2154 05-09-2010 23:04:03 14 C 7 g/m*3 14 C 0 km/h
2155 05-09-2010 23:16:03 14.1 C 6.92 g/m*3 14.1 C 0 km/h
2156 05-09-2010 23:28:03 14.1 C 6.92 g/m*3 14.1 C 0 km/h
2157 05-09-2010 23:40:03 13.7 C 6.87 g/m*3 13.7 C 0 km/h
2158 05-09-2010 23:52:03 13.8 C 6.91 g/m*3 13.8 C 0 km/h
2159 06-09-2010 00:04:03 13.6 C 7.06 g/m*3 13.6 C 0 km/h
2160 06-09-2010 00:16:03 13.4 C 7.09 g/m*3 13.4 C 0 km/h
2161 06-09-2010 00:28:03 13.2 C 7.12 g/m*3 13.2 C 0 km/h
2162 06-09-2010 00:40:03 13.1 C 7.07 g/m*3 13.1 C 0 km/h
2163 06-09-2010 00:52:03 12.8 C 7.06 g/m*3 12.8 C 0 km/h
2164 06-09-2010 01:04:03 12.7 C 7.12 g/m*3 12.7 C 0 km/h
2165 06-09-2010 01:16:03 12.5 C 7.15 g/m*3 12.5 C 0 km/h
2166 06-09-2010 01:28:03 12.3 C 7.06 g/m*3 12.3 C 0 km/h
2167 06-09-2010 01:40:03 12.2 C 7.12 g/m*3 12.2 C 0 km/h
2168 06-09-2010 01:52:03 12.1 C 7.08 g/m*3 12.1 C 0 km/h
2169 06-09-2010 02:04:03 12 C 7.14 g/m*3 12 C 0 km/h
2170 06-09-2010 02:16:04 11.8 C 7.26 g/m*3 11.8 C 0 km/h
2171 06-09-2010 02:28:04 11.6 C 7.17 g/m*3 11.6 C 0 km/h
2172 06-09-2010 02:40:04 11.5 C 7.23 g/m*3 11.5 C 0 km/h
2173 06-09-2010 02:52:04 11.2 C 7.2 g/m*3 11.2 C 0 km/h
2174 06-09-2010 03:04:04 11.2 C 7.2 g/m*3 11.2 C 0 km/h
2175 06-09-2010 03:16:04 11.2 C 7.2 g/m*3 11.2 C 0 km/h
Sensor: Nr:Datum:Temp:Abs-Feuchte:Windchill:Wind:
Aussen-T/F 2176 06-09-2010 03:28:04 11.1 C 7.15 g/m*3 11.1 C 0 km/h
2177 06-09-2010 03:40:04 11 C 7.11 g/m*3 11 C 0 km/h
2178 06-09-2010 03:52:04 11 C 7.11 g/m*3 11 C 0 km/h
2179 06-09-2010 04:04:04 11 C 7.11 g/m*3 11 C 0 km/h
2180 06-09-2010 04:16:04 10.8 C 7.12 g/m*3 10.8 C 0 km/h
2181 06-09-2010 04:28:04 10.7 C 7.07 g/m*3 10.7 C 0 km/h
2182 06-09-2010 04:40:04 10.6 C 7.12 g/m*3 10.6 C 0 km/h
2183 06-09-2010 04:52:04 10.4 C 7.04 g/m*3 10.4 C 0 km/h
2184 06-09-2010 05:04:04 10.3 C 7.09 g/m*3 10.3 C 0 km/h
2185 06-09-2010 05:16:04 10.4 C 7.13 g/m*3 10.4 C 0 km/h
2186 06-09-2010 05:28:04 10.2 C 6.95 g/m*3 10.2 C 0 km/h
2187 06-09-2010 05:40:04 10.2 C 6.95 g/m*3 10.2 C 0 km/h
2188 06-09-2010 05:52:04 10.1 C 7 g/m*3 10.1 C 0 km/h
2189 06-09-2010 06:04:04 9.8 C 6.96 g/m*3 9.8 C 0 km/h
2190 06-09-2010 06:16:04 9.7 C 7.01 g/m*3 9.7 C 0 km/h
2191 06-09-2010 06:28:04 9.5 C 7.01 g/m*3 9.5 C 0 km/h
2192 06-09-2010 06:40:05 9.5 C 7.01 g/m*3 9.5 C 0 km/h
2193 06-09-2010 06:52:05 9.3 C 7.01 g/m*3 9.3 C 0 km/h
2194 06-09-2010 07:04:05 9.2 C 6.97 g/m*3 9.2 C 0 km/h
2195 06-09-2010 07:16:03 9.3 C 7.1 g/m*3 9.3 C 0 km/h
2196 06-09-2010 07:28:03 9.3 C 7.1 g/m*3 9.3 C 0 km/h
2197 06-09-2010 07:40:03 9.3 C 7.1 g/m*3 9.3 C 0 km/h
2198 06-09-2010 07:52:01 9.3 C 7.1 g/m*3 9.3 C 0 km/h
2199 06-09-2010 08:04:02 9.4 C 7.15 g/m*3 9.4 C 0 km/h
2200 06-09-2010 08:16:01 9.6 C 7.24 g/m*3 9.6 C 0 km/h
Sensor: Nr:Datum:Temp:Abs-Feuchte:Windchill:Wind:
Aussen-T/F 2201 06-09-2010 08:28:01 9.6 C 7.24 g/m*3 9.6 C 0 km/h
2202 06-09-2010 08:40:02 9.8 C 7.24 g/m*3 9.8 C 0 km/h
2203 06-09-2010 08:52:02 10 C 7.24 g/m*3 10 C 0 km/h
2204 06-09-2010 09:04:02 10.2 C 7.33 g/m*3 10.2 C 0 km/h
2205 06-09-2010 09:16:01 10.5 C 7.47 g/m*3 10.5 C 0 km/h
2206 06-09-2010 09:28:01 10.8 C 7.51 g/m*3 10.8 C 0 km/h
2207 06-09-2010 09:40:02 11.3 C 7.55 g/m*3 11.3 C 0 km/h
2208 06-09-2010 09:52:02 11.9 C 7.73 g/m*3 11.9 C 0 km/h
2209 06-09-2010 10:04:02 12.5 C 7.59 g/m*3 12.5 C 0 km/h
2210 06-09-2010 10:16:02 13.1 C 7.53 g/m*3 13.1 C 0 km/h
2211 06-09-2010 10:28:02 13.5 C 7.37 g/m*3 13.5 C 0 km/h
2212 06-09-2010 10:40:02 13.9 C 7.67 g/m*3 13.9 C 0 km/h
2213 06-09-2010 10:52:02 14.4 C 7.42 g/m*3 14.4 C 0 km/h
2214 06-09-2010 11:04:02 15.2 C 7.4 g/m*3 15.2 C 0 km/h
2215 06-09-2010 11:16:02 15.8 C 7.27 g/m*3 15.8 C 0 km/h
2216 06-09-2010 11:28:02 16.2 C 7.45 g/m*3 16.2 C 0 km/h
2217 06-09-2010 11:40:01 16.9 C 6.76 g/m*3 16.9 C 0 km/h
2218 06-09-2010 11:52:02 17.5 C 6.71 g/m*3 17.5 C 0 km/h
2219 06-09-2010 12:04:01 18.1 C 5.87 g/m*3 18.1 C 0 km/h
2220 06-09-2010 12:16:02 18.5 C 5.7 g/m*3 18.5 C 0 km/h
2221 06-09-2010 12:28:02 18.7 C 5.6 g/m*3 18.7 C 0 km/h
2222 06-09-2010 12:40:02 18.9 C 5.35 g/m*3 18.9 C 0 km/h
2223 06-09-2010 12:52:02 19 C 5.38 g/m*3 19 C 0 km/h
2224 06-09-2010 13:04:03 19.3 C 5.31 g/m*3 19.3 C 0 km/h
2225 06-09-2010 13:16:02 19.7 C 5.6 g/m*3 19.7 C 0 km/h
Sensor: Nr:Datum:Temp:Abs-Feuchte:Windchill:Wind:
Aussen-T/F 2226 06-09-2010 13:28:02 20.1 C 5.56 g/m*3 20.1 C 0 km/h
2227 06-09-2010 13:40:02 20.8 C 5.43 g/m*3 20.8 C 0 km/h
2228 06-09-2010 13:52:01 21.3 C 5.03 g/m*3 21.3 C 0 km/h
2229 06-09-2010 14:04:02 21.6 C 4.74 g/m*3 21.6 C 0 km/h
2230 06-09-2010 14:16:01 21.9 C 4.82 g/m*3 21.9 C 0 km/h
2231 06-09-2010 14:28:01 22.3 C 4.54 g/m*3 22.3 C 0 km/h
2232 06-09-2010 14:40:02 22.7 C 4.24 g/m*3 22.7 C 0 km/h
2233 06-09-2010 14:52:01 23.2 C 4.16 g/m*3 23.2 C 0 km/h
2234 06-09-2010 15:04:02 23.6 C 4.25 g/m*3 23.6 C 0 km/h
2235 06-09-2010 15:16:02 23.9 C 4.33 g/m*3 23.9 C 0 km/h
2236 06-09-2010 15:28:02 24.1 C 4.38 g/m*3 24.1 C 0 km/h
2237 06-09-2010 15:40:01 24.3 C 4.43 g/m*3 24.3 C 0 km/h
2238 06-09-2010 15:52:01 24.1 C 4.38 g/m*3 24.1 C 0 km/h
2239 06-09-2010 16:04:01 24 C 4.35 g/m*3 24 C 0 km/h
2240 06-09-2010 16:16:02 23.8 C 4.3 g/m*3 23.8 C 0 km/h
2241 06-09-2010 16:28:02 23.7 C 4.28 g/m*3 23.7 C 0 km/h
2242 06-09-2010 16:40:01 23.9 C 4.33 g/m*3 23.9 C 0 km/h
2243 06-09-2010 16:52:02 24 C 4.35 g/m*3 24 C 0 km/h
2244 06-09-2010 17:04:01 24.5 C 4.48 g/m*3 24.5 C 0 km/h
2245 06-09-2010 17:16:01 24.7 C 4.53 g/m*3 24.7 C 0 km/h
2246 06-09-2010 17:28:01 25.4 C 4.71 g/m*3 25.4 C 0 km/h
2247 06-09-2010 17:40:01 24.2 C 4.4 g/m*3 24.2 C 0 km/h
2248 06-09-2010 17:52:02 23.3 C 4.18 g/m*3 23.3 C 0 km/h
2249 06-09-2010 18:04:02 22.6 C 4.82 g/m*3 22.6 C 0 km/h
2250 06-09-2010 18:16:02 21.5 C 4.9 g/m*3 21.5 C 0 km/h
Sensor: Nr:Datum:Temp:Abs-Feuchte:Windchill:Wind:
Aussen-T/F 2251 06-09-2010 18:28:02 21.1 C 5.53 g/m*3 21.1 C 0 km/h
2252 06-09-2010 18:40:02 21.2 C 5.37 g/m*3 21.2 C 0 km/h
2253 06-09-2010 18:52:01 20.8 C 5.98 g/m*3 20.8 C 0 km/h
2254 06-09-2010 19:04:02 20 C 6.05 g/m*3 20 C 0 km/h
2255 06-09-2010 19:16:01 19.1 C 5.9 g/m*3 19.1 C 0 km/h
2256 06-09-2010 19:28:01 18.7 C 5.76 g/m*3 18.7 C 0 km/h
2257 06-09-2010 19:40:02 18.1 C 5.87 g/m*3 18.1 C 0 km/h
2258 06-09-2010 19:52:01 17.7 C 5.73 g/m*3 17.7 C 0 km/h
2259 06-09-2010 20:04:02 17.6 C 5.55 g/m*3 17.6 C 0 km/h
2260 06-09-2010 20:16:01 17.3 C 5.6 g/m*3 17.3 C 0 km/h
2261 06-09-2010 20:28:01 17.1 C 5.68 g/m*3 17.1 C 0 km/h
2262 06-09-2010 20:40:02 16.9 C 5.61 g/m*3 16.9 C 0 km/h
2263 06-09-2010 20:52:01 16.6 C 5.65 g/m*3 16.6 C 0 km/h
2264 06-09-2010 21:04:02 16.5 C 5.2 g/m*3 16.5 C 0 km/h
2265 06-09-2010 21:16:02 16.4 C 5.44 g/m*3 16.4 C 0 km/h
2266 06-09-2010 21:28:02 16.2 C 5.52 g/m*3 16.2 C 0 km/h
2267 06-09-2010 21:41:03 16.1 C 5.48 g/m*3 16.1 C 0 km/h
2268 06-09-2010 21:53:03 15.9 C 5.55 g/m*3 15.9 C 0 km/h
2269 06-09-2010 22:05:03 15.7 C 5.62 g/m*3 15.7 C 0 km/h
2270 06-09-2010 22:17:03 15.6 C 5.59 g/m*3 15.6 C 0 km/h
2271 06-09-2010 22:29:03 15.6 C 5.59 g/m*3 15.6 C 0 km/h
2272 06-09-2010 22:41:03 15.3 C 5.62 g/m*3 15.3 C 0 km/h
2273 06-09-2010 22:53:03 15.3 C 5.62 g/m*3 15.3 C 0 km/h
2274 06-09-2010 23:05:03 15.2 C 5.71 g/m*3 15.2 C 0 km/h
2275 06-09-2010 23:17:03 15.1 C 5.68 g/m*3 15.1 C 0 km/h
Sensor: Nr:Datum:Temp:Abs-Feuchte:Windchill:Wind:
Aussen-T/F 2276 06-09-2010 23:29:03 15.2 C 5.58 g/m*3 15.2 C 0 km/h
2277 06-09-2010 23:41:03 15.3 C 5.48 g/m*3 15.3 C 0 km/h
2278 06-09-2010 23:53:03 15.2 C 5.71 g/m*3 15.2 C 0 km/h
2279 07-09-2010 00:05:03 15.2 C 5.71 g/m*3 15.2 C 0 km/h
2280 07-09-2010 00:17:03 15.4 C 5.52 g/m*3 15.4 C 0 km/h
2281 07-09-2010 00:29:03 15.4 C 5.52 g/m*3 15.4 C 0 km/h
2282 07-09-2010 00:41:03 15.5 C 5.42 g/m*3 15.5 C 0 km/h
2283 07-09-2010 00:53:03 15.4 C 5.39 g/m*3 15.4 C 0 km/h
2284 07-09-2010 01:05:03 15.4 C 5.52 g/m*3 15.4 C 0 km/h
2285 07-09-2010 01:17:04 15.4 C 5.39 g/m*3 15.4 C 0 km/h
2286 07-09-2010 01:29:04 15.4 C 5.39 g/m*3 15.4 C 0 km/h
2287 07-09-2010 01:41:04 15.4 C 5.39 g/m*3 15.4 C 0 km/h
2288 07-09-2010 01:53:04 15.5 C 5.29 g/m*3 15.5 C 0 km/h
2289 07-09-2010 02:05:04 15.5 C 5.29 g/m*3 15.5 C 0 km/h
2290 07-09-2010 02:17:04 15.5 C 5.29 g/m*3 15.5 C 0 km/h
2291 07-09-2010 02:29:04 15.5 C 5.55 g/m*3 15.5 C 0 km/h
2292 07-09-2010 02:41:04 15.4 C 5.39 g/m*3 15.4 C 0 km/h
2293 07-09-2010 02:53:04 15.4 C 5.39 g/m*3 15.4 C 0 km/h
2294 07-09-2010 03:05:04 15.4 C 5.52 g/m*3 15.4 C 0 km/h
2295 07-09-2010 03:17:04 15.4 C 5.26 g/m*3 15.4 C 0 km/h
2296 07-09-2010 03:29:04 14.8 C 5.7 g/m*3 14.8 C 0 km/h
2297 07-09-2010 03:41:04 13.3 C 6.47 g/m*3 13.3 C 0 km/h
2298 07-09-2010 03:53:04 12.8 C 6.94 g/m*3 12.8 C 0 km/h
2299 07-09-2010 04:05:04 13.1 C 6.85 g/m*3 13.1 C 0 km/h
2300 07-09-2010 04:17:04 13.4 C 6.97 g/m*3 13.4 C 0 km/h
Sensor: Nr:Datum:Temp:Abs-Feuchte:Windchill:Wind:
Aussen-T/F 2301 07-09-2010 04:29:04 13.1 C 6.62 g/m*3 13.1 C 0 km/h
2302 07-09-2010 04:41:04 12.8 C 7.28 g/m*3 12.8 C 0 km/h
2303 07-09-2010 04:53:04 12.9 C 7.33 g/m*3 12.9 C 0 km/h
2304 07-09-2010 05:05:04 12.9 C 7.21 g/m*3 12.9 C 0 km/h
2305 07-09-2010 05:17:04 13 C 7.26 g/m*3 13 C 0 km/h
2306 07-09-2010 05:29:05 13 C 7.03 g/m*3 13 C 0 km/h
2307 07-09-2010 05:41:05 13.2 C 6.77 g/m*3 13.2 C 0 km/h
2308 07-09-2010 05:53:05 12.8 C 7.28 g/m*3 12.8 C 0 km/h
2309 07-09-2010 06:05:05 12.5 C 7.26 g/m*3 12.5 C 0 km/h
2310 07-09-2010 06:17:05 12.3 C 7.38 g/m*3 12.3 C 0 km/h
2311 07-09-2010 06:29:05 12.4 C 7.1 g/m*3 12.4 C 0 km/h
2312 07-09-2010 06:41:05 12.6 C 6.75 g/m*3 12.6 C 0 km/h
2313 07-09-2010 06:53:05 12.7 C 6.68 g/m*3 12.7 C 0 km/h
2314 07-09-2010 07:05:05 12.4 C 6.66 g/m*3 12.4 C 0 km/h
2315 07-09-2010 07:17:05 12.2 C 7.01 g/m*3 12.2 C 0 km/h
2316 07-09-2010 07:29:05 12.1 C 6.97 g/m*3 12.1 C 0 km/h
2317 07-09-2010 07:41:05 12 C 7.35 g/m*3 12 C 0 km/h
2318 07-09-2010 07:53:01 11.9 C 7.41 g/m*3 11.9 C 0 km/h
2319 07-09-2010 08:05:02 11.7 C 7.74 g/m*3 11.7 C 0 km/h
2320 07-09-2010 08:17:02 11.6 C 8.11 g/m*3 11.6 C 0 km/h
2321 07-09-2010 08:29:02 11.7 C 8.37 g/m*3 11.7 C 0 km/h
2322 07-09-2010 08:41:02 11.4 C 8.11 g/m*3 11.4 C 0 km/h
2323 07-09-2010 08:53:01 11.4 C 8.21 g/m*3 11.4 C 0 km/h
2324 07-09-2010 09:05:02 11.4 C 8.21 g/m*3 11.4 C 0 km/h
2325 07-09-2010 09:17:02 11.4 C 8.21 g/m*3 11.4 C 0 km/h
Sensor: Nr:Datum:Temp:Abs-Feuchte:Windchill:Wind:
Aussen-T/F 2326 07-09-2010 09:29:02 11.5 C 8.47 g/m*3 11.5 C 0 km/h
2327 07-09-2010 09:41:01 11.5 C 8.47 g/m*3 11.5 C 0 km/h
2328 07-09-2010 09:53:02 11.5 C 8.68 g/m*3 11.5 C 0 km/h
2329 07-09-2010 10:05:01 11.4 C 8.72 g/m*3 11.4 C 0 km/h
2330 07-09-2010 10:17:02 11.4 C 8.83 g/m*3 11.4 C 0 km/h
2331 07-09-2010 10:29:02 11.5 C 8.88 g/m*3 11.5 C 0 km/h
2332 07-09-2010 10:41:01 11.4 C 8.93 g/m*3 11.4 C 0 km/h
2333 07-09-2010 10:53:02 11.6 C 9.04 g/m*3 11.6 C 0 km/h
2334 07-09-2010 11:05:01 11.6 C 9.15 g/m*3 11.6 C 0 km/h
2335 07-09-2010 11:17:01 11.5 C 9.09 g/m*3 11.5 C 0 km/h
2336 07-09-2010 11:29:01 11.2 C 8.92 g/m*3 11.2 C 0 km/h
2337 07-09-2010 11:41:02 11.7 C 9.41 g/m*3 11.7 C 0 km/h
2338 07-09-2010 11:53:02 12.2 C 9.5 g/m*3 12.2 C 0 km/h
2339 07-09-2010 12:05:02 12 C 9.38 g/m*3 12 C 0 km/h
2340 07-09-2010 12:17:02 12.4 C 9.62 g/m*3 12.4 C 0 km/h
2341 07-09-2010 12:29:02 12.4 C 9.4 g/m*3 12.4 C 0 km/h
2342 07-09-2010 12:41:02 12.5 C 9.46 g/m*3 12.5 C 0 km/h
2343 07-09-2010 12:53:02 12.8 C 9.63 g/m*3 12.8 C 0 km/h
2344 07-09-2010 13:05:02 12.7 C 9.35 g/m*3 12.7 C 0 km/h
2345 07-09-2010 13:17:02 12.8 C 9.41 g/m*3 12.8 C 0 km/h
2346 07-09-2010 13:29:02 12.8 C 9.3 g/m*3 12.8 C 0 km/h
2347 07-09-2010 13:41:02 12.7 C 9.13 g/m*3 12.7 C 0 km/h
2348 07-09-2010 13:53:01 12.9 C 9.35 g/m*3 12.9 C 0 km/h
2349 07-09-2010 14:05:01 12.9 C 9.35 g/m*3 12.9 C 0 km/h
2350 07-09-2010 14:17:01 13.1 C 9.36 g/m*3 13.1 C 0 km/h
Sensor: Nr:Datum:Temp:Abs-Feuchte:Windchill:Wind:
Aussen-T/F 2351 07-09-2010 14:29:01 13.3 C 9.47 g/m*3 13.3 C 0 km/h
2352 07-09-2010 14:41:01 13.4 C 9.3 g/m*3 13.4 C 0 km/h
2353 07-09-2010 14:53:01 14.1 C 9.34 g/m*3 14.1 C 0 km/h
2354 07-09-2010 15:05:01 14.4 C 9.39 g/m*3 14.4 C 0 km/h
2355 07-09-2010 15:17:02 14.4 C 8.9 g/m*3 14.4 C 0 km/h
2356 07-09-2010 15:29:02 14.7 C 9.07 g/m*3 14.7 C 0 km/h
2357 07-09-2010 15:41:01 14.7 C 9.07 g/m*3 14.7 C 0 km/h
2358 07-09-2010 15:53:03 14.7 C 9.19 g/m*3 14.7 C 0 km/h
2359 07-09-2010 16:05:02 15.3 C 9.27 g/m*3 15.3 C 0 km/h
2360 07-09-2010 16:17:02 15.6 C 9.04 g/m*3 15.6 C 0 km/h
2361 07-09-2010 16:29:02 15.7 C 9.1 g/m*3 15.7 C 0 km/h
2362 07-09-2010 16:41:02 15.6 C 9.04 g/m*3 15.6 C 0 km/h
2363 07-09-2010 16:53:02 15.4 C 9.07 g/m*3 15.4 C 0 km/h
2364 07-09-2010 17:05:02 15.2 C 8.96 g/m*3 15.2 C 0 km/h
2365 07-09-2010 17:17:02 14.9 C 8.92 g/m*3 14.9 C 0 km/h
2366 07-09-2010 17:29:02 14.8 C 9.12 g/m*3 14.8 C 0 km/h
2367 07-09-2010 17:41:02 14.8 C 9.12 g/m*3 14.8 C 0 km/h
2368 07-09-2010 17:53:02 14.7 C 9.19 g/m*3 14.7 C 0 km/h
2369 07-09-2010 18:05:02 14.1 C 8.86 g/m*3 14.1 C 0 km/h
2370 07-09-2010 18:17:01 14 C 9.05 g/m*3 14 C 0 km/h
2371 07-09-2010 18:29:01 14 C 9.05 g/m*3 14 C 0 km/h
2372 07-09-2010 18:41:02 13.9 C 9.23 g/m*3 13.9 C 0 km/h
2373 07-09-2010 18:53:02 13.9 C 9.23 g/m*3 13.9 C 0 km/h
2374 07-09-2010 19:05:02 13.9 C 9.35 g/m*3 13.9 C 0 km/h
2375 07-09-2010 19:17:01 13.8 C 9.29 g/m*3 13.8 C 0 km/h
Sensor: Nr:Datum:Temp:Abs-Feuchte:Windchill:Wind:
Aussen-T/F 2376 07-09-2010 19:29:01 13.8 C 9.41 g/m*3 13.8 C 0 km/h
2377 07-09-2010 19:41:02 13.7 C 9.35 g/m*3 13.7 C 0 km/h
2378 07-09-2010 19:53:02 13.7 C 9.47 g/m*3 13.7 C 0 km/h
2379 07-09-2010 20:05:02 13.5 C 9.47 g/m*3 13.5 C 0 km/h
2380 07-09-2010 20:17:02 13.3 C 9.47 g/m*3 13.3 C 0 km/h
2381 07-09-2010 20:29:02 13.2 C 9.53 g/m*3 13.2 C 0 km/h
2382 07-09-2010 20:41:02 13.1 C 9.59 g/m*3 13.1 C 0 km/h
2383 07-09-2010 20:53:02 13.1 C 9.7 g/m*3 13.1 C 0 km/h
2384 07-09-2010 21:05:02 13 C 9.75 g/m*3 13 C 0 km/h
2385 07-09-2010 21:17:02 13 C 9.87 g/m*3 13 C 0 km/h
2386 07-09-2010 21:29:02 13 C 9.87 g/m*3 13 C 0 km/h
2387 07-09-2010 21:41:02 13 C 9.98 g/m*3 13 C 0 km/h
2388 07-09-2010 21:53:02 12.8 C 9.97 g/m*3 12.8 C 0 km/h
2389 07-09-2010 22:05:02 12.9 C 10.03 g/m*3 12.9 C 0 km/h
2390 07-09-2010 22:18:05 12.9 C 10.03 g/m*3 12.9 C 0 km/h
2391 07-09-2010 22:30:05 12.9 C 10.03 g/m*3 12.9 C 0 km/h
2392 07-09-2010 22:42:05 12.8 C 9.97 g/m*3 12.8 C 0 km/h
2393 07-09-2010 22:54:05 12.8 C 10.08 g/m*3 12.8 C 0 km/h
2394 07-09-2010 23:06:05 12.9 C 10.14 g/m*3 12.9 C 0 km/h
2395 07-09-2010 23:18:05 12.9 C 10.14 g/m*3 12.9 C 0 km/h
2396 07-09-2010 23:30:05 12.8 C 10.08 g/m*3 12.8 C 0 km/h
2397 07-09-2010 23:42:05 13 C 10.21 g/m*3 13 C 0 km/h
2398 07-09-2010 23:54:05 13 C 10.21 g/m*3 13 C 0 km/h
2399 08-09-2010 00:06:05 12.9 C 10.26 g/m*3 12.9 C 0 km/h
2400 08-09-2010 00:18:05 12.8 C 10.19 g/m*3 12.8 C 0 km/h
Sensor: Nr:Datum:Temp:Abs-Feuchte:Windchill:Wind:
Aussen-T/F 2401 08-09-2010 00:30:05 12.9 C 10.26 g/m*3 12.9 C 0 km/h
2402 08-09-2010 00:42:06 12.9 C 10.26 g/m*3 12.9 C 0 km/h
2403 08-09-2010 00:54:06 12.9 C 10.26 g/m*3 12.9 C 0 km/h
2404 08-09-2010 01:06:06 13 C 10.32 g/m*3 13 C 0 km/h
2405 08-09-2010 01:18:06 13 C 10.32 g/m*3 13 C 0 km/h
2406 08-09-2010 01:30:06 13 C 10.32 g/m*3 13 C 0 km/h
2407 08-09-2010 01:42:06 13 C 10.43 g/m*3 13 C 0 km/h
2408 08-09-2010 01:54:06 13 C 10.43 g/m*3 13 C 0 km/h
2409 08-09-2010 02:06:06 13.1 C 10.5 g/m*3 13.1 C 0 km/h
2410 08-09-2010 02:18:06 13.1 C 10.5 g/m*3 13.1 C 0 km/h
2411 08-09-2010 02:30:06 13.2 C 10.56 g/m*3 13.2 C 0 km/h
2412 08-09-2010 02:42:06 13.2 C 10.68 g/m*3 13.2 C 0 km/h
2413 08-09-2010 02:54:06 13.4 C 10.81 g/m*3 13.4 C 0 km/h
2414 08-09-2010 03:06:06 13.4 C 10.81 g/m*3 13.4 C 0 km/h
2415 08-09-2010 03:18:06 13.5 C 10.88 g/m*3 13.5 C 0 km/h
2416 08-09-2010 03:30:06 13.6 C 10.95 g/m*3 13.6 C 0 km/h
2417 08-09-2010 03:42:06 13.7 C 11.01 g/m*3 13.7 C 0 km/h
2418 08-09-2010 03:54:06 13.6 C 10.95 g/m*3 13.6 C 0 km/h
2419 08-09-2010 04:06:06 13.5 C 10.88 g/m*3 13.5 C 0 km/h
2420 08-09-2010 04:18:06 13.5 C 10.88 g/m*3 13.5 C 0 km/h
2421 08-09-2010 04:30:06 13.6 C 10.95 g/m*3 13.6 C 0 km/h
2422 08-09-2010 04:42:06 13.5 C 10.88 g/m*3 13.5 C 0 km/h
2423 08-09-2010 04:54:07 13.7 C 11.01 g/m*3 13.7 C 0 km/h
2424 08-09-2010 05:06:07 14.1 C 11.29 g/m*3 14.1 C 0 km/h
2425 08-09-2010 05:18:07 14 C 11.34 g/m*3 14 C 0 km/h
Sensor: Nr:Datum:Temp:Abs-Feuchte:Windchill:Wind:
Aussen-T/F 2426 08-09-2010 05:30:07 14.1 C 11.41 g/m*3 14.1 C 0 km/h
2427 08-09-2010 05:42:07 14.4 C 11.62 g/m*3 14.4 C 0 km/h
2428 08-09-2010 05:54:07 14.2 C 11.36 g/m*3 14.2 C 0 km/h
2429 08-09-2010 06:06:07 14.4 C 11.5 g/m*3 14.4 C 0 km/h
2430 08-09-2010 06:18:07 14.4 C 11.5 g/m*3 14.4 C 0 km/h
2431 08-09-2010 06:30:07 14.3 C 11.43 g/m*3 14.3 C 0 km/h
2432 08-09-2010 06:42:07 14.3 C 11.43 g/m*3 14.3 C 0 km/h
2433 08-09-2010 06:54:07 14.4 C 11.37 g/m*3 14.4 C 0 km/h
2434 08-09-2010 07:06:07 14.3 C 11.3 g/m*3 14.3 C 0 km/h
2435 08-09-2010 07:18:04 14.3 C 11.3 g/m*3 14.3 C 0 km/h
2436 08-09-2010 07:30:04 14.3 C 11.3 g/m*3 14.3 C 0 km/h
2437 08-09-2010 07:42:04 14.1 C 11.17 g/m*3 14.1 C 0 km/h
2438 08-09-2010 07:54:02 14.1 C 11.17 g/m*3 14.1 C 0 km/h
2439 08-09-2010 08:06:02 14.1 C 11.17 g/m*3 14.1 C 0 km/h
2440 08-09-2010 08:18:02 14.1 C 11.17 g/m*3 14.1 C 0 km/h
2441 08-09-2010 08:30:02 14.2 C 11.23 g/m*3 14.2 C 0 km/h
2442 08-09-2010 08:42:02 14.3 C 11.3 g/m*3 14.3 C 0 km/h
2443 08-09-2010 08:54:02 14.4 C 11.37 g/m*3 14.4 C 0 km/h
2444 08-09-2010 09:06:01 14.8 C 11.65 g/m*3 14.8 C 0 km/h
2445 08-09-2010 09:18:02 15 C 11.54 g/m*3 15 C 0 km/h
2446 08-09-2010 09:30:02 15.3 C 11.62 g/m*3 15.3 C 0 km/h
2447 08-09-2010 09:42:02 15.5 C 11.76 g/m*3 15.5 C 0 km/h
2448 08-09-2010 09:54:02 15.5 C 11.5 g/m*3 15.5 C 0 km/h
2449 08-09-2010 10:06:02 15.5 C 11.5 g/m*3 15.5 C 0 km/h
2450 08-09-2010 10:18:02 15.3 C 11.36 g/m*3 15.3 C 0 km/h
Sensor: Nr:Datum:Temp:Abs-Feuchte:Windchill:Wind:
Aussen-T/F 2451 08-09-2010 10:30:02 15.5 C 11.37 g/m*3 15.5 C 0 km/h
2452 08-09-2010 10:42:02 15.6 C 11.44 g/m*3 15.6 C 0 km/h
2453 08-09-2010 10:54:02 15.7 C 11.37 g/m*3 15.7 C 0 km/h
2454 08-09-2010 11:06:02 15.7 C 11.11 g/m*3 15.7 C 0 km/h
2455 08-09-2010 11:18:02 15.4 C 10.9 g/m*3 15.4 C 0 km/h
2456 08-09-2010 11:30:02 15.1 C 10.97 g/m*3 15.1 C 0 km/h
2457 08-09-2010 11:42:02 15 C 11.03 g/m*3 15 C 0 km/h
2458 08-09-2010 11:54:02 15 C 11.16 g/m*3 15 C 0 km/h
2459 08-09-2010 12:06:02 14.6 C 11.01 g/m*3 14.6 C 0 km/h
2460 08-09-2010 12:18:03 14.6 C 11.14 g/m*3 14.6 C 0 km/h
2461 08-09-2010 12:30:03 14.7 C 11.21 g/m*3 14.7 C 0 km/h
2462 08-09-2010 12:42:02 14.8 C 11.4 g/m*3 14.8 C 0 km/h
2463 08-09-2010 12:54:01 15 C 11.54 g/m*3 15 C 0 km/h
2464 08-09-2010 13:06:01 15.5 C 11.9 g/m*3 15.5 C 0 km/h
2465 08-09-2010 13:18:02 15.8 C 12.11 g/m*3 15.8 C 0 km/h
2466 08-09-2010 13:30:02 16.3 C 12.35 g/m*3 16.3 C 0 km/h
2467 08-09-2010 13:42:01 16.8 C 12.44 g/m*3 16.8 C 0 km/h
2468 08-09-2010 13:54:02 16.7 C 11.8 g/m*3 16.7 C 0 km/h
2469 08-09-2010 14:06:02 17.4 C 12 g/m*3 17.4 C 0 km/h
2470 08-09-2010 14:18:02 17.2 C 11.42 g/m*3 17.2 C 0 km/h
2471 08-09-2010 14:30:02 17 C 11.29 g/m*3 17 C 0 km/h
2472 08-09-2010 14:42:02 17.9 C 11.6 g/m*3 17.9 C 0 km/h
2473 08-09-2010 14:54:02 18.4 C 11.48 g/m*3 18.4 C 0 km/h
2474 08-09-2010 15:06:01 18.2 C 11.04 g/m*3 18.2 C 0 km/h
2475 08-09-2010 15:18:01 17.8 C 11.08 g/m*3 17.8 C 0 km/h
Sensor: Nr:Datum:Temp:Abs-Feuchte:Windchill:Wind:
Aussen-T/F 2476 08-09-2010 15:30:02 17.6 C 11.1 g/m*3 17.6 C 0 km/h
2477 08-09-2010 15:42:01 17.8 C 11.23 g/m*3 17.8 C 0 km/h
2478 08-09-2010 15:54:02 18.3 C 11.41 g/m*3 18.3 C 0 km/h
2479 08-09-2010 16:06:01 19 C 10.92 g/m*3 19 C 0 km/h
2480 08-09-2010 16:18:01 18.7 C 10.89 g/m*3 18.7 C 0 km/h
2481 08-09-2010 16:30:01 18.5 C 10.6 g/m*3 18.5 C 0 km/h
2482 08-09-2010 16:42:02 18.5 C 10.6 g/m*3 18.5 C 0 km/h
2483 08-09-2010 16:54:02 18 C 10.44 g/m*3 18 C 0 km/h
2484 08-09-2010 17:06:02 19.3 C 10.45 g/m*3 19.3 C 0 km/h
2485 08-09-2010 17:18:02 20.4 C 10.08 g/m*3 20.4 C 0 km/h
2486 08-09-2010 17:30:02 20.5 C 10.14 g/m*3 20.5 C 0 km/h
2487 08-09-2010 17:42:02 19.5 C 10.07 g/m*3 19.5 C 0 km/h
2488 08-09-2010 17:54:02 19.7 C 10.36 g/m*3 19.7 C 0 km/h
2489 08-09-2010 18:06:02 19.3 C 10.28 g/m*3 19.3 C 0 km/h
2490 08-09-2010 18:18:01 20.2 C 9.97 g/m*3 20.2 C 0 km/h
2491 08-09-2010 18:30:01 19.3 C 10.12 g/m*3 19.3 C 0 km/h
2492 08-09-2010 18:42:02 18.3 C 10.16 g/m*3 18.3 C 0 km/h
2493 08-09-2010 18:54:02 18.2 C 10.57 g/m*3 18.2 C 0 km/h
2494 08-09-2010 19:06:02 18.6 C 10.66 g/m*3 18.6 C 0 km/h
2495 08-09-2010 19:18:01 18.7 C 10.57 g/m*3 18.7 C 0 km/h
2496 08-09-2010 19:30:01 18.3 C 10.48 g/m*3 18.3 C 0 km/h
2497 08-09-2010 19:42:02 17.9 C 10.69 g/m*3 17.9 C 0 km/h
2498 08-09-2010 19:54:02 17.5 C 10.29 g/m*3 17.5 C 0 km/h
2499 08-09-2010 20:06:03 17.4 C 10.52 g/m*3 17.4 C 0 km/h
2500 08-09-2010 20:18:02 17 C 10.42 g/m*3 17 C 0 km/h
Sensor: Nr:Datum:Temp:Abs-Feuchte:Windchill:Wind:
Aussen-T/F 2501 08-09-2010 20:30:02 16.7 C 10.66 g/m*3 16.7 C 0 km/h
2502 08-09-2010 20:42:02 16.6 C 10.74 g/m*3 16.6 C 0 km/h
2503 08-09-2010 20:54:01 16.3 C 10.27 g/m*3 16.3 C 0 km/h
2504 08-09-2010 21:06:01 15.9 C 10.02 g/m*3 15.9 C 0 km/h
2505 08-09-2010 21:18:01 15.8 C 9.69 g/m*3 15.8 C 0 km/h
2506 08-09-2010 21:30:01 15.7 C 9.63 g/m*3 15.7 C 0 km/h
2507 08-09-2010 21:42:01 15.7 C 9.63 g/m*3 15.7 C 0 km/h
2508 08-09-2010 21:54:01 15.5 C 9.52 g/m*3 15.5 C 0 km/h
2509 08-09-2010 22:06:01 15.2 C 9.48 g/m*3 15.2 C 0 km/h
2510 08-09-2010 22:18:02 14.9 C 9.56 g/m*3 14.9 C 0 km/h
2511 08-09-2010 22:30:02 14.6 C 9.76 g/m*3 14.6 C 0 km/h
2512 08-09-2010 22:42:02 14.5 C 9.95 g/m*3 14.5 C 0 km/h
2513 08-09-2010 22:55:02 14.7 C 10.2 g/m*3 14.7 C 0 km/h
2514 08-09-2010 23:07:02 14.5 C 9.95 g/m*3 14.5 C 0 km/h
2515 08-09-2010 23:19:02 14.5 C 10.07 g/m*3 14.5 C 0 km/h
2516 08-09-2010 23:31:02 14.6 C 10.01 g/m*3 14.6 C 0 km/h
2517 08-09-2010 23:43:02 14.5 C 10.07 g/m*3 14.5 C 0 km/h
2518 08-09-2010 23:55:03 14.3 C 9.95 g/m*3 14.3 C 0 km/h
2519 09-09-2010 00:07:03 14.4 C 10.14 g/m*3 14.4 C 0 km/h
2520 09-09-2010 00:19:03 14.4 C 10.14 g/m*3 14.4 C 0 km/h
2521 09-09-2010 00:31:03 14.1 C 10.07 g/m*3 14.1 C 0 km/h
2522 09-09-2010 00:43:03 14.5 C 10.32 g/m*3 14.5 C 0 km/h
2523 09-09-2010 00:55:03 14.5 C 10.32 g/m*3 14.5 C 0 km/h
2524 09-09-2010 01:07:03 14.8 C 10.39 g/m*3 14.8 C 0 km/h
2525 09-09-2010 01:19:03 15 C 10 g/m*3 15 C 0 km/h
Sensor: Nr:Datum:Temp:Abs-Feuchte:Windchill:Wind:
Aussen-T/F 2526 09-09-2010 01:31:03 15.1 C 10.06 g/m*3 15.1 C 0 km/h
2527 09-09-2010 01:43:03 15.2 C 9.99 g/m*3 15.2 C 0 km/h
2528 09-09-2010 01:55:03 15.1 C 9.93 g/m*3 15.1 C 0 km/h
2529 09-09-2010 02:07:03 15.2 C 9.99 g/m*3 15.2 C 0 km/h
2530 09-09-2010 02:19:03 15.1 C 9.93 g/m*3 15.1 C 0 km/h
2531 09-09-2010 02:31:03 15.1 C 9.93 g/m*3 15.1 C 0 km/h
2532 09-09-2010 02:43:03 15.1 C 9.93 g/m*3 15.1 C 0 km/h
2533 09-09-2010 02:55:03 15.2 C 9.86 g/m*3 15.2 C 0 km/h
2534 09-09-2010 03:07:03 15.2 C 9.86 g/m*3 15.2 C 0 km/h
2535 09-09-2010 03:19:03 15.3 C 9.79 g/m*3 15.3 C 0 km/h
2536 09-09-2010 03:31:03 15.3 C 9.79 g/m*3 15.3 C 0 km/h
2537 09-09-2010 03:43:03 15.4 C 9.72 g/m*3 15.4 C 0 km/h
2538 09-09-2010 03:55:04 15.4 C 9.72 g/m*3 15.4 C 0 km/h
2539 09-09-2010 04:07:04 15.4 C 9.59 g/m*3 15.4 C 0 km/h
2540 09-09-2010 04:19:04 15.2 C 9.48 g/m*3 15.2 C 0 km/h
2541 09-09-2010 04:31:04 15.2 C 9.35 g/m*3 15.2 C 0 km/h
2542 09-09-2010 04:43:04 15.2 C 9.22 g/m*3 15.2 C 0 km/h
2543 09-09-2010 04:55:04 15.1 C 9.03 g/m*3 15.1 C 0 km/h
2544 09-09-2010 05:07:04 14.9 C 9.05 g/m*3 14.9 C 0 km/h
2545 09-09-2010 05:19:04 14.9 C 9.05 g/m*3 14.9 C 0 km/h
2546 09-09-2010 05:31:04 14.9 C 9.05 g/m*3 14.9 C 0 km/h
2547 09-09-2010 05:43:04 14.9 C 9.05 g/m*3 14.9 C 0 km/h
2548 09-09-2010 05:55:04 14.9 C 8.92 g/m*3 14.9 C 0 km/h
2549 09-09-2010 06:07:04 14.8 C 8.87 g/m*3 14.8 C 0 km/h
2550 09-09-2010 06:19:04 14.8 C 8.87 g/m*3 14.8 C 0 km/h
Sensor: Nr:Datum:Temp:Abs-Feuchte:Windchill:Wind:
Aussen-T/F 2551 09-09-2010 06:31:04 14.8 C 8.87 g/m*3 14.8 C 0 km/h
2552 09-09-2010 06:43:04 14.8 C 8.87 g/m*3 14.8 C 0 km/h
2553 09-09-2010 06:55:04 14.7 C 8.94 g/m*3 14.7 C 0 km/h
2554 09-09-2010 07:07:04 14.5 C 9.08 g/m*3 14.5 C 0 km/h
2555 09-09-2010 07:19:04 14.5 C 9.08 g/m*3 14.5 C 0 km/h
2556 09-09-2010 07:31:04 14.6 C 9.13 g/m*3 14.6 C 0 km/h
2557 09-09-2010 07:43:04 14.6 C 9.01 g/m*3 14.6 C 0 km/h
2558 09-09-2010 07:55:04 14.7 C 9.07 g/m*3 14.7 C 0 km/h
2559 09-09-2010 08:07:02 14.7 C 9.07 g/m*3 14.7 C 0 km/h
2560 09-09-2010 08:19:02 14.8 C 9.12 g/m*3 14.8 C 0 km/h
2561 09-09-2010 08:31:02 14.8 C 9.12 g/m*3 14.8 C 0 km/h
2562 09-09-2010 08:43:02 14.8 C 9.12 g/m*3 14.8 C 0 km/h
2563 09-09-2010 08:55:02 14.9 C 9.05 g/m*3 14.9 C 0 km/h
2564 09-09-2010 09:07:02 14.9 C 9.05 g/m*3 14.9 C 0 km/h
2565 09-09-2010 09:19:03 14.9 C 9.05 g/m*3 14.9 C 0 km/h
2566 09-09-2010 09:31:02 15.2 C 9.09 g/m*3 15.2 C 0 km/h
2567 09-09-2010 09:43:02 15.5 C 9.12 g/m*3 15.5 C 0 km/h
2568 09-09-2010 09:55:01 15.8 C 9.15 g/m*3 15.8 C 0 km/h
2569 09-09-2010 10:07:02 16 C 8.99 g/m*3 16 C 0 km/h
2570 09-09-2010 10:19:02 16.4 C 9.07 g/m*3 16.4 C 0 km/h
2571 09-09-2010 10:31:01 16.8 C 9.15 g/m*3 16.8 C 0 km/h
2572 09-09-2010 10:43:01 17.2 C 9.08 g/m*3 17.2 C 0 km/h
2573 09-09-2010 10:55:02 17.4 C 9.19 g/m*3 17.4 C 0 km/h
2574 09-09-2010 11:07:01 17.5 C 9.09 g/m*3 17.5 C 0 km/h
2575 09-09-2010 11:19:02 17.5 C 9.09 g/m*3 17.5 C 0 km/h
Sensor: Nr:Datum:Temp:Abs-Feuchte:Windchill:Wind:
Aussen-T/F 2576 09-09-2010 11:31:02 17.8 C 8.8 g/m*3 17.8 C 0 km/h
2577 09-09-2010 11:43:02 17.8 C 8.65 g/m*3 17.8 C 0 km/h
2578 09-09-2010 11:55:02 18.3 C 8.76 g/m*3 18.3 C 0 km/h
2579 09-09-2010 12:07:01 18.5 C 8.23 g/m*3 18.5 C 0 km/h
2580 09-09-2010 12:19:02 18.6 C 8.28 g/m*3 18.6 C 0 km/h
2581 09-09-2010 12:31:02 18.6 C 8.12 g/m*3 18.6 C 0 km/h
2582 09-09-2010 12:43:02 19 C 8.15 g/m*3 19 C 0 km/h
2583 09-09-2010 12:55:02 18.5 C 8.07 g/m*3 18.5 C 0 km/h
2584 09-09-2010 13:07:02 18.6 C 8.28 g/m*3 18.6 C 0 km/h
2585 09-09-2010 13:19:02 18.7 C 8.17 g/m*3 18.7 C 0 km/h
2586 09-09-2010 13:31:02 18.7 C 8.01 g/m*3 18.7 C 0 km/h
2587 09-09-2010 13:43:02 19 C 8.15 g/m*3 19 C 0 km/h
2588 09-09-2010 13:55:02 19 C 8.47 g/m*3 19 C 0 km/h
2589 09-09-2010 14:07:02 18.6 C 8.12 g/m*3 18.6 C 0 km/h
2590 09-09-2010 14:19:02 18.4 C 8.18 g/m*3 18.4 C 0 km/h
2591 09-09-2010 14:31:02 18.8 C 8.86 g/m*3 18.8 C 0 km/h
2592 09-09-2010 14:43:02 19.3 C 8.79 g/m*3 19.3 C 0 km/h
2593 09-09-2010 14:55:02 19.8 C 9.05 g/m*3 19.8 C 0 km/h
2594 09-09-2010 15:07:02 20.3 C 8.97 g/m*3 20.3 C 0 km/h
2595 09-09-2010 15:19:02 20.3 C 8.97 g/m*3 20.3 C 0 km/h
2596 09-09-2010 15:31:02 19.5 C 8.89 g/m*3 19.5 C 0 km/h
2597 09-09-2010 15:43:02 18.7 C 9.29 g/m*3 18.7 C 0 km/h
2598 09-09-2010 15:55:02 18.1 C 9.43 g/m*3 18.1 C 0 km/h
2599 09-09-2010 16:07:01 17.7 C 9.51 g/m*3 17.7 C 0 km/h
2600 09-09-2010 16:19:02 16.1 C 10.14 g/m*3 16.1 C 0 km/h
Sensor: Nr:Datum:Temp:Abs-Feuchte:Windchill:Wind:
Aussen-T/F 2601 09-09-2010 16:31:01 16.1 C 10.42 g/m*3 16.1 C 0 km/h
2602 09-09-2010 16:43:01 17.1 C 11.79 g/m*3 17.1 C 0 km/h
2603 09-09-2010 16:55:02 18.5 C 12.82 g/m*3 18.5 C 0 km/h
2604 09-09-2010 17:07:02 18.2 C 12.28 g/m*3 18.2 C 0 km/h
2605 09-09-2010 17:19:02 18 C 12.13 g/m*3 18 C 0 km/h
2606 09-09-2010 17:31:02 17.9 C 11.45 g/m*3 17.9 C 0 km/h
2607 09-09-2010 17:43:02 17.8 C 11.08 g/m*3 17.8 C 0 km/h
2608 09-09-2010 17:55:02 17.7 C 11.16 g/m*3 17.7 C 0 km/h
2609 09-09-2010 18:07:02 17.7 C 11.32 g/m*3 17.7 C 0 km/h
2610 09-09-2010 18:19:01 17.7 C 10.86 g/m*3 17.7 C 0 km/h
2611 09-09-2010 18:31:02 17.7 C 10.41 g/m*3 17.7 C 0 km/h
2612 09-09-2010 18:43:03 17.9 C 10.38 g/m*3 17.9 C 0 km/h
2613 09-09-2010 18:55:02 17.5 C 9.39 g/m*3 17.5 C 0 km/h
2614 09-09-2010 19:07:02 17.2 C 9.37 g/m*3 17.2 C 0 km/h
2615 09-09-2010 19:19:01 16.8 C 9.44 g/m*3 16.8 C 0 km/h
2616 09-09-2010 19:31:02 16.5 C 9.55 g/m*3 16.5 C 0 km/h
2617 09-09-2010 19:43:02 16.2 C 9.52 g/m*3 16.2 C 0 km/h
2618 09-09-2010 19:55:01 16 C 9.4 g/m*3 16 C 0 km/h
2619 09-09-2010 20:07:02 15.9 C 9.48 g/m*3 15.9 C 0 km/h
2620 09-09-2010 20:19:02 15.8 C 9.42 g/m*3 15.8 C 0 km/h
2621 09-09-2010 20:31:01 15.4 C 9.72 g/m*3 15.4 C 0 km/h
2622 09-09-2010 20:43:01 15 C 10 g/m*3 15 C 0 km/h
2623 09-09-2010 20:55:01 14.9 C 10.2 g/m*3 14.9 C 0 km/h
2624 09-09-2010 21:07:01 14.9 C 10.32 g/m*3 14.9 C 0 km/h
2625 09-09-2010 21:19:02 14.9 C 10.32 g/m*3 14.9 C 0 km/h
Sensor: Nr:Datum:Temp:Abs-Feuchte:Windchill:Wind:
Aussen-T/F 2626 09-09-2010 21:31:01 14.8 C 10.26 g/m*3 14.8 C 0 km/h
2627 09-09-2010 21:43:01 14.7 C 10.2 g/m*3 14.7 C 0 km/h
2628 09-09-2010 21:55:02 14.7 C 10.2 g/m*3 14.7 C 0 km/h
2629 09-09-2010 22:07:02 14.7 C 10.2 g/m*3 14.7 C 0 km/h
2630 09-09-2010 22:19:01 14.8 C 10.13 g/m*3 14.8 C 0 km/h
2631 09-09-2010 22:31:01 14.8 C 10.26 g/m*3 14.8 C 0 km/h
2632 09-09-2010 22:43:01 14.7 C 10.2 g/m*3 14.7 C 0 km/h
2633 09-09-2010 22:56:02 14.7 C 10.07 g/m*3 14.7 C 0 km/h
2634 09-09-2010 23:08:02 14.8 C 10.01 g/m*3 14.8 C 0 km/h
2635 09-09-2010 23:20:03 15 C 9.75 g/m*3 15 C 0 km/h
2636 09-09-2010 23:32:03 15 C 9.62 g/m*3 15 C 0 km/h
2637 09-09-2010 23:44:03 15.1 C 9.68 g/m*3 15.1 C 0 km/h
2638 09-09-2010 23:56:03 15 C 9.49 g/m*3 15 C 0 km/h
2639 10-09-2010 00:08:03 14.9 C 9.81 g/m*3 14.9 C 0 km/h
2640 10-09-2010 00:20:03 14.8 C 9.88 g/m*3 14.8 C 0 km/h
2641 10-09-2010 00:32:03 14.6 C 10.01 g/m*3 14.6 C 0 km/h
2642 10-09-2010 00:44:03 14.6 C 10.01 g/m*3 14.6 C 0 km/h
2643 10-09-2010 00:56:03 14.4 C 9.89 g/m*3 14.4 C 0 km/h
2644 10-09-2010 01:08:03 14.3 C 9.83 g/m*3 14.3 C 0 km/h
2645 10-09-2010 01:20:03 14.1 C 9.71 g/m*3 14.1 C 0 km/h
2646 10-09-2010 01:32:03 13.9 C 9.71 g/m*3 13.9 C 0 km/h
2647 10-09-2010 01:44:03 13.8 C 9.77 g/m*3 13.8 C 0 km/h
2648 10-09-2010 01:56:03 13.9 C 9.83 g/m*3 13.9 C 0 km/h
2649 10-09-2010 02:08:03 13.8 C 9.89 g/m*3 13.8 C 0 km/h
2650 10-09-2010 02:20:03 13.8 C 9.89 g/m*3 13.8 C 0 km/h
Sensor: Nr:Datum:Temp:Abs-Feuchte:Windchill:Wind:
Aussen-T/F 2651 10-09-2010 02:32:03 13.9 C 10.07 g/m*3 13.9 C 0 km/h
2652 10-09-2010 02:44:03 14 C 10.01 g/m*3 14 C 0 km/h
2653 10-09-2010 02:56:03 14 C 9.89 g/m*3 14 C 0 km/h
2654 10-09-2010 03:08:03 14 C 10.01 g/m*3 14 C 0 km/h
2655 10-09-2010 03:20:03 14 C 10.01 g/m*3 14 C 0 km/h
2656 10-09-2010 03:32:04 13.9 C 10.07 g/m*3 13.9 C 0 km/h
2657 10-09-2010 03:44:04 13.8 C 10.13 g/m*3 13.8 C 0 km/h
2658 10-09-2010 03:56:04 13.8 C 10.13 g/m*3 13.8 C 0 km/h
2659 10-09-2010 04:08:04 13.9 C 10.31 g/m*3 13.9 C 0 km/h
2660 10-09-2010 04:20:04 14 C 10.25 g/m*3 14 C 0 km/h
2661 10-09-2010 04:32:04 13.9 C 10.31 g/m*3 13.9 C 0 km/h
2662 10-09-2010 04:44:04 13.8 C 10.25 g/m*3 13.8 C 0 km/h
2663 10-09-2010 04:56:04 13.6 C 10.12 g/m*3 13.6 C 0 km/h
2664 10-09-2010 05:08:04 13.4 C 10 g/m*3 13.4 C 0 km/h
2665 10-09-2010 05:20:04 13.2 C 9.99 g/m*3 13.2 C 0 km/h
2666 10-09-2010 05:32:04 13.1 C 10.04 g/m*3 13.1 C 0 km/h
2667 10-09-2010 05:44:04 12.8 C 9.97 g/m*3 12.8 C 0 km/h
2668 10-09-2010 05:56:04 12.8 C 9.97 g/m*3 12.8 C 0 km/h
2669 10-09-2010 06:08:04 13.2 C 10.33 g/m*3 13.2 C 0 km/h
2670 10-09-2010 06:20:04 13 C 10.09 g/m*3 13 C 0 km/h
2671 10-09-2010 06:32:04 13.1 C 10.27 g/m*3 13.1 C 0 km/h
2672 10-09-2010 06:44:04 13.1 C 10.27 g/m*3 13.1 C 0 km/h
2673 10-09-2010 06:56:04 13.2 C 10.22 g/m*3 13.2 C 0 km/h
2674 10-09-2010 07:08:04 13.1 C 10.16 g/m*3 13.1 C 0 km/h
2675 10-09-2010 07:20:04 13.2 C 9.99 g/m*3 13.2 C 0 km/h
Sensor: Nr:Datum:Temp:Abs-Feuchte:Windchill:Wind:
Aussen-T/F 2676 10-09-2010 07:32:05 13.3 C 9.7 g/m*3 13.3 C 0 km/h
2677 10-09-2010 07:44:05 13.2 C 9.64 g/m*3 13.2 C 0 km/h
2678 10-09-2010 07:56:02 13.1 C 9.7 g/m*3 13.1 C 0 km/h
2679 10-09-2010 08:08:02 13.1 C 9.81 g/m*3 13.1 C 0 km/h
2680 10-09-2010 08:20:02 13.1 C 9.93 g/m*3 13.1 C 0 km/h
2681 10-09-2010 08:32:02 13.2 C 9.99 g/m*3 13.2 C 0 km/h
2682 10-09-2010 08:44:03 13.5 C 10.06 g/m*3 13.5 C 0 km/h
2683 10-09-2010 08:56:02 13.7 C 9.95 g/m*3 13.7 C 0 km/h
2684 10-09-2010 09:08:02 14 C 9.77 g/m*3 14 C 0 km/h
2685 10-09-2010 09:20:02 14.4 C 9.64 g/m*3 14.4 C 0 km/h
2686 10-09-2010 09:32:02 14.5 C 9.58 g/m*3 14.5 C 0 km/h
2687 10-09-2010 09:44:02 14.9 C 9.43 g/m*3 14.9 C 0 km/h
2688 10-09-2010 09:56:02 15.2 C 9.22 g/m*3 15.2 C 0 km/h
2689 10-09-2010 10:08:02 15.5 C 9.39 g/m*3 15.5 C 0 km/h
2690 10-09-2010 10:20:03 15.7 C 9.23 g/m*3 15.7 C 0 km/h
2691 10-09-2010 10:32:02 16.2 C 9.38 g/m*3 16.2 C 0 km/h
2692 10-09-2010 10:44:02 16.6 C 9.46 g/m*3 16.6 C 0 km/h
2693 10-09-2010 10:56:02 16.8 C 9.29 g/m*3 16.8 C 0 km/h
2694 10-09-2010 11:08:02 17.2 C 9.37 g/m*3 17.2 C 0 km/h
2695 10-09-2010 11:20:02 17.7 C 9.51 g/m*3 17.7 C 0 km/h
2696 10-09-2010 11:32:02 18.1 C 9.12 g/m*3 18.1 C 0 km/h
2697 10-09-2010 11:44:02 18.1 C 8.96 g/m*3 18.1 C 0 km/h
2698 10-09-2010 11:56:02 18.3 C 9.07 g/m*3 18.3 C 0 km/h
2699 10-09-2010 12:08:01 18.6 C 9.07 g/m*3 18.6 C 0 km/h
2700 10-09-2010 12:20:02 18.7 C 9.13 g/m*3 18.7 C 0 km/h
Sensor: Nr:Datum:Temp:Abs-Feuchte:Windchill:Wind:
Aussen-T/F 2701 10-09-2010 12:32:02 18.4 C 9.12 g/m*3 18.4 C 0 km/h
2702 10-09-2010 12:44:02 18.8 C 9.34 g/m*3 18.8 C 0 km/h
2703 10-09-2010 12:56:02 19.2 C 9.23 g/m*3 19.2 C 0 km/h
2704 10-09-2010 13:08:03 19.5 C 8.89 g/m*3 19.5 C 0 km/h
2705 10-09-2010 13:20:02 19.4 C 8.84 g/m*3 19.4 C 0 km/h
2706 10-09-2010 13:32:02 19 C 8.47 g/m*3 19 C 0 km/h
2707 10-09-2010 13:44:02 19 C 8.47 g/m*3 19 C 0 km/h
2708 10-09-2010 13:56:01 19 C 8.64 g/m*3 19 C 0 km/h
2709 10-09-2010 14:08:02 19.3 C 8.79 g/m*3 19.3 C 0 km/h
2710 10-09-2010 14:20:01 19.9 C 8.76 g/m*3 19.9 C 0 km/h
2711 10-09-2010 14:32:01 20.4 C 8.67 g/m*3 20.4 C 0 km/h
2712 10-09-2010 14:44:01 20.2 C 8.74 g/m*3 20.2 C 0 km/h
2713 10-09-2010 14:56:01 19.9 C 8.76 g/m*3 19.9 C 0 km/h
2714 10-09-2010 15:08:02 20 C 8.64 g/m*3 20 C 0 km/h
2715 10-09-2010 15:20:02 20.6 C 8.95 g/m*3 20.6 C 0 km/h
2716 10-09-2010 15:32:01 20.9 C 8.38 g/m*3 20.9 C 0 km/h
2717 10-09-2010 15:44:01 21.2 C 8.34 g/m*3 21.2 C 0 km/h
2718 10-09-2010 15:56:02 21.4 C 8.62 g/m*3 21.4 C 0 km/h
2719 10-09-2010 16:08:01 21.2 C 8.34 g/m*3 21.2 C 0 km/h
2720 10-09-2010 16:20:02 20.8 C 8.33 g/m*3 20.8 C 0 km/h
2721 10-09-2010 16:32:01 21.1 C 8.48 g/m*3 21.1 C 0 km/h
2722 10-09-2010 16:44:01 21.2 C 8.71 g/m*3 21.2 C 0 km/h
2723 10-09-2010 16:56:02 21.2 C 8.34 g/m*3 21.2 C 0 km/h
2724 10-09-2010 17:08:02 20.9 C 8.56 g/m*3 20.9 C 0 km/h
2725 10-09-2010 17:20:02 20.5 C 8.9 g/m*3 20.5 C 0 km/h
Sensor: Nr:Datum:Temp:Abs-Feuchte:Windchill:Wind:
Aussen-T/F 2726 10-09-2010 17:32:03 20.1 C 9.04 g/m*3 20.1 C 0 km/h
2727 10-09-2010 17:44:03 19.8 C 9.39 g/m*3 19.8 C 0 km/h
2728 10-09-2010 17:56:02 19.6 C 8.95 g/m*3 19.6 C 0 km/h
2729 10-09-2010 18:08:02 19.4 C 9.18 g/m*3 19.4 C 0 km/h
2730 10-09-2010 18:20:02 18.9 C 9.56 g/m*3 18.9 C 0 km/h
2731 10-09-2010 18:32:02 17.8 C 10.17 g/m*3 17.8 C 0 km/h
2732 10-09-2010 18:44:02 16.8 C 10.72 g/m*3 16.8 C 0 km/h
2733 10-09-2010 18:56:02 16.4 C 11.03 g/m*3 16.4 C 0 km/h
2734 10-09-2010 19:08:02 16.4 C 11.31 g/m*3 16.4 C 0 km/h
2735 10-09-2010 19:20:02 16.8 C 11.72 g/m*3 16.8 C 0 km/h
2736 10-09-2010 19:32:02 16.3 C 11.38 g/m*3 16.3 C 0 km/h
2737 10-09-2010 19:44:02 16 C 11.31 g/m*3 16 C 0 km/h
2738 10-09-2010 19:56:02 15.8 C 11.44 g/m*3 15.8 C 0 km/h
2739 10-09-2010 20:08:03 15.8 C 11.58 g/m*3 15.8 C 0 km/h
2740 10-09-2010 20:20:02 15.7 C 11.51 g/m*3 15.7 C 0 km/h
2741 10-09-2010 20:32:03 15.6 C 11.57 g/m*3 15.6 C 0 km/h
2742 10-09-2010 20:44:03 15.6 C 11.57 g/m*3 15.6 C 0 km/h
2743 10-09-2010 20:56:02 15.7 C 11.64 g/m*3 15.7 C 0 km/h
2744 10-09-2010 21:08:01 15.8 C 11.71 g/m*3 15.8 C 0 km/h
2745 10-09-2010 21:20:02 15.8 C 11.71 g/m*3 15.8 C 0 km/h
2746 10-09-2010 21:32:02 15.8 C 11.71 g/m*3 15.8 C 0 km/h
2747 10-09-2010 21:44:02 15.8 C 11.71 g/m*3 15.8 C 0 km/h
2748 10-09-2010 21:56:02 15.8 C 11.58 g/m*3 15.8 C 0 km/h
2749 10-09-2010 22:08:01 15.8 C 11.58 g/m*3 15.8 C 0 km/h
2750 10-09-2010 22:20:02 15.8 C 11.58 g/m*3 15.8 C 0 km/h
Sensor: Nr:Datum:Temp:Abs-Feuchte:Windchill:Wind:
Aussen-T/F 2751 10-09-2010 22:32:01 15.7 C 11.51 g/m*3 15.7 C 0 km/h
2752 10-09-2010 22:44:01 15.6 C 11.3 g/m*3 15.6 C 0 km/h
2753 10-09-2010 22:57:03 15.5 C 11.24 g/m*3 15.5 C 0 km/h
2754 10-09-2010 23:09:03 15.6 C 11.3 g/m*3 15.6 C 0 km/h
2755 10-09-2010 23:21:03 15.5 C 11.24 g/m*3 15.5 C 0 km/h
2756 10-09-2010 23:33:03 15.5 C 11.24 g/m*3 15.5 C 0 km/h
2757 10-09-2010 23:45:03 15.4 C 11.17 g/m*3 15.4 C 0 km/h
2758 10-09-2010 23:57:03 15.3 C 10.97 g/m*3 15.3 C 0 km/h
2759 11-09-2010 00:09:03 15.2 C 10.9 g/m*3 15.2 C 0 km/h
2760 11-09-2010 00:21:03 15.2 C 10.9 g/m*3 15.2 C 0 km/h
2761 11-09-2010 00:33:03 15.1 C 10.84 g/m*3 15.1 C 0 km/h
2762 11-09-2010 00:45:03 15.1 C 10.84 g/m*3 15.1 C 0 km/h
2763 11-09-2010 00:57:03 15.1 C 10.84 g/m*3 15.1 C 0 km/h
2764 11-09-2010 01:09:03 15.1 C 10.84 g/m*3 15.1 C 0 km/h
2765 11-09-2010 01:21:03 15 C 10.77 g/m*3 15 C 0 km/h
2766 11-09-2010 01:33:03 15 C 10.77 g/m*3 15 C 0 km/h
2767 11-09-2010 01:45:04 15 C 10.77 g/m*3 15 C 0 km/h
2768 11-09-2010 01:57:04 14.9 C 10.83 g/m*3 14.9 C 0 km/h
2769 11-09-2010 02:09:04 14.9 C 10.83 g/m*3 14.9 C 0 km/h
2770 11-09-2010 02:21:04 14.8 C 10.77 g/m*3 14.8 C 0 km/h
2771 11-09-2010 02:33:04 14.7 C 10.58 g/m*3 14.7 C 0 km/h
2772 11-09-2010 02:45:04 14.7 C 10.7 g/m*3 14.7 C 0 km/h
2773 11-09-2010 02:57:04 14.6 C 10.76 g/m*3 14.6 C 0 km/h
2774 11-09-2010 03:09:04 14.4 C 10.63 g/m*3 14.4 C 0 km/h
2775 11-09-2010 03:21:04 14.3 C 10.57 g/m*3 14.3 C 0 km/h
Sensor: Nr:Datum:Temp:Abs-Feuchte:Windchill:Wind:
Aussen-T/F 2776 11-09-2010 03:33:04 14.1 C 10.44 g/m*3 14.1 C 0 km/h
2777 11-09-2010 03:45:04 14 C 10.37 g/m*3 14 C 0 km/h
2778 11-09-2010 03:57:04 13.6 C 10.12 g/m*3 13.6 C 0 km/h
2779 11-09-2010 04:09:04 13.5 C 10.06 g/m*3 13.5 C 0 km/h
2780 11-09-2010 04:21:04 13.3 C 9.94 g/m*3 13.3 C 0 km/h
2781 11-09-2010 04:33:04 13.1 C 9.81 g/m*3 13.1 C 0 km/h
2782 11-09-2010 04:45:04 13 C 9.75 g/m*3 13 C 0 km/h
2783 11-09-2010 04:57:04 12.8 C 9.74 g/m*3 12.8 C 0 km/h
2784 11-09-2010 05:09:04 12.6 C 9.62 g/m*3 12.6 C 0 km/h
2785 11-09-2010 05:21:04 12.5 C 9.68 g/m*3 12.5 C 0 km/h
2786 11-09-2010 05:33:04 12.6 C 9.74 g/m*3 12.6 C 0 km/h
2787 11-09-2010 05:45:05 12.7 C 9.91 g/m*3 12.7 C 0 km/h
2788 11-09-2010 05:57:05 12.8 C 9.97 g/m*3 12.8 C 0 km/h
2789 11-09-2010 06:09:05 13 C 10.09 g/m*3 13 C 0 km/h
2790 11-09-2010 06:21:05 13.1 C 10.16 g/m*3 13.1 C 0 km/h
2791 11-09-2010 06:33:05 12.8 C 9.97 g/m*3 12.8 C 0 km/h
2792 11-09-2010 06:45:05 12.5 C 9.78 g/m*3 12.5 C 0 km/h
2793 11-09-2010 06:57:05 12.3 C 9.56 g/m*3 12.3 C 0 km/h
2794 11-09-2010 07:09:05 12.1 C 9.44 g/m*3 12.1 C 0 km/h
2795 11-09-2010 07:21:05 12.1 C 9.44 g/m*3 12.1 C 0 km/h
2796 11-09-2010 07:33:05 12.1 C 9.54 g/m*3 12.1 C 0 km/h
2797 11-09-2010 07:45:05 12.1 C 9.54 g/m*3 12.1 C 0 km/h
2798 11-09-2010 07:57:05 12.4 C 9.72 g/m*3 12.4 C 0 km/h
2799 11-09-2010 08:09:05 12.7 C 10.02 g/m*3 12.7 C 0 km/h
2800 11-09-2010 08:21:03 13 C 10.21 g/m*3 13 C 0 km/h
Sensor: Nr:Datum:Temp:Abs-Feuchte:Windchill:Wind:
Aussen-T/F 2801 11-09-2010 08:33:02 13 C 10.21 g/m*3 13 C 0 km/h
2802 11-09-2010 08:45:02 13.1 C 10.27 g/m*3 13.1 C 0 km/h
2803 11-09-2010 08:57:02 13.4 C 10.46 g/m*3 13.4 C 0 km/h
2804 11-09-2010 09:09:02 13.4 C 10.35 g/m*3 13.4 C 0 km/h
2805 11-09-2010 09:21:02 13.5 C 10.41 g/m*3 13.5 C 0 km/h
2806 11-09-2010 09:33:02 13.7 C 10.54 g/m*3 13.7 C 0 km/h
2807 11-09-2010 09:45:01 13.9 C 10.67 g/m*3 13.9 C 0 km/h
2808 11-09-2010 09:57:01 14.3 C 10.81 g/m*3 14.3 C 0 km/h
2809 11-09-2010 10:09:02 14.7 C 11.08 g/m*3 14.7 C 0 km/h
2810 11-09-2010 10:21:01 15 C 11.03 g/m*3 15 C 0 km/h
2811 11-09-2010 10:33:01 15.6 C 11.3 g/m*3 15.6 C 0 km/h
2812 11-09-2010 10:45:01 16.2 C 11.45 g/m*3 16.2 C 0 km/h
2813 11-09-2010 10:57:01 16.8 C 11.72 g/m*3 16.8 C 0 km/h
2814 11-09-2010 11:09:01 17.1 C 11.5 g/m*3 17.1 C 0 km/h
2815 11-09-2010 11:21:02 17.5 C 11.18 g/m*3 17.5 C 0 km/h
2816 11-09-2010 11:33:01 18.2 C 11.35 g/m*3 18.2 C 0 km/h
2817 11-09-2010 11:45:03 19.1 C 11.31 g/m*3 19.1 C 0 km/h
2818 11-09-2010 11:57:03 19.3 C 11.44 g/m*3 19.3 C 0 km/h
2819 11-09-2010 12:09:02 19.2 C 9.89 g/m*3 19.2 C 0 km/h
2820 11-09-2010 12:21:02 19.6 C 9.96 g/m*3 19.6 C 0 km/h
2821 11-09-2010 12:33:02 19.9 C 9.45 g/m*3 19.9 C 0 km/h
2822 11-09-2010 12:45:02 20.2 C 9.27 g/m*3 20.2 C 0 km/h
2823 11-09-2010 12:57:02 20.6 C 9.31 g/m*3 20.6 C 0 km/h
2824 11-09-2010 13:09:02 20.9 C 9.11 g/m*3 20.9 C 0 km/h
2825 11-09-2010 13:21:02 21.3 C 8.76 g/m*3 21.3 C 0 km/h
Sensor: Nr:Datum:Temp:Abs-Feuchte:Windchill:Wind:
Aussen-T/F 2826 11-09-2010 13:33:01 21.7 C 8.97 g/m*3 21.7 C 0 km/h
2827 11-09-2010 13:45:02 22.2 C 8.44 g/m*3 22.2 C 0 km/h
2828 11-09-2010 13:57:03 22.7 C 8.69 g/m*3 22.7 C 0 km/h
2829 11-09-2010 14:09:01 23.3 C 8.15 g/m*3 23.3 C 0 km/h
2830 11-09-2010 14:21:01 23.9 C 8.44 g/m*3 23.9 C 0 km/h
2831 11-09-2010 14:33:02 24.3 C 8.19 g/m*3 24.3 C 0 km/h
2832 11-09-2010 14:45:02 24.5 C 7.83 g/m*3 24.5 C 0 km/h
2833 11-09-2010 14:57:02 25 C 8.06 g/m*3 25 C 0 km/h
2834 11-09-2010 15:09:02 25.6 C 8.09 g/m*3 25.6 C 0 km/h
2835 11-09-2010 15:21:02 25.7 C 7.9 g/m*3 25.7 C 0 km/h
2836 11-09-2010 15:33:02 25.6 C 8.57 g/m*3 25.6 C 0 km/h
2837 11-09-2010 15:45:02 26.5 C 7.51 g/m*3 26.5 C 0 km/h
2838 11-09-2010 15:57:02 26.8 C 7.13 g/m*3 26.8 C 0 km/h
2839 11-09-2010 16:09:02 25.7 C 7.66 g/m*3 25.7 C 0 km/h
2840 11-09-2010 16:21:02 25.3 C 9.13 g/m*3 25.3 C 0 km/h
2841 11-09-2010 16:33:02 26.5 C 8.01 g/m*3 26.5 C 0 km/h
2842 11-09-2010 16:45:02 26.4 C 7.72 g/m*3 26.4 C 0 km/h
2843 11-09-2010 16:57:02 27.8 C 8.34 g/m*3 27.8 C 0 km/h
2844 11-09-2010 17:09:02 28 C 7.61 g/m*3 28 C 0 km/h
2845 11-09-2010 17:21:02 27.3 C 7.85 g/m*3 27.3 C 0 km/h
2846 11-09-2010 17:33:02 27.5 C 8.47 g/m*3 27.5 C 0 km/h
2847 11-09-2010 17:45:02 27.6 C 8.78 g/m*3 27.6 C 0 km/h
2848 11-09-2010 17:57:02 27.7 C 8.83 g/m*3 27.7 C 0 km/h
2849 11-09-2010 18:09:02 27.5 C 9.26 g/m*3 27.5 C 0 km/h
2850 11-09-2010 18:21:02 26.8 C 9.16 g/m*3 26.8 C 0 km/h
Sensor: Nr:Datum:Temp:Abs-Feuchte:Windchill:Wind:
Aussen-T/F 2851 11-09-2010 18:33:01 26.3 C 8.91 g/m*3 26.3 C 0 km/h
2852 11-09-2010 18:45:02 25.3 C 9.36 g/m*3 25.3 C 0 km/h
2853 11-09-2010 18:57:02 24.4 C 9.57 g/m*3 24.4 C 0 km/h
2854 11-09-2010 19:09:01 23.7 C 9.63 g/m*3 23.7 C 0 km/h
2855 11-09-2010 19:21:02 22.6 C 9.64 g/m*3 22.6 C 0 km/h
2856 11-09-2010 19:33:02 21.6 C 10.05 g/m*3 21.6 C 0 km/h
2857 11-09-2010 19:45:02 20.7 C 9.72 g/m*3 20.7 C 0 km/h
2858 11-09-2010 19:57:02 20.2 C 9.44 g/m*3 20.2 C 0 km/h
2859 11-09-2010 20:09:02 20 C 9.33 g/m*3 20 C 0 km/h
2860 11-09-2010 20:21:02 19.5 C 9.4 g/m*3 19.5 C 0 km/h
2861 11-09-2010 20:33:02 19.3 C 9.45 g/m*3 19.3 C 0 km/h
2862 11-09-2010 20:45:01 19.1 C 9.67 g/m*3 19.1 C 0 km/h
2863 11-09-2010 20:57:01 18.8 C 9.66 g/m*3 18.8 C 0 km/h
2864 11-09-2010 21:09:02 18.6 C 9.71 g/m*3 18.6 C 0 km/h
2865 11-09-2010 21:21:01 18.4 C 9.91 g/m*3 18.4 C 0 km/h
2866 11-09-2010 21:33:01 18.2 C 10.1 g/m*3 18.2 C 0 km/h
2867 11-09-2010 21:45:01 17.7 C 10.11 g/m*3 17.7 C 0 km/h
2868 11-09-2010 21:57:01 17.6 C 10.2 g/m*3 17.6 C 0 km/h
2869 11-09-2010 22:09:02 17.6 C 10.2 g/m*3 17.6 C 0 km/h
2870 11-09-2010 22:21:01 17.4 C 10.23 g/m*3 17.4 C 0 km/h
2871 11-09-2010 22:34:03 17.2 C 10.1 g/m*3 17.2 C 0 km/h
2872 11-09-2010 22:46:03 16.9 C 10.36 g/m*3 16.9 C 0 km/h
2873 11-09-2010 22:58:03 16.9 C 10.5 g/m*3 16.9 C 0 km/h
2874 11-09-2010 23:10:03 17 C 10.42 g/m*3 17 C 0 km/h
2875 11-09-2010 23:22:03 16.6 C 10.45 g/m*3 16.6 C 0 km/h
Sensor: Nr:Datum:Temp:Abs-Feuchte:Windchill:Wind:
Aussen-T/F 2876 11-09-2010 23:34:03 16.5 C 10.39 g/m*3 16.5 C 0 km/h
2877 11-09-2010 23:46:03 16.4 C 10.33 g/m*3 16.4 C 0 km/h
2878 11-09-2010 23:58:03 16.3 C 10.41 g/m*3 16.3 C 0 km/h
2879 12-09-2010 00:10:03 16.2 C 10.48 g/m*3 16.2 C 0 km/h
2880 12-09-2010 00:22:03 16.2 C 10.48 g/m*3 16.2 C 0 km/h
2881 12-09-2010 00:34:03 16.1 C 10.42 g/m*3 16.1 C 0 km/h
2882 12-09-2010 00:46:03 16 C 10.35 g/m*3 16 C 0 km/h
2883 12-09-2010 00:58:03 15.8 C 10.36 g/m*3 15.8 C 0 km/h
2884 12-09-2010 01:10:03 15.6 C 10.37 g/m*3 15.6 C 0 km/h
2885 12-09-2010 01:22:04 15.5 C 10.31 g/m*3 15.5 C 0 km/h
2886 12-09-2010 01:34:04 15.2 C 10.25 g/m*3 15.2 C 0 km/h
2887 12-09-2010 01:46:04 15.2 C 10.38 g/m*3 15.2 C 0 km/h
2888 12-09-2010 01:58:04 15.2 C 10.38 g/m*3 15.2 C 0 km/h
2889 12-09-2010 02:10:04 15 C 10.26 g/m*3 15 C 0 km/h
2890 12-09-2010 02:22:04 15 C 10.39 g/m*3 15 C 0 km/h
2891 12-09-2010 02:34:04 14.9 C 10.45 g/m*3 14.9 C 0 km/h
2892 12-09-2010 02:46:04 14.8 C 10.51 g/m*3 14.8 C 0 km/h
2893 12-09-2010 02:58:04 14.7 C 10.32 g/m*3 14.7 C 0 km/h
2894 12-09-2010 03:10:04 14.7 C 10.32 g/m*3 14.7 C 0 km/h
2895 12-09-2010 03:22:04 14.6 C 10.26 g/m*3 14.6 C 0 km/h
2896 12-09-2010 03:34:04 14.4 C 10.14 g/m*3 14.4 C 0 km/h
2897 12-09-2010 03:46:04 14.3 C 10.07 g/m*3 14.3 C 0 km/h
2898 12-09-2010 03:58:04 14.3 C 10.2 g/m*3 14.3 C 0 km/h
2899 12-09-2010 04:10:04 14.2 C 10.14 g/m*3 14.2 C 0 km/h
2900 12-09-2010 04:22:04 14.1 C 10.07 g/m*3 14.1 C 0 km/h
Sensor: Nr:Datum:Temp:Abs-Feuchte:Windchill:Wind:
Aussen-T/F 2901 12-09-2010 04:34:05 14.1 C 10.07 g/m*3 14.1 C 0 km/h
2902 12-09-2010 04:46:05 14.1 C 10.07 g/m*3 14.1 C 0 km/h
2903 12-09-2010 04:58:05 14 C 10.01 g/m*3 14 C 0 km/h
2904 12-09-2010 05:10:05 13.9 C 10.07 g/m*3 13.9 C 0 km/h
2905 12-09-2010 05:22:05 13.7 C 9.95 g/m*3 13.7 C 0 km/h
2906 12-09-2010 05:34:05 13.8 C 10.01 g/m*3 13.8 C 0 km/h
2907 12-09-2010 05:46:05 13.7 C 9.95 g/m*3 13.7 C 0 km/h
2908 12-09-2010 05:58:05 13.7 C 9.95 g/m*3 13.7 C 0 km/h
2909 12-09-2010 06:10:05 13.7 C 9.95 g/m*3 13.7 C 0 km/h
2910 12-09-2010 06:22:05 13.5 C 9.94 g/m*3 13.5 C 0 km/h
2911 12-09-2010 06:34:05 13.5 C 9.94 g/m*3 13.5 C 0 km/h
2912 12-09-2010 06:46:05 13.5 C 9.94 g/m*3 13.5 C 0 km/h
2913 12-09-2010 06:58:05 13.4 C 9.88 g/m*3 13.4 C 0 km/h
2914 12-09-2010 07:10:05 13.5 C 9.94 g/m*3 13.5 C 0 km/h
2915 12-09-2010 07:22:05 13.5 C 10.06 g/m*3 13.5 C 0 km/h
2916 12-09-2010 07:34:05 13.6 C 10.12 g/m*3 13.6 C 0 km/h
2917 12-09-2010 07:46:02 13.8 C 10.25 g/m*3 13.8 C 0 km/h
2918 12-09-2010 07:58:02 14.1 C 10.32 g/m*3 14.1 C 0 km/h
2919 12-09-2010 08:10:02 14.1 C 10.32 g/m*3 14.1 C 0 km/h
2920 12-09-2010 08:22:01 14.4 C 10.38 g/m*3 14.4 C 0 km/h
2921 12-09-2010 08:34:02 14.5 C 10.32 g/m*3 14.5 C 0 km/h
2922 12-09-2010 08:46:02 14 C 10.13 g/m*3 14 C 0 km/h
2923 12-09-2010 08:58:02 14.3 C 10.32 g/m*3 14.3 C 0 km/h
2924 12-09-2010 09:10:02 14.8 C 10.64 g/m*3 14.8 C 0 km/h
2925 12-09-2010 09:22:02 14.8 C 10.39 g/m*3 14.8 C 0 km/h
Sensor: Nr:Datum:Temp:Abs-Feuchte:Windchill:Wind:
Aussen-T/F 2926 12-09-2010 09:34:02 14.8 C 10.51 g/m*3 14.8 C 0 km/h
2927 12-09-2010 09:46:02 15 C 10.51 g/m*3 15 C 0 km/h
2928 12-09-2010 09:58:02 14.8 C 10.51 g/m*3 14.8 C 0 km/h
2929 12-09-2010 10:10:02 15.3 C 10.84 g/m*3 15.3 C 0 km/h
2930 12-09-2010 10:22:03 15.9 C 11.1 g/m*3 15.9 C 0 km/h
2931 12-09-2010 10:34:02 16.8 C 11.29 g/m*3 16.8 C 0 km/h
2932 12-09-2010 10:46:02 18 C 11.37 g/m*3 18 C 0 km/h
2933 12-09-2010 10:58:02 18.7 C 11.05 g/m*3 18.7 C 0 km/h
2934 12-09-2010 11:10:02 19.5 C 10.41 g/m*3 19.5 C 0 km/h
2935 12-09-2010 11:22:02 20.2 C 10.67 g/m*3 20.2 C 0 km/h
2936 12-09-2010 11:34:02 20.1 C 10.6 g/m*3 20.1 C 0 km/h
2937 12-09-2010 11:46:02 20 C 10.89 g/m*3 20 C 0 km/h
2938 12-09-2010 11:58:02 20.3 C 10.9 g/m*3 20.3 C 0 km/h
2939 12-09-2010 12:10:01 20.5 C 10.85 g/m*3 20.5 C 0 km/h
2940 12-09-2010 12:22:02 20.9 C 11.11 g/m*3 20.9 C 0 km/h
2941 12-09-2010 12:34:01 21.4 C 11.06 g/m*3 21.4 C 0 km/h
2942 12-09-2010 12:46:01 22.4 C 10.33 g/m*3 22.4 C 0 km/h
2943 12-09-2010 12:58:02 22.9 C 10.22 g/m*3 22.9 C 0 km/h
2944 12-09-2010 13:10:01 23.1 C 10.34 g/m*3 23.1 C 0 km/h
2945 12-09-2010 13:22:01 23.7 C 10.48 g/m*3 23.7 C 0 km/h
2946 12-09-2010 13:34:02 24.3 C 9.74 g/m*3 24.3 C 0 km/h
2947 12-09-2010 13:46:02 25 C 8.98 g/m*3 25 C 0 km/h
2948 12-09-2010 13:58:02 25.9 C 9.44 g/m*3 25.9 C 0 km/h
2949 12-09-2010 14:10:02 25.7 C 9.34 g/m*3 25.7 C 0 km/h
2950 12-09-2010 14:22:01 25 C 8.06 g/m*3 25 C 0 km/h
Sensor: Nr:Datum:Temp:Abs-Feuchte:Windchill:Wind:
Aussen-T/F 2951 12-09-2010 14:34:02 24.7 C 8.15 g/m*3 24.7 C 0 km/h
2952 12-09-2010 14:46:02 23.1 C 9.72 g/m*3 23.1 C 0 km/h
2953 12-09-2010 14:58:02 20.8 C 10.14 g/m*3 20.8 C 0 km/h
2954 12-09-2010 15:10:02 19.5 C 9.23 g/m*3 19.5 C 0 km/h
2955 12-09-2010 15:22:02 19.1 C 8.69 g/m*3 19.1 C 0 km/h
2956 12-09-2010 15:34:02 19.4 C 8.84 g/m*3 19.4 C 0 km/h
2957 12-09-2010 15:46:02 19.4 C 8.84 g/m*3 19.4 C 0 km/h
2958 12-09-2010 15:58:02 19.2 C 8.74 g/m*3 19.2 C 0 km/h
2959 12-09-2010 16:10:02 17.9 C 8.86 g/m*3 17.9 C 0 km/h
2960 12-09-2010 16:22:02 18.1 C 9.12 g/m*3 18.1 C 0 km/h
2961 12-09-2010 16:34:02 18.1 C 9.27 g/m*3 18.1 C 0 km/h
2962 12-09-2010 16:46:02 17.6 C 9.3 g/m*3 17.6 C 0 km/h
2963 12-09-2010 16:58:02 17.2 C 9.37 g/m*3 17.2 C 0 km/h
2964 12-09-2010 17:10:02 17.2 C 9.52 g/m*3 17.2 C 0 km/h
2965 12-09-2010 17:22:02 16.6 C 9.04 g/m*3 16.6 C 0 km/h
2966 12-09-2010 17:34:01 16.1 C 9.46 g/m*3 16.1 C 0 km/h
2967 12-09-2010 17:46:02 15.6 C 9.97 g/m*3 15.6 C 0 km/h
2968 12-09-2010 17:58:02 15.5 C 10.31 g/m*3 15.5 C 0 km/h
2969 12-09-2010 18:10:01 15.2 C 10.25 g/m*3 15.2 C 0 km/h
2970 12-09-2010 18:22:02 15.2 C 10.51 g/m*3 15.2 C 0 km/h
2971 12-09-2010 18:34:02 14.9 C 10.58 g/m*3 14.9 C 0 km/h
2972 12-09-2010 18:46:02 14.7 C 10.7 g/m*3 14.7 C 0 km/h
2973 12-09-2010 18:58:02 14.6 C 10.89 g/m*3 14.6 C 0 km/h
2974 12-09-2010 19:10:02 14.5 C 10.82 g/m*3 14.5 C 0 km/h
2975 12-09-2010 19:22:02 14.3 C 10.69 g/m*3 14.3 C 0 km/h
Sensor: Nr:Datum:Temp:Abs-Feuchte:Windchill:Wind:
Aussen-T/F 2976 12-09-2010 19:34:02 14.1 C 10.68 g/m*3 14.1 C 0 km/h
2977 12-09-2010 19:46:01 14.3 C 10.93 g/m*3 14.3 C 0 km/h
2978 12-09-2010 19:58:01 14.1 C 10.8 g/m*3 14.1 C 0 km/h
2979 12-09-2010 20:10:02 14 C 10.74 g/m*3 14 C 0 km/h
2980 12-09-2010 20:22:01 13.9 C 10.79 g/m*3 13.9 C 0 km/h
2981 12-09-2010 20:34:01 13.8 C 10.84 g/m*3 13.8 C 0 km/h
2982 12-09-2010 20:46:01 13.7 C 10.78 g/m*3 13.7 C 0 km/h
2983 12-09-2010 20:58:01 13.7 C 10.89 g/m*3 13.7 C 0 km/h
2984 12-09-2010 21:10:02 13.6 C 10.83 g/m*3 13.6 C 0 km/h
2985 12-09-2010 21:22:01 13.7 C 10.89 g/m*3 13.7 C 0 km/h
2986 12-09-2010 21:34:01 13.7 C 10.89 g/m*3 13.7 C 0 km/h
2987 12-09-2010 21:46:01 13.9 C 11.15 g/m*3 13.9 C 0 km/h
2988 12-09-2010 21:58:01 14 C 11.1 g/m*3 14 C 0 km/h
2989 12-09-2010 22:10:02 13.9 C 11.15 g/m*3 13.9 C 0 km/h
2990 12-09-2010 22:22:01 13.9 C 11.15 g/m*3 13.9 C 0 km/h
2991 12-09-2010 22:34:02 13.8 C 11.08 g/m*3 13.8 C 0 km/h
2992 12-09-2010 22:46:02 13.7 C 11.01 g/m*3 13.7 C 0 km/h
2993 12-09-2010 22:58:02 13.6 C 10.95 g/m*3 13.6 C 0 km/h
2994 12-09-2010 23:10:01 13.5 C 10.88 g/m*3 13.5 C 0 km/h
2995 12-09-2010 23:22:02 13.5 C 10.88 g/m*3 13.5 C 0 km/h
2996 12-09-2010 23:34:02 13.5 C 10.88 g/m*3 13.5 C 0 km/h
2997 12-09-2010 23:46:02 13.7 C 11.01 g/m*3 13.7 C 0 km/h
2998 12-09-2010 23:58:02 13.7 C 11.01 g/m*3 13.7 C 0 km/h
2999 13-09-2010 00:10:03 13.7 C 11.01 g/m*3 13.7 C 0 km/h
3000 13-09-2010 00:22:02 13.6 C 10.95 g/m*3 13.6 C 0 km/h
Sensor: Nr:Datum:Temp:Abs-Feuchte:Windchill:Wind:
Aussen-T/F 3001 13-09-2010 00:34:02 13.7 C 11.01 g/m*3 13.7 C 0 km/h
3002 13-09-2010 00:46:02 13.7 C 11.01 g/m*3 13.7 C 0 km/h
3003 13-09-2010 00:58:02 13.7 C 11.01 g/m*3 13.7 C 0 km/h
3004 13-09-2010 01:10:02 13.6 C 10.95 g/m*3 13.6 C 0 km/h
3005 13-09-2010 01:22:03 13.7 C 11.01 g/m*3 13.7 C 0 km/h
3006 13-09-2010 01:34:02 13.8 C 11.08 g/m*3 13.8 C 0 km/h
3007 13-09-2010 01:46:02 13.7 C 11.01 g/m*3 13.7 C 0 km/h
3008 13-09-2010 01:58:02 13.7 C 11.01 g/m*3 13.7 C 0 km/h
3009 13-09-2010 02:10:02 13.7 C 11.01 g/m*3 13.7 C 0 km/h
3010 13-09-2010 02:22:02 13.5 C 10.88 g/m*3 13.5 C 0 km/h
3011 13-09-2010 02:34:02 13.4 C 10.81 g/m*3 13.4 C 0 km/h
3012 13-09-2010 02:46:02 13.4 C 10.81 g/m*3 13.4 C 0 km/h
3013 13-09-2010 02:58:02 13.6 C 10.95 g/m*3 13.6 C 0 km/h
3014 13-09-2010 03:10:01 13.5 C 10.88 g/m*3 13.5 C 0 km/h
3015 13-09-2010 03:22:01 13.3 C 10.63 g/m*3 13.3 C 0 km/h
3016 13-09-2010 03:34:02 13.2 C 10.56 g/m*3 13.2 C 0 km/h
3017 13-09-2010 03:46:02 13.2 C 10.45 g/m*3 13.2 C 0 km/h
3018 13-09-2010 03:58:02 13.1 C 10.38 g/m*3 13.1 C 0 km/h
3019 13-09-2010 04:10:01 13 C 10.21 g/m*3 13 C 0 km/h
3020 13-09-2010 04:22:02 12.8 C 10.19 g/m*3 12.8 C 0 km/h
3021 13-09-2010 04:34:01 12.9 C 10.26 g/m*3 12.9 C 0 km/h
3022 13-09-2010 04:46:01 13.1 C 10.16 g/m*3 13.1 C 0 km/h
3023 13-09-2010 04:58:02 13.2 C 10.22 g/m*3 13.2 C 0 km/h
3024 13-09-2010 05:10:01 13.3 C 10.05 g/m*3 13.3 C 0 km/h
3025 13-09-2010 05:22:01 13.3 C 9.82 g/m*3 13.3 C 0 km/h
Sensor: Nr:Datum:Temp:Abs-Feuchte:Windchill:Wind:
Aussen-T/F 3026 13-09-2010 05:34:02 13.2 C 9.64 g/m*3 13.2 C 0 km/h
3027 13-09-2010 05:46:01 13.2 C 9.64 g/m*3 13.2 C 0 km/h
3028 13-09-2010 05:58:01 13.3 C 9.7 g/m*3 13.3 C 0 km/h
3029 13-09-2010 06:10:02 13.4 C 9.76 g/m*3 13.4 C 0 km/h
3030 13-09-2010 06:22:01 13.4 C 9.65 g/m*3 13.4 C 0 km/h
3031 13-09-2010 06:34:01 13.3 C 9.59 g/m*3 13.3 C 0 km/h
3032 13-09-2010 06:46:01 13.2 C 9.42 g/m*3 13.2 C 0 km/h
3033 13-09-2010 06:58:01 13.2 C 9.42 g/m*3 13.2 C 0 km/h
3034 13-09-2010 07:10:02 13 C 9.19 g/m*3 13 C 0 km/h
3035 13-09-2010 07:22:01 13 C 9.3 g/m*3 13 C 0 km/h
3036 13-09-2010 07:34:01 12.7 C 9.13 g/m*3 12.7 C 0 km/h
3037 13-09-2010 07:46:01 12.5 C 9.13 g/m*3 12.5 C 0 km/h
3038 13-09-2010 07:58:01 12.4 C 9.18 g/m*3 12.4 C 0 km/h
3039 13-09-2010 08:10:01 12.5 C 9.35 g/m*3 12.5 C 0 km/h
3040 13-09-2010 08:22:01 13 C 9.64 g/m*3 13 C 0 km/h
3041 13-09-2010 08:34:01 13.1 C 9.7 g/m*3 13.1 C 0 km/h
3042 13-09-2010 08:46:02 13.2 C 9.64 g/m*3 13.2 C 0 km/h
3043 13-09-2010 08:58:02 13.4 C 9.76 g/m*3 13.4 C 0 km/h
3044 13-09-2010 09:10:01 13.5 C 9.71 g/m*3 13.5 C 0 km/h
3045 13-09-2010 09:22:02 13.7 C 9.71 g/m*3 13.7 C 0 km/h
3046 13-09-2010 09:34:01 14 C 9.41 g/m*3 14 C 0 km/h
3047 13-09-2010 09:46:02 14.2 C 9.28 g/m*3 14.2 C 0 km/h
3048 13-09-2010 09:58:02 14.5 C 9.2 g/m*3 14.5 C 0 km/h
3049 13-09-2010 10:10:01 14.8 C 9.25 g/m*3 14.8 C 0 km/h
3050 13-09-2010 10:22:01 15 C 9.1 g/m*3 15 C 0 km/h
Sensor: Nr:Datum:Temp:Abs-Feuchte:Windchill:Wind:
Aussen-T/F 3051 13-09-2010 10:34:02 15.3 C 9.14 g/m*3 15.3 C 0 km/h
3052 13-09-2010 10:46:01 15.6 C 8.91 g/m*3 15.6 C 0 km/h
3053 13-09-2010 10:58:01 15.9 C 8.8 g/m*3 15.9 C 0 km/h
3054 13-09-2010 11:10:01 16 C 8.58 g/m*3 16 C 0 km/h
3055 13-09-2010 11:22:01 16.4 C 8.65 g/m*3 16.4 C 0 km/h
3056 13-09-2010 11:34:02 16.3 C 8.74 g/m*3 16.3 C 0 km/h
3057 13-09-2010 11:46:01 17.1 C 8.59 g/m*3 17.1 C 0 km/h
3058 13-09-2010 11:58:01 16.7 C 8.24 g/m*3 16.7 C 0 km/h
3059 13-09-2010 12:10:02 16.4 C 8.23 g/m*3 16.4 C 0 km/h
3060 13-09-2010 12:22:01 16.9 C 8.2 g/m*3 16.9 C 0 km/h
3061 13-09-2010 12:34:01 17.6 C 7.8 g/m*3 17.6 C 0 km/h
3062 13-09-2010 12:46:01 17.6 C 7.5 g/m*3 17.6 C 0 km/h
3063 13-09-2010 12:58:01 17.7 C 7.85 g/m*3 17.7 C 0 km/h
3064 13-09-2010 13:10:01 18 C 7.37 g/m*3 18 C 0 km/h
3065 13-09-2010 13:22:01 18.9 C 7.78 g/m*3 18.9 C 0 km/h
3066 13-09-2010 13:34:01 18.9 C 7.45 g/m*3 18.9 C 0 km/h
3067 13-09-2010 13:46:01 18.7 C 7.2 g/m*3 18.7 C 0 km/h
3068 13-09-2010 13:58:01 20.2 C 7.87 g/m*3 20.2 C 0 km/h
3069 13-09-2010 14:10:01 19.9 C 7.22 g/m*3 19.9 C 0 km/h
3070 13-09-2010 14:22:02 19.5 C 6.55 g/m*3 19.5 C 0 km/h
3071 13-09-2010 14:34:01 19.6 C 6.75 g/m*3 19.6 C 0 km/h
3072 13-09-2010 14:46:02 20.6 C 7.34 g/m*3 20.6 C 0 km/h
3073 13-09-2010 14:58:02 21.3 C 6.9 g/m*3 21.3 C 0 km/h
3074 13-09-2010 15:10:01 20.9 C 6.74 g/m*3 20.9 C 0 km/h
3075 13-09-2010 15:22:01 21.3 C 6.9 g/m*3 21.3 C 0 km/h
Sensor: Nr:Datum:Temp:Abs-Feuchte:Windchill:Wind:
Aussen-T/F 3076 13-09-2010 15:34:01 21.2 C 6.67 g/m*3 21.2 C 0 km/h
3077 13-09-2010 15:46:01 20.6 C 7.16 g/m*3 20.6 C 0 km/h
3078 13-09-2010 15:58:01 20 C 7.95 g/m*3 20 C 0 km/h
3079 13-09-2010 16:10:01 20.8 C 7.97 g/m*3 20.8 C 0 km/h
3080 13-09-2010 16:22:02 21.4 C 6.37 g/m*3 21.4 C 0 km/h
3081 13-09-2010 16:34:01 21.4 C 7.5 g/m*3 21.4 C 0 km/h
3082 13-09-2010 16:46:02 21.8 C 6.52 g/m*3 21.8 C 0 km/h
3083 13-09-2010 16:58:02 22.4 C 6.16 g/m*3 22.4 C 0 km/h
3084 13-09-2010 17:10:01 22.3 C 7.11 g/m*3 22.3 C 0 km/h
3085 13-09-2010 17:22:01 20.5 C 7.65 g/m*3 20.5 C 0 km/h
3086 13-09-2010 17:34:01 20.2 C 7.87 g/m*3 20.2 C 0 km/h
3087 13-09-2010 17:46:01 19.8 C 8.37 g/m*3 19.8 C 0 km/h
3088 13-09-2010 17:58:02 19.6 C 8.61 g/m*3 19.6 C 0 km/h
3089 13-09-2010 18:10:02 18.9 C 8.75 g/m*3 18.9 C 0 km/h
3090 13-09-2010 18:22:02 18.4 C 8.65 g/m*3 18.4 C 0 km/h
3091 13-09-2010 18:34:01 18.2 C 8.55 g/m*3 18.2 C 0 km/h
3092 13-09-2010 18:46:02 17.9 C 8.55 g/m*3 17.9 C 0 km/h
3093 13-09-2010 18:58:02 17.7 C 8.6 g/m*3 17.7 C 0 km/h
3094 13-09-2010 19:10:01 17.7 C 8.6 g/m*3 17.7 C 0 km/h
3095 13-09-2010 19:22:02 17.5 C 8.5 g/m*3 17.5 C 0 km/h
3096 13-09-2010 19:34:01 17 C 8.68 g/m*3 17 C 0 km/h
3097 13-09-2010 19:46:02 16.4 C 8.51 g/m*3 16.4 C 0 km/h
3098 13-09-2010 19:58:02 16 C 8.45 g/m*3 16 C 0 km/h
3099 13-09-2010 20:10:01 15.6 C 8.64 g/m*3 15.6 C 0 km/h
3100 13-09-2010 20:22:01 15.4 C 8.8 g/m*3 15.4 C 0 km/h
Sensor: Nr:Datum:Temp:Abs-Feuchte:Windchill:Wind:
Aussen-T/F 3101 13-09-2010 20:34:01 15.2 C 8.96 g/m*3 15.2 C 0 km/h
3102 13-09-2010 20:46:01 15.1 C 9.03 g/m*3 15.1 C 0 km/h
3103 13-09-2010 20:58:02 14.9 C 9.05 g/m*3 14.9 C 0 km/h
3104 13-09-2010 21:10:01 14.7 C 8.94 g/m*3 14.7 C 0 km/h
3105 13-09-2010 21:22:01 14.6 C 9.01 g/m*3 14.6 C 0 km/h
3106 13-09-2010 21:34:02 14.5 C 8.95 g/m*3 14.5 C 0 km/h
3107 13-09-2010 21:46:01 14.4 C 8.9 g/m*3 14.4 C 0 km/h
3108 13-09-2010 21:58:01 14.4 C 9.02 g/m*3 14.4 C 0 km/h
3109 13-09-2010 22:10:01 14.1 C 8.86 g/m*3 14.1 C 0 km/h
3110 13-09-2010 22:23:05 13.8 C 8.82 g/m*3 13.8 C 0 km/h
3111 13-09-2010 22:35:05 13.7 C 8.88 g/m*3 13.7 C 0 km/h
3112 13-09-2010 22:47:05 13.5 C 8.89 g/m*3 13.5 C 0 km/h
3113 13-09-2010 22:59:05 13.4 C 8.83 g/m*3 13.4 C 0 km/h
3114 13-09-2010 23:11:05 13.3 C 8.78 g/m*3 13.3 C 0 km/h
3115 13-09-2010 23:23:05 13.3 C 9.01 g/m*3 13.3 C 0 km/h
3116 13-09-2010 23:35:05 13.1 C 8.9 g/m*3 13.1 C 0 km/h
3117 13-09-2010 23:47:05 13 C 8.73 g/m*3 13 C 0 km/h
3118 13-09-2010 23:59:05 13 C 8.85 g/m*3 13 C 0 km/h
3119 14-09-2010 00:11:05 13 C 8.96 g/m*3 13 C 0 km/h
3120 14-09-2010 00:23:05 12.8 C 9.18 g/m*3 12.8 C 0 km/h
3121 14-09-2010 00:35:05 12.8 C 9.3 g/m*3 12.8 C 0 km/h
3122 14-09-2010 00:47:05 12.8 C 9.3 g/m*3 12.8 C 0 km/h
3123 14-09-2010 00:59:05 12.7 C 9.24 g/m*3 12.7 C 0 km/h
3124 14-09-2010 01:11:05 12.6 C 9.18 g/m*3 12.6 C 0 km/h
3125 14-09-2010 01:23:05 12.7 C 9.24 g/m*3 12.7 C 0 km/h
Sensor: Nr:Datum:Temp:Abs-Feuchte:Windchill:Wind:
Aussen-T/F 3126 14-09-2010 01:35:05 12.8 C 9.3 g/m*3 12.8 C 0 km/h
3127 14-09-2010 01:47:05 12.9 C 9.35 g/m*3 12.9 C 0 km/h
3128 14-09-2010 01:59:05 13 C 9.3 g/m*3 13 C 0 km/h
3129 14-09-2010 02:11:05 13 C 9.3 g/m*3 13 C 0 km/h
3130 14-09-2010 02:23:05 13 C 9.3 g/m*3 13 C 0 km/h
3131 14-09-2010 02:35:06 13.1 C 9.36 g/m*3 13.1 C 0 km/h
3132 14-09-2010 02:47:06 13.2 C 9.42 g/m*3 13.2 C 0 km/h
3133 14-09-2010 02:59:06 13.2 C 9.3 g/m*3 13.2 C 0 km/h
3134 14-09-2010 03:11:06 13.4 C 9.18 g/m*3 13.4 C 0 km/h
3135 14-09-2010 03:23:06 13.4 C 9.18 g/m*3 13.4 C 0 km/h
3136 14-09-2010 03:35:06 13.3 C 9.24 g/m*3 13.3 C 0 km/h
3137 14-09-2010 03:47:06 13.3 C 9.24 g/m*3 13.3 C 0 km/h
3138 14-09-2010 03:59:06 13.4 C 9.3 g/m*3 13.4 C 0 km/h
3139 14-09-2010 04:11:06 13.2 C 9.19 g/m*3 13.2 C 0 km/h
3140 14-09-2010 04:23:06 13 C 9.3 g/m*3 13 C 0 km/h
3141 14-09-2010 04:35:06 12.8 C 9.41 g/m*3 12.8 C 0 km/h
3142 14-09-2010 04:47:06 12.9 C 9.58 g/m*3 12.9 C 0 km/h
3143 14-09-2010 04:59:06 12.8 C 9.63 g/m*3 12.8 C 0 km/h
3144 14-09-2010 05:11:06 12.9 C 9.81 g/m*3 12.9 C 0 km/h
3145 14-09-2010 05:23:06 12.9 C 9.81 g/m*3 12.9 C 0 km/h
3146 14-09-2010 05:35:06 13 C 9.87 g/m*3 13 C 0 km/h
3147 14-09-2010 05:47:06 13 C 9.87 g/m*3 13 C 0 km/h
3148 14-09-2010 05:59:06 13 C 9.87 g/m*3 13 C 0 km/h
3149 14-09-2010 06:11:06 13.3 C 10.05 g/m*3 13.3 C 0 km/h
3150 14-09-2010 06:23:06 13.5 C 9.83 g/m*3 13.5 C 0 km/h
Sensor: Nr:Datum:Temp:Abs-Feuchte:Windchill:Wind:
Aussen-T/F 3151 14-09-2010 06:35:06 13.8 C 9.06 g/m*3 13.8 C 0 km/h
3152 14-09-2010 06:47:06 14.5 C 8.83 g/m*3 14.5 C 0 km/h
3153 14-09-2010 06:59:07 14.4 C 8.53 g/m*3 14.4 C 0 km/h
3154 14-09-2010 07:11:07 14.4 C 8.53 g/m*3 14.4 C 0 km/h
3155 14-09-2010 07:23:07 14.4 C 8.65 g/m*3 14.4 C 0 km/h
3156 14-09-2010 07:35:04 14.3 C 8.85 g/m*3 14.3 C 0 km/h
3157 14-09-2010 07:47:02 13.6 C 9.18 g/m*3 13.6 C 0 km/h
3158 14-09-2010 07:59:02 13.6 C 9.42 g/m*3 13.6 C 0 km/h
3159 14-09-2010 08:11:01 13.7 C 9.47 g/m*3 13.7 C 0 km/h
3160 14-09-2010 08:23:02 13.7 C 9.47 g/m*3 13.7 C 0 km/h
3161 14-09-2010 08:35:02 14.1 C 9.34 g/m*3 14.1 C 0 km/h
3162 14-09-2010 08:47:02 14.4 C 9.15 g/m*3 14.4 C 0 km/h
3163 14-09-2010 08:59:02 14.6 C 9.13 g/m*3 14.6 C 0 km/h
3164 14-09-2010 09:11:01 14.7 C 9.07 g/m*3 14.7 C 0 km/h
3165 14-09-2010 09:23:02 14.8 C 9.12 g/m*3 14.8 C 0 km/h
3166 14-09-2010 09:35:02 15.1 C 9.03 g/m*3 15.1 C 0 km/h
3167 14-09-2010 09:47:01 15.6 C 9.04 g/m*3 15.6 C 0 km/h
3168 14-09-2010 09:59:01 15.6 C 9.04 g/m*3 15.6 C 0 km/h
3169 14-09-2010 10:11:02 15.6 C 9.04 g/m*3 15.6 C 0 km/h
3170 14-09-2010 10:23:01 15.7 C 9.1 g/m*3 15.7 C 0 km/h
3171 14-09-2010 10:35:01 16 C 8.99 g/m*3 16 C 0 km/h
3172 14-09-2010 10:47:01 16.4 C 8.93 g/m*3 16.4 C 0 km/h
3173 14-09-2010 10:59:01 16.8 C 9.29 g/m*3 16.8 C 0 km/h
3174 14-09-2010 11:11:02 17 C 8.97 g/m*3 17 C 0 km/h
3175 14-09-2010 11:23:01 17.1 C 9.03 g/m*3 17.1 C 0 km/h
Sensor: Nr:Datum:Temp:Abs-Feuchte:Windchill:Wind:
Aussen-T/F 3176 14-09-2010 11:35:01 17 C 9.12 g/m*3 17 C 0 km/h
3177 14-09-2010 11:47:01 16.7 C 9.24 g/m*3 16.7 C 0 km/h
3178 14-09-2010 11:59:01 17.5 C 9.39 g/m*3 17.5 C 0 km/h
3179 14-09-2010 12:11:02 17.8 C 9.26 g/m*3 17.8 C 0 km/h
3180 14-09-2010 12:23:02 18.2 C 9.01 g/m*3 18.2 C 0 km/h
3181 14-09-2010 12:35:01 18.5 C 9.18 g/m*3 18.5 C 0 km/h
3182 14-09-2010 12:47:02 18.8 C 9.18 g/m*3 18.8 C 0 km/h
3183 14-09-2010 12:59:02 18.9 C 9.23 g/m*3 18.9 C 0 km/h
3184 14-09-2010 13:11:01 19.6 C 9.28 g/m*3 19.6 C 0 km/h
3185 14-09-2010 13:23:01 19.7 C 9.34 g/m*3 19.7 C 0 km/h
3186 14-09-2010 13:35:01 20.2 C 9.44 g/m*3 20.2 C 0 km/h
3187 14-09-2010 13:47:02 20.4 C 9.02 g/m*3 20.4 C 0 km/h
3188 14-09-2010 13:59:02 20 C 8.99 g/m*3 20 C 0 km/h
3189 14-09-2010 14:11:02 19.7 C 8.83 g/m*3 19.7 C 0 km/h
3190 14-09-2010 14:23:02 19.7 C 9 g/m*3 19.7 C 0 km/h
3191 14-09-2010 14:35:02 19.8 C 8.71 g/m*3 19.8 C 0 km/h
3192 14-09-2010 14:47:01 19.6 C 8.78 g/m*3 19.6 C 0 km/h
3193 14-09-2010 14:59:01 19.5 C 8.89 g/m*3 19.5 C 0 km/h
3194 14-09-2010 15:11:02 20 C 8.81 g/m*3 20 C 0 km/h
3195 14-09-2010 15:23:01 20 C 8.64 g/m*3 20 C 0 km/h
3196 14-09-2010 15:35:02 20.4 C 8.67 g/m*3 20.4 C 0 km/h
3197 14-09-2010 15:47:01 20.7 C 8.46 g/m*3 20.7 C 0 km/h
3198 14-09-2010 15:59:01 20.9 C 8.56 g/m*3 20.9 C 0 km/h
3199 14-09-2010 16:11:02 20.8 C 8.15 g/m*3 20.8 C 0 km/h
3200 14-09-2010 16:23:01 20.9 C 8.2 g/m*3 20.9 C 0 km/h
Sensor: Nr:Datum:Temp:Abs-Feuchte:Windchill:Wind:
Aussen-T/F 3201 14-09-2010 16:35:02 20.6 C 7.7 g/m*3 20.6 C 0 km/h
3202 14-09-2010 16:47:01 20.6 C 7.7 g/m*3 20.6 C 0 km/h
3203 14-09-2010 16:59:01 20.5 C 7.65 g/m*3 20.5 C 0 km/h
3204 14-09-2010 17:11:02 20.5 C 7.47 g/m*3 20.5 C 0 km/h
3205 14-09-2010 17:23:01 20.4 C 7.43 g/m*3 20.4 C 0 km/h
3206 14-09-2010 17:35:01 20 C 7.26 g/m*3 20 C 0 km/h
3207 14-09-2010 17:47:01 20 C 7.43 g/m*3 20 C 0 km/h
3208 14-09-2010 17:59:01 19.8 C 7.69 g/m*3 19.8 C 0 km/h
3209 14-09-2010 18:11:01 19.6 C 7.77 g/m*3 19.6 C 0 km/h
3210 14-09-2010 18:23:02 19.4 C 7.84 g/m*3 19.4 C 0 km/h
3211 14-09-2010 18:35:01 19.3 C 7.8 g/m*3 19.3 C 0 km/h
3212 14-09-2010 18:47:02 19.3 C 7.8 g/m*3 19.3 C 0 km/h
3213 14-09-2010 18:59:02 19.1 C 7.87 g/m*3 19.1 C 0 km/h
3214 14-09-2010 19:11:01 19 C 7.82 g/m*3 19 C 0 km/h
3215 14-09-2010 19:23:01 18.9 C 7.78 g/m*3 18.9 C 0 km/h
3216 14-09-2010 19:35:01 18.7 C 7.68 g/m*3 18.7 C 0 km/h
3217 14-09-2010 19:47:02 18.7 C 7.68 g/m*3 18.7 C 0 km/h
3218 14-09-2010 19:59:03 18.7 C 7.68 g/m*3 18.7 C 0 km/h
3219 14-09-2010 20:11:01 18.7 C 7.68 g/m*3 18.7 C 0 km/h
3220 14-09-2010 20:23:02 18.6 C 7.64 g/m*3 18.6 C 0 km/h
3221 14-09-2010 20:35:02 18.7 C 7.68 g/m*3 18.7 C 0 km/h
3222 14-09-2010 20:47:02 18.5 C 7.75 g/m*3 18.5 C 0 km/h
3223 14-09-2010 20:59:02 18.5 C 7.75 g/m*3 18.5 C 0 km/h
3224 14-09-2010 21:11:03 18.5 C 7.75 g/m*3 18.5 C 0 km/h